Darstellungsparameter: Aktuell verwendete Einstellungen:
Skalierung der Graphiken ... ?
xyx+y,   Skalierungsfaktor:      Skalierung: Modus: x, Faktor: 1
Darstellungszeitraum ... ?
Vom - - bis: - -   Zeitraum: 20.06.2009 - 19.07.2009
Min/Max/Avg-Anzeige ... ?
Zeige MMA aktuell
Zeige MMA Monat
Zeige MMA alles
Zeige --A aktuell
Zeige --A Monat
Zeige --A alles
Keine MMA-Anzeige
MMA:
Average (ber die Originaldaten)
MMA-Basis: 20.06.2009 - 19.07.2009
Quicknavigation für Darstellung... ?
Tage:      1T, 2T, 3T, 5T -1T -2T -3T -5T +1T +2T +3T +5T
Wochen: 1W, 2W, 3W -1W -2W -3W +1W +2W +3W
Monate: 1M, 3M, 6M -1M -3M -6M +1M +3M +6M
Jahre:    1J, 3J, 5J, 10J -1J -3J -5J -10J +1J +3J +5J +10J
Nutze für die Darstellung ... ?
Originaldaten oder Mittelwerte auf ...
Stundenbasis Tagesbasis Wochenbasis
Monatsbasis Jahresbasis      Datenbasis: Original-Daten
Darstellen als:
Statistik (Auto) Statistik J:M      Darstellung:
Zur Graphik,    zurück zur Übersicht aller Sensoren.
 
Tabellarische Datenbersicht: ?
 
Sensor: Nr:Datum:Temp:Abs-Feuchte:Windchill:Wind:
Aussen-T/F 1 20-06-2009 00:09:54 13.6 C 6.36 g/m*3 13.6 C 0 km/h
2 20-06-2009 00:21:54 13.3 C 6.59 g/m*3 13.3 C 0 km/h
3 20-06-2009 00:33:54 13 C 6.58 g/m*3 13 C 0 km/h
4 20-06-2009 00:45:54 12.8 C 6.83 g/m*3 12.8 C 0 km/h
5 20-06-2009 00:57:54 12.6 C 6.86 g/m*3 12.6 C 0 km/h
6 20-06-2009 01:09:54 12.3 C 6.84 g/m*3 12.3 C 0 km/h
7 20-06-2009 01:21:54 11.9 C 6.99 g/m*3 11.9 C 0 km/h
8 20-06-2009 01:33:54 12 C 7.03 g/m*3 12 C 0 km/h
9 20-06-2009 01:45:54 11.7 C 7.11 g/m*3 11.7 C 0 km/h
10 20-06-2009 01:57:54 11.5 C 7.13 g/m*3 11.5 C 0 km/h
11 20-06-2009 02:09:54 11.3 C 7.14 g/m*3 11.3 C 0 km/h
12 20-06-2009 02:21:54 11.1 C 7.05 g/m*3 11.1 C 0 km/h
13 20-06-2009 02:33:54 10.9 C 7.16 g/m*3 10.9 C 0 km/h
14 20-06-2009 02:45:54 10.7 C 7.17 g/m*3 10.7 C 0 km/h
15 20-06-2009 02:57:54 10.5 C 7.18 g/m*3 10.5 C 0 km/h
16 20-06-2009 03:09:54 10.4 C 7.04 g/m*3 10.4 C 0 km/h
17 20-06-2009 03:21:55 10.2 C 7.04 g/m*3 10.2 C 0 km/h
18 20-06-2009 03:33:55 10.1 C 7.09 g/m*3 10.1 C 0 km/h
19 20-06-2009 03:45:55 10 C 7.14 g/m*3 10 C 0 km/h
20 20-06-2009 03:57:55 9.8 C 7.14 g/m*3 9.8 C 0 km/h
21 20-06-2009 04:09:55 9.7 C 7.19 g/m*3 9.7 C 0 km/h
22 20-06-2009 04:21:55 9.6 C 7.15 g/m*3 9.6 C 0 km/h
23 20-06-2009 04:33:55 9.4 C 7.05 g/m*3 9.4 C 0 km/h
24 20-06-2009 04:45:55 9.3 C 7.01 g/m*3 9.3 C 0 km/h
25 20-06-2009 04:57:55 9.2 C 7.05 g/m*3 9.2 C 0 km/h
Sensor: Nr:Datum:Temp:Abs-Feuchte:Windchill:Wind:
Aussen-T/F 26 20-06-2009 05:09:55 9.2 C 6.97 g/m*3 9.2 C 0 km/h
27 20-06-2009 05:21:55 9.1 C 6.92 g/m*3 9.1 C 0 km/h
28 20-06-2009 05:33:55 9 C 7.05 g/m*3 9 C 0 km/h
29 20-06-2009 05:45:55 8.9 C 7.1 g/m*3 8.9 C 0 km/h
30 20-06-2009 05:57:55 8.7 C 7.09 g/m*3 8.7 C 0 km/h
31 20-06-2009 06:09:55 8.8 C 7.14 g/m*3 8.8 C 0 km/h
32 20-06-2009 06:21:55 8.9 C 7.18 g/m*3 8.9 C 0 km/h
33 20-06-2009 06:33:55 9 C 7.14 g/m*3 9 C 0 km/h
34 20-06-2009 06:45:55 9.3 C 7.19 g/m*3 9.3 C 0 km/h
35 20-06-2009 06:57:55 9.4 C 7.15 g/m*3 9.4 C 0 km/h
36 20-06-2009 07:09:56 9.7 C 7.28 g/m*3 9.7 C 0 km/h
37 20-06-2009 07:21:56 10 C 7.24 g/m*3 10 C 0 km/h
38 20-06-2009 07:33:53 10.8 C 7.51 g/m*3 10.8 C 0 km/h
39 20-06-2009 07:45:53 11.2 C 7.3 g/m*3 11.2 C 0 km/h
40 20-06-2009 07:57:53 11.7 C 7.53 g/m*3 11.7 C 0 km/h
41 20-06-2009 08:09:52 12.2 C 7.45 g/m*3 12.2 C 0 km/h
42 20-06-2009 08:21:53 12.7 C 7.57 g/m*3 12.7 C 0 km/h
43 20-06-2009 08:33:53 12.9 C 7.55 g/m*3 12.9 C 0 km/h
44 20-06-2009 08:45:52 13.5 C 7.6 g/m*3 13.5 C 0 km/h
45 20-06-2009 08:57:52 13.5 C 7.49 g/m*3 13.5 C 0 km/h
46 20-06-2009 09:09:53 13.1 C 7.42 g/m*3 13.1 C 0 km/h
47 20-06-2009 09:21:52 13 C 7.48 g/m*3 13 C 0 km/h
48 20-06-2009 09:33:52 13.4 C 7.56 g/m*3 13.4 C 0 km/h
49 20-06-2009 09:45:51 13.6 C 7.53 g/m*3 13.6 C 0 km/h
50 20-06-2009 09:57:51 13.2 C 7.46 g/m*3 13.2 C 0 km/h
Sensor: Nr:Datum:Temp:Abs-Feuchte:Windchill:Wind:
Aussen-T/F 51 20-06-2009 10:09:52 13.1 C 7.53 g/m*3 13.1 C 0 km/h
52 20-06-2009 10:21:51 13.2 C 7.58 g/m*3 13.2 C 0 km/h
53 20-06-2009 10:33:51 13.5 C 7.6 g/m*3 13.5 C 0 km/h
54 20-06-2009 10:45:52 13.7 C 7.58 g/m*3 13.7 C 0 km/h
55 20-06-2009 10:57:52 14.1 C 7.65 g/m*3 14.1 C 0 km/h
56 20-06-2009 11:09:51 14.8 C 7.85 g/m*3 14.8 C 0 km/h
57 20-06-2009 11:21:51 15.4 C 7.75 g/m*3 15.4 C 0 km/h
58 20-06-2009 11:33:50 16 C 7.63 g/m*3 16 C 0 km/h
59 20-06-2009 11:45:51 15.8 C 7.67 g/m*3 15.8 C 0 km/h
60 20-06-2009 11:57:51 16.5 C 7.58 g/m*3 16.5 C 0 km/h
61 20-06-2009 12:09:50 17 C 7.23 g/m*3 17 C 0 km/h
62 20-06-2009 12:21:50 18.2 C 6.37 g/m*3 18.2 C 0 km/h
63 20-06-2009 12:33:51 19.4 C 6.17 g/m*3 19.4 C 0 km/h
64 20-06-2009 12:45:50 19.8 C 6.32 g/m*3 19.8 C 0 km/h
65 20-06-2009 12:57:50 21.1 C 6.08 g/m*3 21.1 C 0 km/h
66 20-06-2009 13:09:50 21.4 C 6.19 g/m*3 21.4 C 0 km/h
67 20-06-2009 13:21:49 19.6 C 6.25 g/m*3 19.6 C 0 km/h
68 20-06-2009 13:33:50 17.8 C 6.68 g/m*3 17.8 C 0 km/h
69 20-06-2009 13:45:49 14.5 C 6.22 g/m*3 14.5 C 0 km/h
70 20-06-2009 13:57:49 12.6 C 8.3 g/m*3 12.6 C 0 km/h
71 20-06-2009 14:09:49 13.4 C 9.76 g/m*3 13.4 C 0 km/h
72 20-06-2009 14:21:49 14.8 C 10.51 g/m*3 14.8 C 0 km/h
73 20-06-2009 14:33:49 15 C 10 g/m*3 15 C 0 km/h
74 20-06-2009 14:45:49 15.6 C 10.24 g/m*3 15.6 C 0 km/h
75 20-06-2009 14:57:49 16.4 C 9.91 g/m*3 16.4 C 0 km/h
Sensor: Nr:Datum:Temp:Abs-Feuchte:Windchill:Wind:
Aussen-T/F 76 20-06-2009 15:09:49 17.1 C 10.04 g/m*3 17.1 C 0 km/h
77 20-06-2009 15:21:49 17.4 C 10.08 g/m*3 17.4 C 0 km/h
78 20-06-2009 15:33:48 16 C 9.26 g/m*3 16 C 0 km/h
79 20-06-2009 15:45:48 14.6 C 9.89 g/m*3 14.6 C 0 km/h
80 20-06-2009 15:57:48 14.7 C 10.32 g/m*3 14.7 C 0 km/h
81 20-06-2009 16:09:48 15.6 C 11.04 g/m*3 15.6 C 0 km/h
82 20-06-2009 16:21:48 16.4 C 10.75 g/m*3 16.4 C 0 km/h
83 20-06-2009 16:33:48 16.1 C 10.14 g/m*3 16.1 C 0 km/h
84 20-06-2009 16:45:48 16.1 C 10.01 g/m*3 16.1 C 0 km/h
85 20-06-2009 16:57:48 17 C 9.41 g/m*3 17 C 0 km/h
86 20-06-2009 17:09:48 17.3 C 8.99 g/m*3 17.3 C 0 km/h
87 20-06-2009 17:21:47 17 C 8.97 g/m*3 17 C 0 km/h
88 20-06-2009 17:33:47 16.8 C 9.44 g/m*3 16.8 C 0 km/h
89 20-06-2009 17:45:47 16.4 C 9.49 g/m*3 16.4 C 0 km/h
90 20-06-2009 17:57:47 16 C 9.67 g/m*3 16 C 0 km/h
91 20-06-2009 18:09:47 17.3 C 9.13 g/m*3 17.3 C 0 km/h
92 20-06-2009 18:21:46 18 C 7.99 g/m*3 18 C 0 km/h
93 20-06-2009 18:33:47 17.7 C 8.6 g/m*3 17.7 C 0 km/h
94 20-06-2009 18:45:46 17.8 C 7.89 g/m*3 17.8 C 0 km/h
95 20-06-2009 18:57:46 17.9 C 8.24 g/m*3 17.9 C 0 km/h
96 20-06-2009 19:09:46 17.8 C 8.5 g/m*3 17.8 C 0 km/h
97 20-06-2009 19:21:47 18.3 C 8.6 g/m*3 18.3 C 0 km/h
98 20-06-2009 19:33:46 17.8 C 8.5 g/m*3 17.8 C 0 km/h
99 20-06-2009 19:45:46 16.7 C 8.53 g/m*3 16.7 C 0 km/h
100 20-06-2009 19:57:46 15.5 C 8.99 g/m*3 15.5 C 0 km/h
Sensor: Nr:Datum:Temp:Abs-Feuchte:Windchill:Wind:
Aussen-T/F 101 20-06-2009 20:09:45 14.9 C 9.3 g/m*3 14.9 C 0 km/h
102 20-06-2009 20:21:46 15.4 C 9.2 g/m*3 15.4 C 0 km/h
103 20-06-2009 20:33:46 16 C 8.58 g/m*3 16 C 0 km/h
104 20-06-2009 20:45:45 15.9 C 8.4 g/m*3 15.9 C 0 km/h
105 20-06-2009 20:57:45 15.3 C 8.36 g/m*3 15.3 C 0 km/h
106 20-06-2009 21:09:45 15 C 8.21 g/m*3 15 C 0 km/h
107 20-06-2009 21:21:45 14.5 C 7.84 g/m*3 14.5 C 0 km/h
108 20-06-2009 21:33:45 14.3 C 7.49 g/m*3 14.3 C 0 km/h
109 20-06-2009 21:45:45 14.2 C 6.96 g/m*3 14.2 C 0 km/h
110 20-06-2009 21:57:45 14.1 C 6.8 g/m*3 14.1 C 0 km/h
111 20-06-2009 22:09:45 14.1 C 7.16 g/m*3 14.1 C 0 km/h
112 20-06-2009 22:21:44 13.9 C 7.19 g/m*3 13.9 C 0 km/h
113 20-06-2009 22:33:45 14 C 7.24 g/m*3 14 C 0 km/h
114 20-06-2009 22:45:44 13.9 C 7.43 g/m*3 13.9 C 0 km/h
115 20-06-2009 22:57:44 13.9 C 7.43 g/m*3 13.9 C 0 km/h
116 20-06-2009 23:09:44 13.8 C 7.51 g/m*3 13.8 C 0 km/h
117 20-06-2009 23:21:43 13.8 C 7.74 g/m*3 13.8 C 0 km/h
118 20-06-2009 23:33:44 13.7 C 7.82 g/m*3 13.7 C 0 km/h
119 20-06-2009 23:45:43 13.5 C 7.72 g/m*3 13.5 C 0 km/h
120 20-06-2009 23:57:43 13.6 C 7.18 g/m*3 13.6 C 0 km/h
121 21-06-2009 00:09:43 13.6 C 7.18 g/m*3 13.6 C 0 km/h
122 21-06-2009 00:21:43 13.5 C 7.13 g/m*3 13.5 C 0 km/h
123 21-06-2009 00:33:43 13.4 C 7.09 g/m*3 13.4 C 0 km/h
124 21-06-2009 00:45:43 13.3 C 7.16 g/m*3 13.3 C 0 km/h
125 21-06-2009 00:57:43 13.2 C 7 g/m*3 13.2 C 0 km/h
Sensor: Nr:Datum:Temp:Abs-Feuchte:Windchill:Wind:
Aussen-T/F 126 21-06-2009 01:09:43 13.2 C 6.89 g/m*3 13.2 C 0 km/h
127 21-06-2009 01:21:42 13.2 C 6.89 g/m*3 13.2 C 0 km/h
128 21-06-2009 01:34:44 13 C 6.92 g/m*3 13 C 0 km/h
129 21-06-2009 01:46:44 12.5 C 7.04 g/m*3 12.5 C 0 km/h
130 21-06-2009 01:58:44 12.3 C 7.06 g/m*3 12.3 C 0 km/h
131 21-06-2009 02:10:45 12.1 C 7.08 g/m*3 12.1 C 0 km/h
132 21-06-2009 02:22:45 11.8 C 7.26 g/m*3 11.8 C 0 km/h
133 21-06-2009 02:34:45 11.5 C 7.23 g/m*3 11.5 C 0 km/h
134 21-06-2009 02:46:45 11.4 C 7.49 g/m*3 11.4 C 0 km/h
135 21-06-2009 02:58:45 11.3 C 7.65 g/m*3 11.3 C 0 km/h
136 21-06-2009 03:10:45 11 C 7.71 g/m*3 11 C 0 km/h
137 21-06-2009 03:22:45 10.8 C 7.81 g/m*3 10.8 C 0 km/h
138 21-06-2009 03:34:45 10.8 C 7.91 g/m*3 10.8 C 0 km/h
139 21-06-2009 03:46:45 10.9 C 7.86 g/m*3 10.9 C 0 km/h
140 21-06-2009 03:58:45 10.6 C 7.71 g/m*3 10.6 C 0 km/h
141 21-06-2009 04:10:45 10.3 C 7.66 g/m*3 10.3 C 0 km/h
142 21-06-2009 04:22:45 10.1 C 7.56 g/m*3 10.1 C 0 km/h
143 21-06-2009 04:34:45 9.9 C 7.84 g/m*3 9.9 C 0 km/h
144 21-06-2009 04:46:45 10 C 7.89 g/m*3 10 C 0 km/h
145 21-06-2009 04:58:45 10 C 7.89 g/m*3 10 C 0 km/h
146 21-06-2009 05:10:45 9.9 C 7.94 g/m*3 9.9 C 0 km/h
147 21-06-2009 05:22:45 9.8 C 7.98 g/m*3 9.8 C 0 km/h
148 21-06-2009 05:34:45 9.8 C 7.98 g/m*3 9.8 C 0 km/h
149 21-06-2009 05:46:45 9.8 C 7.98 g/m*3 9.8 C 0 km/h
150 21-06-2009 05:58:46 10 C 7.89 g/m*3 10 C 0 km/h
Sensor: Nr:Datum:Temp:Abs-Feuchte:Windchill:Wind:
Aussen-T/F 151 21-06-2009 06:10:46 9.9 C 8.03 g/m*3 9.9 C 0 km/h
152 21-06-2009 06:22:46 9.8 C 8.07 g/m*3 9.8 C 0 km/h
153 21-06-2009 06:34:46 10.1 C 8.13 g/m*3 10.1 C 0 km/h
154 21-06-2009 06:46:46 10.2 C 8.09 g/m*3 10.2 C 0 km/h
155 21-06-2009 06:58:46 10.4 C 8.1 g/m*3 10.4 C 0 km/h
156 21-06-2009 07:10:46 10.6 C 8.2 g/m*3 10.6 C 0 km/h
157 21-06-2009 07:22:46 11 C 8.31 g/m*3 11 C 0 km/h
158 21-06-2009 07:34:46 11.3 C 8.36 g/m*3 11.3 C 0 km/h
159 21-06-2009 07:46:46 11.5 C 8.57 g/m*3 11.5 C 0 km/h
160 21-06-2009 07:58:46 11.7 C 8.47 g/m*3 11.7 C 0 km/h
161 21-06-2009 08:10:46 11.6 C 8.42 g/m*3 11.6 C 0 km/h
162 21-06-2009 08:22:46 12.1 C 8.47 g/m*3 12.1 C 0 km/h
163 21-06-2009 08:34:46 12.3 C 8.47 g/m*3 12.3 C 0 km/h
164 21-06-2009 08:46:46 12.8 C 8.51 g/m*3 12.8 C 0 km/h
165 21-06-2009 08:58:46 13.4 C 8.37 g/m*3 13.4 C 0 km/h
166 21-06-2009 09:10:44 14.4 C 8.28 g/m*3 14.4 C 0 km/h
167 21-06-2009 09:22:43 14.7 C 8.06 g/m*3 14.7 C 0 km/h
168 21-06-2009 09:34:44 15.3 C 7.97 g/m*3 15.3 C 0 km/h
169 21-06-2009 09:46:43 15.4 C 7.88 g/m*3 15.4 C 0 km/h
170 21-06-2009 09:58:43 15.5 C 7.93 g/m*3 15.5 C 0 km/h
171 21-06-2009 10:10:43 16.2 C 8 g/m*3 16.2 C 0 km/h
172 21-06-2009 10:22:43 16.5 C 7.72 g/m*3 16.5 C 0 km/h
173 21-06-2009 10:34:43 16.4 C 7.68 g/m*3 16.4 C 0 km/h
174 21-06-2009 10:46:43 16.8 C 7.72 g/m*3 16.8 C 0 km/h
175 21-06-2009 10:58:43 16.8 C 7.72 g/m*3 16.8 C 0 km/h
Sensor: Nr:Datum:Temp:Abs-Feuchte:Windchill:Wind:
Aussen-T/F 176 21-06-2009 11:10:42 17.8 C 7.89 g/m*3 17.8 C 0 km/h
177 21-06-2009 11:22:43 17.7 C 7.24 g/m*3 17.7 C 0 km/h
178 21-06-2009 11:34:42 16 C 6.95 g/m*3 16 C 0 km/h
179 21-06-2009 11:46:42 14.2 C 7.57 g/m*3 14.2 C 0 km/h
180 21-06-2009 11:58:42 13.3 C 8.32 g/m*3 13.3 C 0 km/h
181 21-06-2009 12:10:42 13.3 C 8.9 g/m*3 13.3 C 0 km/h
182 21-06-2009 12:22:42 13.7 C 9.35 g/m*3 13.7 C 0 km/h
183 21-06-2009 12:34:42 15.6 C 9.97 g/m*3 15.6 C 0 km/h
184 21-06-2009 12:46:42 14.9 C 8.79 g/m*3 14.9 C 0 km/h
185 21-06-2009 12:58:42 12.8 C 8.51 g/m*3 12.8 C 0 km/h
186 21-06-2009 13:10:42 12.8 C 9.3 g/m*3 12.8 C 0 km/h
187 21-06-2009 13:22:41 12.5 C 9.35 g/m*3 12.5 C 0 km/h
188 21-06-2009 13:34:41 12.5 C 9.46 g/m*3 12.5 C 0 km/h
189 21-06-2009 13:46:41 12.4 C 9.51 g/m*3 12.4 C 0 km/h
190 21-06-2009 13:58:41 13.3 C 10.17 g/m*3 13.3 C 0 km/h
191 21-06-2009 14:10:41 14.2 C 10.62 g/m*3 14.2 C 0 km/h
192 21-06-2009 14:22:40 14 C 10.01 g/m*3 14 C 0 km/h
193 21-06-2009 14:34:41 13.9 C 9.83 g/m*3 13.9 C 0 km/h
194 21-06-2009 14:46:40 13.9 C 9.71 g/m*3 13.9 C 0 km/h
195 21-06-2009 14:58:40 14.3 C 10.07 g/m*3 14.3 C 0 km/h
196 21-06-2009 15:10:40 14.8 C 10.51 g/m*3 14.8 C 0 km/h
197 21-06-2009 15:22:40 14.9 C 10.71 g/m*3 14.9 C 0 km/h
198 21-06-2009 15:34:40 15 C 10.51 g/m*3 15 C 0 km/h
199 21-06-2009 15:46:39 15.9 C 10.97 g/m*3 15.9 C 0 km/h
200 21-06-2009 15:58:39 16.9 C 10.36 g/m*3 16.9 C 0 km/h
Sensor: Nr:Datum:Temp:Abs-Feuchte:Windchill:Wind:
Aussen-T/F 201 21-06-2009 16:10:40 17.2 C 9.37 g/m*3 17.2 C 0 km/h
202 21-06-2009 16:22:40 17.4 C 9.19 g/m*3 17.4 C 0 km/h
203 21-06-2009 16:34:39 18.1 C 9.58 g/m*3 18.1 C 0 km/h
204 21-06-2009 16:46:40 18 C 8.6 g/m*3 18 C 0 km/h
205 21-06-2009 16:58:40 18 C 8.29 g/m*3 18 C 0 km/h
206 21-06-2009 17:10:39 18.1 C 8.81 g/m*3 18.1 C 0 km/h
207 21-06-2009 17:22:39 19 C 8.47 g/m*3 19 C 0 km/h
208 21-06-2009 17:34:38 19.8 C 7.86 g/m*3 19.8 C 0 km/h
209 21-06-2009 17:46:39 21.1 C 7.55 g/m*3 21.1 C 0 km/h
210 21-06-2009 17:58:40 20.1 C 7.13 g/m*3 20.1 C 0 km/h
211 21-06-2009 18:10:38 19.1 C 8.52 g/m*3 19.1 C 0 km/h
212 21-06-2009 18:22:38 19.2 C 8.74 g/m*3 19.2 C 0 km/h
213 21-06-2009 18:34:39 19.3 C 8.29 g/m*3 19.3 C 0 km/h
214 21-06-2009 18:46:38 18.2 C 7.62 g/m*3 18.2 C 0 km/h
215 21-06-2009 18:58:38 14.3 C 8.11 g/m*3 14.3 C 0 km/h
216 21-06-2009 19:10:38 12.8 C 8.74 g/m*3 12.8 C 0 km/h
217 21-06-2009 19:22:38 12.5 C 9.24 g/m*3 12.5 C 0 km/h
218 21-06-2009 19:34:38 12.5 C 9.46 g/m*3 12.5 C 0 km/h
219 21-06-2009 19:46:37 13.2 C 9.87 g/m*3 13.2 C 0 km/h
220 21-06-2009 19:58:37 13.8 C 10.01 g/m*3 13.8 C 0 km/h
221 21-06-2009 20:10:38 14.1 C 10.19 g/m*3 14.1 C 0 km/h
222 21-06-2009 20:22:37 13.5 C 9.71 g/m*3 13.5 C 0 km/h
223 21-06-2009 20:34:37 13.3 C 9.7 g/m*3 13.3 C 0 km/h
224 21-06-2009 20:46:37 13.1 C 9.59 g/m*3 13.1 C 0 km/h
225 21-06-2009 20:58:37 13.1 C 9.59 g/m*3 13.1 C 0 km/h
Sensor: Nr:Datum:Temp:Abs-Feuchte:Windchill:Wind:
Aussen-T/F 226 21-06-2009 21:10:36 12.6 C 9.29 g/m*3 12.6 C 0 km/h
227 21-06-2009 21:22:37 12.4 C 9.29 g/m*3 12.4 C 0 km/h
228 21-06-2009 21:34:37 11.7 C 8.89 g/m*3 11.7 C 0 km/h
229 21-06-2009 21:46:36 11.3 C 8.87 g/m*3 11.3 C 0 km/h
230 21-06-2009 21:58:36 11.1 C 8.76 g/m*3 11.1 C 0 km/h
231 21-06-2009 22:10:37 11.1 C 8.86 g/m*3 11.1 C 0 km/h
232 21-06-2009 22:22:36 11 C 8.81 g/m*3 11 C 0 km/h
233 21-06-2009 22:35:37 10.8 C 8.8 g/m*3 10.8 C 0 km/h
234 21-06-2009 22:47:38 10.8 C 8.8 g/m*3 10.8 C 0 km/h
235 21-06-2009 22:59:38 11 C 8.91 g/m*3 11 C 0 km/h
236 21-06-2009 23:11:38 11.1 C 9.07 g/m*3 11.1 C 0 km/h
237 21-06-2009 23:23:38 11.1 C 9.07 g/m*3 11.1 C 0 km/h
238 21-06-2009 23:35:38 10.9 C 8.95 g/m*3 10.9 C 0 km/h
239 21-06-2009 23:47:38 11 C 9.01 g/m*3 11 C 0 km/h
240 21-06-2009 23:59:38 11.2 C 9.12 g/m*3 11.2 C 0 km/h
241 22-06-2009 00:11:38 11.4 C 9.24 g/m*3 11.4 C 0 km/h
242 22-06-2009 00:23:38 11.4 C 9.24 g/m*3 11.4 C 0 km/h
243 22-06-2009 00:35:38 11.1 C 8.96 g/m*3 11.1 C 0 km/h
244 22-06-2009 00:47:38 10.7 C 8.74 g/m*3 10.7 C 0 km/h
245 22-06-2009 00:59:38 10.3 C 8.52 g/m*3 10.3 C 0 km/h
246 22-06-2009 01:11:38 10 C 8.27 g/m*3 10 C 0 km/h
247 22-06-2009 01:23:38 9.9 C 8.4 g/m*3 9.9 C 0 km/h
248 22-06-2009 01:35:38 10 C 8.36 g/m*3 10 C 0 km/h
249 22-06-2009 01:47:38 10.1 C 8.51 g/m*3 10.1 C 0 km/h
250 22-06-2009 01:59:38 10.2 C 8.56 g/m*3 10.2 C 0 km/h
Sensor: Nr:Datum:Temp:Abs-Feuchte:Windchill:Wind:
Aussen-T/F 251 22-06-2009 02:11:38 10.2 C 8.56 g/m*3 10.2 C 0 km/h
252 22-06-2009 02:23:38 10 C 8.46 g/m*3 10 C 0 km/h
253 22-06-2009 02:35:39 9.8 C 8.44 g/m*3 9.8 C 0 km/h
254 22-06-2009 02:47:39 10 C 8.46 g/m*3 10 C 0 km/h
255 22-06-2009 02:59:39 10.1 C 8.51 g/m*3 10.1 C 0 km/h
256 22-06-2009 03:11:39 10.3 C 8.52 g/m*3 10.3 C 0 km/h
257 22-06-2009 03:23:39 10.4 C 8.58 g/m*3 10.4 C 0 km/h
258 22-06-2009 03:35:39 10.3 C 8.43 g/m*3 10.3 C 0 km/h
259 22-06-2009 03:47:39 10.5 C 8.44 g/m*3 10.5 C 0 km/h
260 22-06-2009 03:59:39 10.6 C 8.39 g/m*3 10.6 C 0 km/h
261 22-06-2009 04:11:39 10.5 C 8.34 g/m*3 10.5 C 0 km/h
262 22-06-2009 04:23:39 10.4 C 8.29 g/m*3 10.4 C 0 km/h
263 22-06-2009 04:35:39 10.4 C 8.19 g/m*3 10.4 C 0 km/h
264 22-06-2009 04:47:39 10.4 C 8.1 g/m*3 10.4 C 0 km/h
265 22-06-2009 04:59:39 10.4 C 8.19 g/m*3 10.4 C 0 km/h
266 22-06-2009 05:11:39 10.4 C 8.1 g/m*3 10.4 C 0 km/h
267 22-06-2009 05:23:39 10.5 C 8.15 g/m*3 10.5 C 0 km/h
268 22-06-2009 05:35:39 10.5 C 8.15 g/m*3 10.5 C 0 km/h
269 22-06-2009 05:47:39 10.4 C 8.1 g/m*3 10.4 C 0 km/h
270 22-06-2009 05:59:39 10.4 C 8.19 g/m*3 10.4 C 0 km/h
271 22-06-2009 06:11:39 10.5 C 8.24 g/m*3 10.5 C 0 km/h
272 22-06-2009 06:23:39 10.6 C 8.2 g/m*3 10.6 C 0 km/h
273 22-06-2009 06:35:40 10.7 C 8.25 g/m*3 10.7 C 0 km/h
274 22-06-2009 06:47:40 10.8 C 8.3 g/m*3 10.8 C 0 km/h
275 22-06-2009 06:59:40 10.9 C 8.26 g/m*3 10.9 C 0 km/h
Sensor: Nr:Datum:Temp:Abs-Feuchte:Windchill:Wind:
Aussen-T/F 276 22-06-2009 07:11:37 11 C 8.31 g/m*3 11 C 0 km/h
277 22-06-2009 07:23:37 11.2 C 8.41 g/m*3 11.2 C 0 km/h
278 22-06-2009 07:35:37 11.5 C 8.57 g/m*3 11.5 C 0 km/h
279 22-06-2009 07:47:37 11.8 C 8.63 g/m*3 11.8 C 0 km/h
280 22-06-2009 07:59:37 11.8 C 8.31 g/m*3 11.8 C 0 km/h
281 22-06-2009 08:11:36 12.1 C 8.36 g/m*3 12.1 C 0 km/h
282 22-06-2009 08:23:37 12.2 C 8.09 g/m*3 12.2 C 0 km/h
283 22-06-2009 08:35:37 12.5 C 8.25 g/m*3 12.5 C 0 km/h
284 22-06-2009 08:47:36 12.8 C 8.18 g/m*3 12.8 C 0 km/h
285 22-06-2009 08:59:36 13.4 C 7.9 g/m*3 13.4 C 0 km/h
286 22-06-2009 09:11:36 13.4 C 7.9 g/m*3 13.4 C 0 km/h
287 22-06-2009 09:23:36 13.7 C 7.82 g/m*3 13.7 C 0 km/h
288 22-06-2009 09:35:36 14 C 7.12 g/m*3 14 C 0 km/h
289 22-06-2009 09:47:35 15 C 7.05 g/m*3 15 C 0 km/h
290 22-06-2009 09:59:35 14.9 C 6.75 g/m*3 14.9 C 0 km/h
291 22-06-2009 10:11:36 14.6 C 6.76 g/m*3 14.6 C 0 km/h
292 22-06-2009 10:23:35 14.9 C 6.75 g/m*3 14.9 C 0 km/h
293 22-06-2009 10:35:35 14.6 C 6.76 g/m*3 14.6 C 0 km/h
294 22-06-2009 10:47:35 14.8 C 6.97 g/m*3 14.8 C 0 km/h
295 22-06-2009 10:59:35 15.4 C 6.57 g/m*3 15.4 C 0 km/h
296 22-06-2009 11:11:35 16 C 6.27 g/m*3 16 C 0 km/h
297 22-06-2009 11:23:35 16.3 C 6.52 g/m*3 16.3 C 0 km/h
298 22-06-2009 11:35:34 16.5 C 6.18 g/m*3 16.5 C 0 km/h
299 22-06-2009 11:47:35 17.1 C 6.4 g/m*3 17.1 C 0 km/h
300 22-06-2009 11:59:35 16.8 C 6.29 g/m*3 16.8 C 0 km/h
Sensor: Nr:Datum:Temp:Abs-Feuchte:Windchill:Wind:
Aussen-T/F 301 22-06-2009 12:11:34 16.5 C 6.18 g/m*3 16.5 C 0 km/h
302 22-06-2009 12:23:34 16.3 C 6.24 g/m*3 16.3 C 0 km/h
303 22-06-2009 12:35:34 18.9 C 6.64 g/m*3 18.9 C 0 km/h
304 22-06-2009 12:47:34 21.4 C 5.81 g/m*3 21.4 C 0 km/h
305 22-06-2009 12:59:34 20.1 C 5.39 g/m*3 20.1 C 0 km/h
306 22-06-2009 13:11:33 18 C 5.68 g/m*3 18 C 0 km/h
307 22-06-2009 13:23:34 18 C 5.53 g/m*3 18 C 0 km/h
308 22-06-2009 13:35:34 18.4 C 6.13 g/m*3 18.4 C 0 km/h
309 22-06-2009 13:47:33 18.9 C 5.67 g/m*3 18.9 C 0 km/h
310 22-06-2009 13:59:33 17.7 C 5.73 g/m*3 17.7 C 0 km/h
311 22-06-2009 14:11:34 17.3 C 6.04 g/m*3 17.3 C 0 km/h
312 22-06-2009 14:23:33 18.5 C 6.01 g/m*3 18.5 C 0 km/h
313 22-06-2009 14:35:33 18.8 C 6.12 g/m*3 18.8 C 0 km/h
314 22-06-2009 14:47:32 19 C 5.87 g/m*3 19 C 0 km/h
315 22-06-2009 14:59:32 18.5 C 5.7 g/m*3 18.5 C 0 km/h
316 22-06-2009 15:11:33 18 C 5.99 g/m*3 18 C 0 km/h
317 22-06-2009 15:23:32 17.5 C 6.11 g/m*3 17.5 C 0 km/h
318 22-06-2009 15:35:32 18.1 C 6.03 g/m*3 18.1 C 0 km/h
319 22-06-2009 15:47:32 17.9 C 6.11 g/m*3 17.9 C 0 km/h
320 22-06-2009 15:59:32 18.4 C 5.98 g/m*3 18.4 C 0 km/h
321 22-06-2009 16:11:32 18.5 C 5.85 g/m*3 18.5 C 0 km/h
322 22-06-2009 16:23:32 18.9 C 5.83 g/m*3 18.9 C 0 km/h
323 22-06-2009 16:35:32 20.1 C 6.08 g/m*3 20.1 C 0 km/h
324 22-06-2009 16:47:32 19.9 C 6.01 g/m*3 19.9 C 0 km/h
325 22-06-2009 16:59:32 19.8 C 5.81 g/m*3 19.8 C 0 km/h
Sensor: Nr:Datum:Temp:Abs-Feuchte:Windchill:Wind:
Aussen-T/F 326 22-06-2009 17:11:31 21.4 C 6 g/m*3 21.4 C 0 km/h
327 22-06-2009 17:23:31 21.1 C 5.71 g/m*3 21.1 C 0 km/h
328 22-06-2009 17:35:31 20.2 C 5.77 g/m*3 20.2 C 0 km/h
329 22-06-2009 17:47:31 19.8 C 5.98 g/m*3 19.8 C 0 km/h
330 22-06-2009 17:59:32 22.4 C 5.96 g/m*3 22.4 C 0 km/h
331 22-06-2009 18:11:30 23.8 C 5.59 g/m*3 23.8 C 0 km/h
332 22-06-2009 18:23:31 22.5 C 5.59 g/m*3 22.5 C 0 km/h
333 22-06-2009 18:35:31 21.2 C 5.56 g/m*3 21.2 C 0 km/h
334 22-06-2009 18:47:30 22.1 C 5.66 g/m*3 22.1 C 0 km/h
335 22-06-2009 18:59:30 22.7 C 5.66 g/m*3 22.7 C 0 km/h
336 22-06-2009 19:11:31 21.1 C 5.71 g/m*3 21.1 C 0 km/h
337 22-06-2009 19:23:30 20.8 C 5.98 g/m*3 20.8 C 0 km/h
338 22-06-2009 19:35:30 20.5 C 5.69 g/m*3 20.5 C 0 km/h
339 22-06-2009 19:47:30 20.6 C 6.09 g/m*3 20.6 C 0 km/h
340 22-06-2009 19:59:30 20.8 C 6.16 g/m*3 20.8 C 0 km/h
341 22-06-2009 20:11:30 19.8 C 5.98 g/m*3 19.8 C 0 km/h
342 22-06-2009 20:23:29 19.1 C 6.07 g/m*3 19.1 C 0 km/h
343 22-06-2009 20:35:29 18.7 C 6.08 g/m*3 18.7 C 0 km/h
344 22-06-2009 20:47:29 18.5 C 6.65 g/m*3 18.5 C 0 km/h
345 22-06-2009 20:59:29 18.2 C 6.37 g/m*3 18.2 C 0 km/h
346 22-06-2009 21:11:29 17.9 C 6.57 g/m*3 17.9 C 0 km/h
347 22-06-2009 21:23:29 17.6 C 6.75 g/m*3 17.6 C 0 km/h
348 22-06-2009 21:35:28 17.2 C 6.88 g/m*3 17.2 C 0 km/h
349 22-06-2009 21:47:29 17 C 6.51 g/m*3 17 C 0 km/h
350 22-06-2009 21:59:29 16.8 C 6.58 g/m*3 16.8 C 0 km/h
Sensor: Nr:Datum:Temp:Abs-Feuchte:Windchill:Wind:
Aussen-T/F 351 22-06-2009 22:11:28 16.6 C 7.06 g/m*3 16.6 C 0 km/h
352 22-06-2009 22:23:28 16.2 C 7.03 g/m*3 16.2 C 0 km/h
353 22-06-2009 22:36:12 15.8 C 7.27 g/m*3 15.8 C 0 km/h
354 22-06-2009 22:48:12 15.3 C 7.31 g/m*3 15.3 C 0 km/h
355 22-06-2009 23:00:12 14.7 C 7.55 g/m*3 14.7 C 0 km/h
356 22-06-2009 23:12:12 14.4 C 7.54 g/m*3 14.4 C 0 km/h
357 22-06-2009 23:24:12 14 C 7.36 g/m*3 14 C 0 km/h
358 22-06-2009 23:36:12 13.9 C 7.67 g/m*3 13.9 C 0 km/h
359 22-06-2009 23:48:12 13.7 C 7.58 g/m*3 13.7 C 0 km/h
360 23-06-2009 00:00:12 13.6 C 7.53 g/m*3 13.6 C 0 km/h
361 23-06-2009 00:12:12 13.6 C 7.77 g/m*3 13.6 C 0 km/h
362 23-06-2009 00:24:12 13.6 C 7.65 g/m*3 13.6 C 0 km/h
363 23-06-2009 00:36:12 13.4 C 7.67 g/m*3 13.4 C 0 km/h
364 23-06-2009 00:48:12 13.3 C 7.63 g/m*3 13.3 C 0 km/h
365 23-06-2009 01:00:12 13.3 C 7.51 g/m*3 13.3 C 0 km/h
366 23-06-2009 01:12:13 13.3 C 7.74 g/m*3 13.3 C 0 km/h
367 23-06-2009 01:24:13 13.2 C 7.69 g/m*3 13.2 C 0 km/h
368 23-06-2009 01:36:13 13.2 C 7.69 g/m*3 13.2 C 0 km/h
369 23-06-2009 01:48:13 13 C 7.71 g/m*3 13 C 0 km/h
370 23-06-2009 02:00:13 12.7 C 7.9 g/m*3 12.7 C 0 km/h
371 23-06-2009 02:12:13 12.4 C 7.87 g/m*3 12.4 C 0 km/h
372 23-06-2009 02:24:13 12.2 C 7.99 g/m*3 12.2 C 0 km/h
373 23-06-2009 02:36:13 12.2 C 7.99 g/m*3 12.2 C 0 km/h
374 23-06-2009 02:48:13 12.1 C 7.94 g/m*3 12.1 C 0 km/h
375 23-06-2009 03:00:13 12 C 7.89 g/m*3 12 C 0 km/h
Sensor: Nr:Datum:Temp:Abs-Feuchte:Windchill:Wind:
Aussen-T/F 376 23-06-2009 03:12:13 12 C 7.89 g/m*3 12 C 0 km/h
377 23-06-2009 03:24:13 11.8 C 8 g/m*3 11.8 C 0 km/h
378 23-06-2009 03:36:13 11.5 C 7.85 g/m*3 11.5 C 0 km/h
379 23-06-2009 03:48:13 11.5 C 7.95 g/m*3 11.5 C 0 km/h
380 23-06-2009 04:00:13 11.4 C 8.01 g/m*3 11.4 C 0 km/h
381 23-06-2009 04:12:13 11.3 C 7.96 g/m*3 11.3 C 0 km/h
382 23-06-2009 04:24:13 11.1 C 7.86 g/m*3 11.1 C 0 km/h
383 23-06-2009 04:36:13 11.1 C 7.96 g/m*3 11.1 C 0 km/h
384 23-06-2009 04:48:13 11 C 8.01 g/m*3 11 C 0 km/h
385 23-06-2009 05:00:13 11.1 C 8.06 g/m*3 11.1 C 0 km/h
386 23-06-2009 05:12:14 10.9 C 8.06 g/m*3 10.9 C 0 km/h
387 23-06-2009 05:24:14 10.8 C 8.01 g/m*3 10.8 C 0 km/h
388 23-06-2009 05:36:14 10.7 C 8.05 g/m*3 10.7 C 0 km/h
389 23-06-2009 05:48:14 10.6 C 8 g/m*3 10.6 C 0 km/h
390 23-06-2009 06:00:14 10.8 C 8.2 g/m*3 10.8 C 0 km/h
391 23-06-2009 06:12:29 11.1 C 8.26 g/m*3 11.1 C 0 km/h
392 23-06-2009 06:24:28 11.3 C 8.36 g/m*3 11.3 C 0 km/h
393 23-06-2009 06:36:28 11.6 C 8.52 g/m*3 11.6 C 0 km/h
394 23-06-2009 06:48:28 11.8 C 8.53 g/m*3 11.8 C 0 km/h
395 23-06-2009 07:00:28 12.1 C 8.47 g/m*3 12.1 C 0 km/h
396 23-06-2009 07:12:28 12.5 C 8.58 g/m*3 12.5 C 0 km/h
397 23-06-2009 07:24:28 12.8 C 8.62 g/m*3 12.8 C 0 km/h
398 23-06-2009 07:36:28 13 C 8.39 g/m*3 13 C 0 km/h
399 23-06-2009 07:48:27 12.8 C 8.4 g/m*3 12.8 C 0 km/h
400 23-06-2009 08:00:28 12.7 C 8.35 g/m*3 12.7 C 0 km/h
Sensor: Nr:Datum:Temp:Abs-Feuchte:Windchill:Wind:
Aussen-T/F 401 23-06-2009 08:12:28 12.9 C 8.45 g/m*3 12.9 C 0 km/h
402 23-06-2009 08:24:27 13.1 C 8.44 g/m*3 13.1 C 0 km/h
403 23-06-2009 08:36:27 13.4 C 8.49 g/m*3 13.4 C 0 km/h
404 23-06-2009 08:48:27 13.8 C 8.58 g/m*3 13.8 C 0 km/h
405 23-06-2009 09:00:27 14 C 8.32 g/m*3 14 C 0 km/h
406 23-06-2009 09:12:27 14.6 C 8.51 g/m*3 14.6 C 0 km/h
407 23-06-2009 09:24:26 14.9 C 8.28 g/m*3 14.9 C 0 km/h
408 23-06-2009 09:36:27 15.4 C 8.15 g/m*3 15.4 C 0 km/h
409 23-06-2009 09:48:26 16.2 C 8.14 g/m*3 16.2 C 0 km/h
410 23-06-2009 10:00:26 16.6 C 7.63 g/m*3 16.6 C 0 km/h
411 23-06-2009 10:12:26 17.1 C 8.01 g/m*3 17.1 C 0 km/h
412 23-06-2009 10:24:02 17.2 C 8.05 g/m*3 17.2 C 0 km/h
413 23-06-2009 10:36:02 17.5 C 8.05 g/m*3 17.5 C 0 km/h
414 23-06-2009 10:48:01 18 C 7.68 g/m*3 18 C 0 km/h
415 23-06-2009 11:00:01 18.2 C 7.46 g/m*3 18.2 C 0 km/h
416 23-06-2009 11:12:02 19.4 C 7.51 g/m*3 19.4 C 0 km/h
417 23-06-2009 11:24:02 20.2 C 7.34 g/m*3 20.2 C 0 km/h
418 23-06-2009 11:36:01 20.1 C 7.47 g/m*3 20.1 C 0 km/h
419 23-06-2009 11:48:02 21.2 C 7.97 g/m*3 21.2 C 0 km/h
420 23-06-2009 12:00:02 20.8 C 7.42 g/m*3 20.8 C 0 km/h
421 23-06-2009 12:12:01 21.8 C 6.91 g/m*3 21.8 C 0 km/h
422 23-06-2009 12:24:01 21.5 C 6.79 g/m*3 21.5 C 0 km/h
423 23-06-2009 12:36:00 23.2 C 6.44 g/m*3 23.2 C 0 km/h
424 23-06-2009 12:48:01 24.2 C 6.38 g/m*3 24.2 C 0 km/h
425 23-06-2009 13:00:01 24 C 6.31 g/m*3 24 C 0 km/h
Sensor: Nr:Datum:Temp:Abs-Feuchte:Windchill:Wind:
Aussen-T/F 426 23-06-2009 13:12:00 24.8 C 6.37 g/m*3 24.8 C 0 km/h
427 23-06-2009 13:24:00 24.5 C 6.27 g/m*3 24.5 C 0 km/h
428 23-06-2009 13:36:01 24.1 C 6.35 g/m*3 24.1 C 0 km/h
429 23-06-2009 13:48:00 24.9 C 6.18 g/m*3 24.9 C 0 km/h
430 23-06-2009 14:00:00 23.8 C 5.81 g/m*3 23.8 C 0 km/h
431 23-06-2009 14:12:00 24.4 C 5.79 g/m*3 24.4 C 0 km/h
432 23-06-2009 14:24:00 24.3 C 5.97 g/m*3 24.3 C 0 km/h
433 23-06-2009 14:36:00 25.2 C 6.05 g/m*3 25.2 C 0 km/h
434 23-06-2009 14:48:59 24.7 C 5.66 g/m*3 24.7 C 0 km/h
435 23-06-2009 14:59:59 24.6 C 5.63 g/m*3 24.6 C 0 km/h
436 23-06-2009 15:12:00 24.6 C 5.63 g/m*3 24.6 C 0 km/h
437 23-06-2009 15:24:59 25.1 C 5.79 g/m*3 25.1 C 0 km/h
438 23-06-2009 15:36:59 26.6 C 5.54 g/m*3 26.6 C 0 km/h
439 23-06-2009 15:48:58 25.6 C 5.71 g/m*3 25.6 C 0 km/h
440 23-06-2009 16:00:59 25.9 C 5.08 g/m*3 25.9 C 0 km/h
441 23-06-2009 16:12:59 26.8 C 5.6 g/m*3 26.8 C 0 km/h
442 23-06-2009 16:24:59 27.4 C 5.26 g/m*3 27.4 C 0 km/h
443 23-06-2009 16:36:58 25.8 C 5.54 g/m*3 25.8 C 0 km/h
444 23-06-2009 16:48:59 26 C 5.84 g/m*3 26 C 0 km/h
445 23-06-2009 17:00:58 25.2 C 5.35 g/m*3 25.2 C 0 km/h
446 23-06-2009 17:12:58 24.7 C 5.66 g/m*3 24.7 C 0 km/h
447 23-06-2009 17:24:58 24.8 C 5.69 g/m*3 24.8 C 0 km/h
448 23-06-2009 17:36:57 24.5 C 5.37 g/m*3 24.5 C 0 km/h
449 23-06-2009 17:48:58 24.7 C 5.66 g/m*3 24.7 C 0 km/h
450 23-06-2009 18:00:58 27.3 C 5.49 g/m*3 27.3 C 0 km/h
Sensor: Nr:Datum:Temp:Abs-Feuchte:Windchill:Wind:
Aussen-T/F 451 23-06-2009 18:12:58 27.2 C 5.46 g/m*3 27.2 C 0 km/h
452 23-06-2009 18:24:57 28.1 C 5.47 g/m*3 28.1 C 0 km/h
453 23-06-2009 18:36:58 29.5 C 5.9 g/m*3 29.5 C 0 km/h
454 23-06-2009 18:48:57 28.3 C 5.53 g/m*3 28.3 C 0 km/h
455 23-06-2009 19:00:57 26.2 C 5.17 g/m*3 26.2 C 0 km/h
456 23-06-2009 19:12:57 25.1 C 5.56 g/m*3 25.1 C 0 km/h
457 23-06-2009 19:24:57 24.4 C 5.56 g/m*3 24.4 C 0 km/h
458 23-06-2009 19:36:57 24.5 C 5.6 g/m*3 24.5 C 0 km/h
459 23-06-2009 19:48:56 23.9 C 5.62 g/m*3 23.9 C 0 km/h
460 23-06-2009 20:00:56 23.5 C 5.71 g/m*3 23.5 C 0 km/h
461 23-06-2009 20:12:56 23.7 C 5.78 g/m*3 23.7 C 0 km/h
462 23-06-2009 20:24:57 24.4 C 5.79 g/m*3 24.4 C 0 km/h
463 23-06-2009 20:36:56 24.1 C 5.69 g/m*3 24.1 C 0 km/h
464 23-06-2009 20:48:56 23.5 C 6.13 g/m*3 23.5 C 0 km/h
465 23-06-2009 21:00:56 22.9 C 6.34 g/m*3 22.9 C 0 km/h
466 23-06-2009 21:12:56 22.3 C 6.91 g/m*3 22.3 C 0 km/h
467 23-06-2009 21:24:56 21.6 C 7.21 g/m*3 21.6 C 0 km/h
468 23-06-2009 21:36:56 20.9 C 7.29 g/m*3 20.9 C 0 km/h
469 23-06-2009 21:48:55 20.4 C 7.25 g/m*3 20.4 C 0 km/h
470 23-06-2009 22:00:56 19.8 C 7.17 g/m*3 19.8 C 0 km/h
471 23-06-2009 22:12:56 19.5 C 7.22 g/m*3 19.5 C 0 km/h
472 23-06-2009 22:25:57 19.5 C 7.38 g/m*3 19.5 C 0 km/h
473 23-06-2009 22:37:57 19.2 C 7.42 g/m*3 19.2 C 0 km/h
474 23-06-2009 22:49:57 18.9 C 7.45 g/m*3 18.9 C 0 km/h
475 23-06-2009 23:01:57 18.7 C 7.68 g/m*3 18.7 C 0 km/h
Sensor: Nr:Datum:Temp:Abs-Feuchte:Windchill:Wind:
Aussen-T/F 476 23-06-2009 23:13:57 18.6 C 7.64 g/m*3 18.6 C 0 km/h
477 23-06-2009 23:25:57 18.6 C 7.64 g/m*3 18.6 C 0 km/h
478 23-06-2009 23:37:57 18.5 C 7.91 g/m*3 18.5 C 0 km/h
479 23-06-2009 23:49:57 18.5 C 7.75 g/m*3 18.5 C 0 km/h
480 24-06-2009 00:01:57 18.4 C 7.86 g/m*3 18.4 C 0 km/h
481 24-06-2009 00:13:57 18.3 C 7.97 g/m*3 18.3 C 0 km/h
482 24-06-2009 00:25:57 18.1 C 7.88 g/m*3 18.1 C 0 km/h
483 24-06-2009 00:37:57 18.1 C 7.88 g/m*3 18.1 C 0 km/h
484 24-06-2009 00:49:57 17.8 C 7.89 g/m*3 17.8 C 0 km/h
485 24-06-2009 01:01:57 17.6 C 8.1 g/m*3 17.6 C 0 km/h
486 24-06-2009 01:13:57 17.5 C 7.9 g/m*3 17.5 C 0 km/h
487 24-06-2009 01:25:57 17.5 C 7.9 g/m*3 17.5 C 0 km/h
488 24-06-2009 01:37:57 17.3 C 7.96 g/m*3 17.3 C 0 km/h
489 24-06-2009 01:49:57 17 C 7.67 g/m*3 17 C 0 km/h
490 24-06-2009 02:01:57 17 C 7.67 g/m*3 17 C 0 km/h
491 24-06-2009 02:13:57 16.9 C 7.91 g/m*3 16.9 C 0 km/h
492 24-06-2009 02:25:58 16.4 C 7.68 g/m*3 16.4 C 0 km/h
493 24-06-2009 02:37:58 16.3 C 7.63 g/m*3 16.3 C 0 km/h
494 24-06-2009 02:49:58 16.1 C 7.54 g/m*3 16.1 C 0 km/h
495 24-06-2009 03:01:58 15.7 C 7.63 g/m*3 15.7 C 0 km/h
496 24-06-2009 03:13:58 15.5 C 7.67 g/m*3 15.5 C 0 km/h
497 24-06-2009 03:25:58 15.3 C 7.57 g/m*3 15.3 C 0 km/h
498 24-06-2009 03:37:58 15 C 7.57 g/m*3 15 C 0 km/h
499 24-06-2009 03:49:58 14.8 C 7.73 g/m*3 14.8 C 0 km/h
500 24-06-2009 04:01:58 14.7 C 7.68 g/m*3 14.7 C 0 km/h
Sensor: Nr:Datum:Temp:Abs-Feuchte:Windchill:Wind:
Aussen-T/F 501 24-06-2009 04:13:58 14.4 C 7.66 g/m*3 14.4 C 0 km/h
502 24-06-2009 04:25:58 14.4 C 7.66 g/m*3 14.4 C 0 km/h
503 24-06-2009 04:37:58 14.3 C 7.62 g/m*3 14.3 C 0 km/h
504 24-06-2009 04:49:58 14.4 C 7.54 g/m*3 14.4 C 0 km/h
505 24-06-2009 05:01:58 14.1 C 7.4 g/m*3 14.1 C 0 km/h
506 24-06-2009 05:13:58 13.8 C 7.39 g/m*3 13.8 C 0 km/h
507 24-06-2009 05:25:58 13.7 C 7.34 g/m*3 13.7 C 0 km/h
508 24-06-2009 05:37:58 13.6 C 7.53 g/m*3 13.6 C 0 km/h
509 24-06-2009 05:49:58 13.6 C 7.3 g/m*3 13.6 C 0 km/h
510 24-06-2009 06:01:58 13.5 C 7.25 g/m*3 13.5 C 0 km/h
511 24-06-2009 06:13:59 13.6 C 7.3 g/m*3 13.6 C 0 km/h
512 24-06-2009 06:25:59 13.6 C 7.3 g/m*3 13.6 C 0 km/h
513 24-06-2009 06:37:59 13.6 C 7.53 g/m*3 13.6 C 0 km/h
514 24-06-2009 06:49:59 13.5 C 7.49 g/m*3 13.5 C 0 km/h
515 24-06-2009 07:01:56 13.7 C 7.58 g/m*3 13.7 C 0 km/h
516 24-06-2009 07:13:56 13.7 C 7.46 g/m*3 13.7 C 0 km/h
517 24-06-2009 07:25:56 13.9 C 7.55 g/m*3 13.9 C 0 km/h
518 24-06-2009 07:37:56 14.1 C 7.4 g/m*3 14.1 C 0 km/h
519 24-06-2009 07:49:56 14.2 C 7.45 g/m*3 14.2 C 0 km/h
520 24-06-2009 08:01:56 14.6 C 7.51 g/m*3 14.6 C 0 km/h
521 24-06-2009 08:13:56 14.8 C 7.47 g/m*3 14.8 C 0 km/h
522 24-06-2009 08:25:56 15.2 C 7.53 g/m*3 15.2 C 0 km/h
523 24-06-2009 08:37:56 15.4 C 7.62 g/m*3 15.4 C 0 km/h
524 24-06-2009 08:49:55 16 C 7.77 g/m*3 16 C 0 km/h
525 24-06-2009 09:01:56 16.6 C 7.2 g/m*3 16.6 C 0 km/h
Sensor: Nr:Datum:Temp:Abs-Feuchte:Windchill:Wind:
Aussen-T/F 526 24-06-2009 09:13:56 17.3 C 7.51 g/m*3 17.3 C 0 km/h
527 24-06-2009 09:25:55 17.8 C 7.29 g/m*3 17.8 C 0 km/h
528 24-06-2009 09:37:55 18.3 C 7.19 g/m*3 18.3 C 0 km/h
529 24-06-2009 09:49:54 18.8 C 7.25 g/m*3 18.8 C 0 km/h
530 24-06-2009 10:01:55 19.4 C 6.84 g/m*3 19.4 C 0 km/h
531 24-06-2009 10:13:55 20.4 C 7.25 g/m*3 20.4 C 0 km/h
532 24-06-2009 10:25:54 21.1 C 6.82 g/m*3 21.1 C 0 km/h
533 24-06-2009 10:37:54 21.5 C 6.22 g/m*3 21.5 C 0 km/h
534 24-06-2009 10:49:54 22 C 6.02 g/m*3 22 C 0 km/h
535 24-06-2009 11:01:54 22.4 C 5.96 g/m*3 22.4 C 0 km/h
536 24-06-2009 11:13:54 22.8 C 6.1 g/m*3 22.8 C 0 km/h
537 24-06-2009 11:25:54 23.2 C 6.24 g/m*3 23.2 C 0 km/h
538 24-06-2009 11:37:54 23.8 C 6.02 g/m*3 23.8 C 0 km/h
539 24-06-2009 11:49:54 24.6 C 5.63 g/m*3 24.6 C 0 km/h
540 24-06-2009 12:01:53 25.6 C 6.19 g/m*3 25.6 C 0 km/h
541 24-06-2009 12:13:53 26 C 5.6 g/m*3 26 C 0 km/h
542 24-06-2009 12:25:54 26.4 C 5.97 g/m*3 26.4 C 0 km/h
543 24-06-2009 12:37:53 27.2 C 5.46 g/m*3 27.2 C 0 km/h
544 24-06-2009 12:49:53 27.7 C 5.62 g/m*3 27.7 C 0 km/h
545 24-06-2009 13:01:52 28.5 C 5.59 g/m*3 28.5 C 0 km/h
546 24-06-2009 13:13:52 29 C 5.74 g/m*3 29 C 0 km/h
547 24-06-2009 13:25:53 29.5 C 5.9 g/m*3 29.5 C 0 km/h
548 24-06-2009 13:37:53 29.8 C 6 g/m*3 29.8 C 0 km/h
549 24-06-2009 13:49:52 29.7 C 5.97 g/m*3 29.7 C 0 km/h
550 24-06-2009 14:01:53 29.5 C 5.9 g/m*3 29.5 C 0 km/h
Sensor: Nr:Datum:Temp:Abs-Feuchte:Windchill:Wind:
Aussen-T/F 551 24-06-2009 14:13:53 28.6 C 5.62 g/m*3 28.6 C 0 km/h
552 24-06-2009 14:25:52 28.1 C 5.74 g/m*3 28.1 C 0 km/h
553 24-06-2009 14:37:52 28.5 C 6.43 g/m*3 28.5 C 0 km/h
554 24-06-2009 14:49:52 28.8 C 5.97 g/m*3 28.8 C 0 km/h
555 24-06-2009 15:01:52 29.4 C 5.87 g/m*3 29.4 C 0 km/h
556 24-06-2009 15:13:52 29.9 C 6.03 g/m*3 29.9 C 0 km/h
557 24-06-2009 15:25:51 30.3 C 6.16 g/m*3 30.3 C 0 km/h
558 24-06-2009 15:37:51 30.1 C 6.1 g/m*3 30.1 C 0 km/h
559 24-06-2009 15:49:52 30.4 C 6.2 g/m*3 30.4 C 0 km/h
560 24-06-2009 16:01:51 30.6 C 6.26 g/m*3 30.6 C 0 km/h
561 24-06-2009 16:13:51 30.9 C 6.37 g/m*3 30.9 C 0 km/h
562 24-06-2009 16:25:51 31.2 C 6.47 g/m*3 31.2 C 0 km/h
563 24-06-2009 16:37:51 31.2 C 6.47 g/m*3 31.2 C 0 km/h
564 24-06-2009 16:49:51 31.3 C 6.5 g/m*3 31.3 C 0 km/h
565 24-06-2009 17:01:50 31.7 C 6.64 g/m*3 31.7 C 0 km/h
566 24-06-2009 17:13:50 31.8 C 6.68 g/m*3 31.8 C 0 km/h
567 24-06-2009 17:25:51 31.7 C 6.64 g/m*3 31.7 C 0 km/h
568 24-06-2009 17:37:51 32.3 C 6.86 g/m*3 32.3 C 0 km/h
569 24-06-2009 17:49:50 31.9 C 6.72 g/m*3 31.9 C 0 km/h
570 24-06-2009 18:01:50 32.1 C 6.79 g/m*3 32.1 C 0 km/h
571 24-06-2009 18:13:50 32.1 C 6.79 g/m*3 32.1 C 0 km/h
572 24-06-2009 18:25:50 31.7 C 6.64 g/m*3 31.7 C 0 km/h
573 24-06-2009 18:37:50 31.2 C 6.47 g/m*3 31.2 C 0 km/h
574 24-06-2009 18:49:49 30.5 C 6.23 g/m*3 30.5 C 0 km/h
575 24-06-2009 19:01:50 30 C 6.67 g/m*3 30 C 0 km/h
Sensor: Nr:Datum:Temp:Abs-Feuchte:Windchill:Wind:
Aussen-T/F 576 24-06-2009 19:13:51 29 C 6.89 g/m*3 29 C 0 km/h
577 24-06-2009 19:25:49 30.7 C 6.3 g/m*3 30.7 C 0 km/h
578 24-06-2009 19:37:49 30.2 C 6.44 g/m*3 30.2 C 0 km/h
579 24-06-2009 19:49:49 28.6 C 7.31 g/m*3 28.6 C 0 km/h
580 24-06-2009 20:01:49 28.3 C 7.74 g/m*3 28.3 C 0 km/h
581 24-06-2009 20:13:49 27.3 C 7.85 g/m*3 27.3 C 0 km/h
582 24-06-2009 20:25:49 26.5 C 7.76 g/m*3 26.5 C 0 km/h
583 24-06-2009 20:37:48 25.8 C 7.7 g/m*3 25.8 C 0 km/h
584 24-06-2009 20:49:49 24.9 C 8.01 g/m*3 24.9 C 0 km/h
585 24-06-2009 21:01:48 24.4 C 7.79 g/m*3 24.4 C 0 km/h
586 24-06-2009 21:13:48 24 C 7.83 g/m*3 24 C 0 km/h
587 24-06-2009 21:25:48 23.7 C 7.91 g/m*3 23.7 C 0 km/h
588 24-06-2009 21:37:48 23.7 C 8.13 g/m*3 23.7 C 0 km/h
589 24-06-2009 21:49:48 23.8 C 8.39 g/m*3 23.8 C 0 km/h
590 24-06-2009 22:02:01 23.6 C 8.29 g/m*3 23.6 C 0 km/h
591 24-06-2009 22:14:01 23.5 C 8.46 g/m*3 23.5 C 0 km/h
592 24-06-2009 22:26:01 23.3 C 8.15 g/m*3 23.3 C 0 km/h
593 24-06-2009 22:38:01 23.3 C 8.15 g/m*3 23.3 C 0 km/h
594 24-06-2009 22:50:01 23.1 C 7.86 g/m*3 23.1 C 0 km/h
595 24-06-2009 23:02:02 22.7 C 8.08 g/m*3 22.7 C 0 km/h
596 24-06-2009 23:14:02 22.5 C 8.19 g/m*3 22.5 C 0 km/h
597 24-06-2009 23:26:02 22.4 C 8.14 g/m*3 22.4 C 0 km/h
598 24-06-2009 23:38:02 21.9 C 8.49 g/m*3 21.9 C 0 km/h
599 24-06-2009 23:50:02 21.6 C 8.35 g/m*3 21.6 C 0 km/h
600 25-06-2009 00:02:02 21.4 C 8.44 g/m*3 21.4 C 0 km/h
Sensor: Nr:Datum:Temp:Abs-Feuchte:Windchill:Wind:
Aussen-T/F 601 25-06-2009 00:14:02 21.3 C 8.39 g/m*3 21.3 C 0 km/h
602 25-06-2009 00:26:02 21.5 C 8.67 g/m*3 21.5 C 0 km/h
603 25-06-2009 00:38:02 21.4 C 8.81 g/m*3 21.4 C 0 km/h
604 25-06-2009 00:50:02 20.9 C 9.11 g/m*3 20.9 C 0 km/h
605 25-06-2009 01:02:02 20.7 C 9 g/m*3 20.7 C 0 km/h
606 25-06-2009 01:14:02 20.6 C 8.95 g/m*3 20.6 C 0 km/h
607 25-06-2009 01:26:02 20.2 C 8.74 g/m*3 20.2 C 0 km/h
608 25-06-2009 01:38:02 19.7 C 8.83 g/m*3 19.7 C 0 km/h
609 25-06-2009 01:50:02 19.3 C 8.79 g/m*3 19.3 C 0 km/h
610 25-06-2009 02:02:02 19.1 C 9.02 g/m*3 19.1 C 0 km/h
611 25-06-2009 02:14:02 18.8 C 9.18 g/m*3 18.8 C 0 km/h
612 25-06-2009 02:26:02 18.7 C 9.13 g/m*3 18.7 C 0 km/h
613 25-06-2009 02:38:02 18.5 C 9.02 g/m*3 18.5 C 0 km/h
614 25-06-2009 02:50:02 18.2 C 9.01 g/m*3 18.2 C 0 km/h
615 25-06-2009 03:02:03 18.1 C 9.12 g/m*3 18.1 C 0 km/h
616 25-06-2009 03:14:03 17.9 C 9.31 g/m*3 17.9 C 0 km/h
617 25-06-2009 03:26:03 17.7 C 9.35 g/m*3 17.7 C 0 km/h
618 25-06-2009 03:38:03 17.4 C 9.34 g/m*3 17.4 C 0 km/h
619 25-06-2009 03:50:03 17.1 C 9.61 g/m*3 17.1 C 0 km/h
620 25-06-2009 04:02:03 16.7 C 9.52 g/m*3 16.7 C 0 km/h
621 25-06-2009 04:14:03 16.7 C 9.38 g/m*3 16.7 C 0 km/h
622 25-06-2009 04:26:03 16.7 C 9.38 g/m*3 16.7 C 0 km/h
623 25-06-2009 04:38:03 16.5 C 9.13 g/m*3 16.5 C 0 km/h
624 25-06-2009 04:50:03 16.4 C 9.07 g/m*3 16.4 C 0 km/h
625 25-06-2009 05:02:03 16.3 C 9.16 g/m*3 16.3 C 0 km/h
Sensor: Nr:Datum:Temp:Abs-Feuchte:Windchill:Wind:
Aussen-T/F 626 25-06-2009 05:14:03 16.1 C 9.05 g/m*3 16.1 C 0 km/h
627 25-06-2009 05:26:03 15.9 C 9.21 g/m*3 15.9 C 0 km/h
628 25-06-2009 05:38:03 15.9 C 9.21 g/m*3 15.9 C 0 km/h
629 25-06-2009 05:50:03 16 C 8.99 g/m*3 16 C 0 km/h
630 25-06-2009 06:02:03 16.1 C 9.05 g/m*3 16.1 C 0 km/h
631 25-06-2009 06:14:03 16.1 C 9.18 g/m*3 16.1 C 0 km/h
632 25-06-2009 06:26:01 16.1 C 9.32 g/m*3 16.1 C 0 km/h
633 25-06-2009 06:38:02 16.2 C 9.38 g/m*3 16.2 C 0 km/h
634 25-06-2009 06:50:01 16.1 C 9.46 g/m*3 16.1 C 0 km/h
635 25-06-2009 07:02:01 16.3 C 9.57 g/m*3 16.3 C 0 km/h
636 25-06-2009 07:14:01 16.4 C 9.63 g/m*3 16.4 C 0 km/h
637 25-06-2009 07:26:01 16.6 C 9.61 g/m*3 16.6 C 0 km/h
638 25-06-2009 07:38:00 16.6 C 9.46 g/m*3 16.6 C 0 km/h
639 25-06-2009 07:50:01 16.9 C 9.64 g/m*3 16.9 C 0 km/h
640 25-06-2009 08:02:01 17.3 C 9.87 g/m*3 17.3 C 0 km/h
641 25-06-2009 08:14:01 17.7 C 9.81 g/m*3 17.7 C 0 km/h
642 25-06-2009 08:26:00 18 C 9.83 g/m*3 18 C 0 km/h
643 25-06-2009 08:38:00 18.5 C 9.81 g/m*3 18.5 C 0 km/h
644 25-06-2009 08:50:00 19.2 C 9.07 g/m*3 19.2 C 0 km/h
645 25-06-2009 09:02:00 19.7 C 9.34 g/m*3 19.7 C 0 km/h
646 25-06-2009 09:14:00 20.3 C 9.15 g/m*3 20.3 C 0 km/h
647 25-06-2009 09:26:59 20.8 C 9.23 g/m*3 20.8 C 0 km/h
648 25-06-2009 09:38:00 21.4 C 9.37 g/m*3 21.4 C 0 km/h
649 25-06-2009 09:50:59 21.7 C 8.97 g/m*3 21.7 C 0 km/h
650 25-06-2009 10:02:59 22 C 8.73 g/m*3 22 C 0 km/h
Sensor: Nr:Datum:Temp:Abs-Feuchte:Windchill:Wind:
Aussen-T/F 651 25-06-2009 10:14:00 23 C 9.25 g/m*3 23 C 0 km/h
652 25-06-2009 10:26:00 23.5 C 9.09 g/m*3 23.5 C 0 km/h
653 25-06-2009 10:38:59 23.8 C 9.25 g/m*3 23.8 C 0 km/h
654 25-06-2009 10:50:59 24.4 C 9.12 g/m*3 24.4 C 0 km/h
655 25-06-2009 11:02:59 24.8 C 9.1 g/m*3 24.8 C 0 km/h
656 25-06-2009 11:14:59 26.1 C 9.06 g/m*3 26.1 C 0 km/h
657 25-06-2009 11:26:59 26.2 C 8.37 g/m*3 26.2 C 0 km/h
658 25-06-2009 11:38:58 26.3 C 9.16 g/m*3 26.3 C 0 km/h
659 25-06-2009 11:50:59 26.9 C 8.7 g/m*3 26.9 C 0 km/h
660 25-06-2009 12:02:58 26.8 C 8.91 g/m*3 26.8 C 0 km/h
661 25-06-2009 12:14:58 27.9 C 8.65 g/m*3 27.9 C 0 km/h
662 25-06-2009 12:26:58 28.4 C 8.34 g/m*3 28.4 C 0 km/h
663 25-06-2009 12:38:58 28.8 C 8.81 g/m*3 28.8 C 0 km/h
664 25-06-2009 12:50:58 30.1 C 8.54 g/m*3 30.1 C 0 km/h
665 25-06-2009 13:02:57 30.3 C 8.32 g/m*3 30.3 C 0 km/h
666 25-06-2009 13:14:57 31 C 8 g/m*3 31 C 0 km/h
667 25-06-2009 13:26:57 30 C 8.19 g/m*3 30 C 0 km/h
668 25-06-2009 13:38:58 30.7 C 7.87 g/m*3 30.7 C 0 km/h
669 25-06-2009 13:50:57 30.2 C 8.28 g/m*3 30.2 C 0 km/h
670 25-06-2009 14:02:57 29.7 C 8.65 g/m*3 29.7 C 0 km/h
671 25-06-2009 14:14:57 30.6 C 7.83 g/m*3 30.6 C 0 km/h
672 25-06-2009 14:26:57 30.4 C 8.37 g/m*3 30.4 C 0 km/h
673 25-06-2009 14:38:57 30.4 C 8.37 g/m*3 30.4 C 0 km/h
674 25-06-2009 14:50:56 31.1 C 8.04 g/m*3 31.1 C 0 km/h
675 25-06-2009 15:02:57 31.3 C 7.81 g/m*3 31.3 C 0 km/h
Sensor: Nr:Datum:Temp:Abs-Feuchte:Windchill:Wind:
Aussen-T/F 676 25-06-2009 15:14:56 30.9 C 8.28 g/m*3 30.9 C 0 km/h
677 25-06-2009 15:26:56 31.2 C 8.09 g/m*3 31.2 C 0 km/h
678 25-06-2009 15:38:56 31.9 C 7.39 g/m*3 31.9 C 0 km/h
679 25-06-2009 15:50:56 31.9 C 7.05 g/m*3 31.9 C 0 km/h
680 25-06-2009 16:02:56 31.5 C 8.22 g/m*3 31.5 C 0 km/h
681 25-06-2009 16:14:56 31.8 C 7.35 g/m*3 31.8 C 0 km/h
682 25-06-2009 16:26:56 31.8 C 7.01 g/m*3 31.8 C 0 km/h
683 25-06-2009 16:38:55 31.7 C 7.31 g/m*3 31.7 C 0 km/h
684 25-06-2009 16:50:56 32.3 C 6.86 g/m*3 32.3 C 0 km/h
685 25-06-2009 17:02:55 32.5 C 6.93 g/m*3 32.5 C 0 km/h
686 25-06-2009 17:14:55 32.5 C 6.93 g/m*3 32.5 C 0 km/h
687 25-06-2009 17:26:55 32.4 C 6.9 g/m*3 32.4 C 0 km/h
688 25-06-2009 17:38:55 32.7 C 7.01 g/m*3 32.7 C 0 km/h
689 25-06-2009 17:50:55 32.6 C 6.97 g/m*3 32.6 C 0 km/h
690 25-06-2009 18:02:54 32.3 C 6.86 g/m*3 32.3 C 0 km/h
691 25-06-2009 18:14:55 31.7 C 6.64 g/m*3 31.7 C 0 km/h
692 25-06-2009 18:26:55 31.3 C 8.13 g/m*3 31.3 C 0 km/h
693 25-06-2009 18:38:55 30.8 C 8.55 g/m*3 30.8 C 0 km/h
694 25-06-2009 18:50:54 29.9 C 9.05 g/m*3 29.9 C 0 km/h
695 25-06-2009 19:02:55 29.2 C 9 g/m*3 29.2 C 0 km/h
696 25-06-2009 19:14:54 27.9 C 9.47 g/m*3 27.9 C 0 km/h
697 25-06-2009 19:26:54 28 C 9.79 g/m*3 28 C 0 km/h
698 25-06-2009 19:38:54 30 C 9.4 g/m*3 30 C 0 km/h
699 25-06-2009 19:50:54 30.6 C 9.08 g/m*3 30.6 C 0 km/h
700 25-06-2009 20:02:54 31 C 8.64 g/m*3 31 C 0 km/h
Sensor: Nr:Datum:Temp:Abs-Feuchte:Windchill:Wind:
Aussen-T/F 701 25-06-2009 20:14:53 30.7 C 8.5 g/m*3 30.7 C 0 km/h
702 25-06-2009 20:26:53 30.2 C 9.5 g/m*3 30.2 C 0 km/h
703 25-06-2009 20:38:53 28.8 C 9.94 g/m*3 28.8 C 0 km/h
704 25-06-2009 20:50:53 27.5 C 10.32 g/m*3 27.5 C 0 km/h
705 25-06-2009 21:02:53 26.5 C 10.26 g/m*3 26.5 C 0 km/h
706 25-06-2009 21:14:53 25.4 C 10.36 g/m*3 25.4 C 0 km/h
707 25-06-2009 21:26:53 25.2 C 10.48 g/m*3 25.2 C 0 km/h
708 25-06-2009 21:38:52 24.9 C 10.53 g/m*3 24.9 C 0 km/h
709 25-06-2009 21:50:53 24.7 C 10.64 g/m*3 24.7 C 0 km/h
710 25-06-2009 22:02:52 24.4 C 10.68 g/m*3 24.4 C 0 km/h
711 25-06-2009 22:14:52 24.3 C 11.06 g/m*3 24.3 C 0 km/h
712 25-06-2009 22:26:52 23.9 C 11.25 g/m*3 23.9 C 0 km/h
713 25-06-2009 22:38:53 23.9 C 10.82 g/m*3 23.9 C 0 km/h
714 25-06-2009 22:51:54 23.7 C 10.27 g/m*3 23.7 C 0 km/h
715 25-06-2009 23:03:54 23.4 C 9.88 g/m*3 23.4 C 0 km/h
716 25-06-2009 23:15:54 23.1 C 10.13 g/m*3 23.1 C 0 km/h
717 25-06-2009 23:27:54 22.8 C 9.96 g/m*3 22.8 C 0 km/h
718 25-06-2009 23:39:54 22.4 C 10.13 g/m*3 22.4 C 0 km/h
719 25-06-2009 23:51:54 22.1 C 10.15 g/m*3 22.1 C 0 km/h
720 26-06-2009 00:03:54 21.8 C 10.17 g/m*3 21.8 C 0 km/h
721 26-06-2009 00:15:54 21.7 C 10.11 g/m*3 21.7 C 0 km/h
722 26-06-2009 00:27:54 21.4 C 10.31 g/m*3 21.4 C 0 km/h
723 26-06-2009 00:39:54 21.1 C 10.32 g/m*3 21.1 C 0 km/h
724 26-06-2009 00:51:54 20.9 C 10.56 g/m*3 20.9 C 0 km/h
725 26-06-2009 01:03:54 20.8 C 10.5 g/m*3 20.8 C 0 km/h
Sensor: Nr:Datum:Temp:Abs-Feuchte:Windchill:Wind:
Aussen-T/F 726 26-06-2009 01:15:54 20.6 C 10.56 g/m*3 20.6 C 0 km/h
727 26-06-2009 01:27:54 20.5 C 10.5 g/m*3 20.5 C 0 km/h
728 26-06-2009 01:39:55 20.5 C 10.5 g/m*3 20.5 C 0 km/h
729 26-06-2009 01:51:55 20.2 C 10.49 g/m*3 20.2 C 0 km/h
730 26-06-2009 02:03:55 19.7 C 10.7 g/m*3 19.7 C 0 km/h
731 26-06-2009 02:15:55 19.3 C 10.62 g/m*3 19.3 C 0 km/h
732 26-06-2009 02:27:55 19.2 C 10.88 g/m*3 19.2 C 0 km/h
733 26-06-2009 02:39:55 18.9 C 10.85 g/m*3 18.9 C 0 km/h
734 26-06-2009 02:51:55 18.7 C 10.89 g/m*3 18.7 C 0 km/h
735 26-06-2009 03:03:55 18.5 C 10.92 g/m*3 18.5 C 0 km/h
736 26-06-2009 03:15:55 18.5 C 11.08 g/m*3 18.5 C 0 km/h
737 26-06-2009 03:27:55 18.3 C 10.94 g/m*3 18.3 C 0 km/h
738 26-06-2009 03:39:55 18 C 10.75 g/m*3 18 C 0 km/h
739 26-06-2009 03:51:55 17.7 C 10.86 g/m*3 17.7 C 0 km/h
740 26-06-2009 04:03:55 17.7 C 11.16 g/m*3 17.7 C 0 km/h
741 26-06-2009 04:15:55 17.5 C 11.03 g/m*3 17.5 C 0 km/h
742 26-06-2009 04:27:55 17.5 C 11.18 g/m*3 17.5 C 0 km/h
743 26-06-2009 04:39:55 17.5 C 11.18 g/m*3 17.5 C 0 km/h
744 26-06-2009 04:51:55 17.4 C 11.12 g/m*3 17.4 C 0 km/h
745 26-06-2009 05:03:55 17.3 C 11.05 g/m*3 17.3 C 0 km/h
746 26-06-2009 05:15:55 17.2 C 11.13 g/m*3 17.2 C 0 km/h
747 26-06-2009 05:27:56 17.2 C 11.28 g/m*3 17.2 C 0 km/h
748 26-06-2009 05:39:56 17.2 C 11.28 g/m*3 17.2 C 0 km/h
749 26-06-2009 05:51:56 17.1 C 11.21 g/m*3 17.1 C 0 km/h
750 26-06-2009 06:03:56 17.4 C 11.41 g/m*3 17.4 C 0 km/h
Sensor: Nr:Datum:Temp:Abs-Feuchte:Windchill:Wind:
Aussen-T/F 751 26-06-2009 06:15:56 17.7 C 11.47 g/m*3 17.7 C 0 km/h
752 26-06-2009 06:27:56 18.1 C 11.59 g/m*3 18.1 C 0 km/h
753 26-06-2009 06:39:56 18.5 C 11.55 g/m*3 18.5 C 0 km/h
754 26-06-2009 06:51:56 18.7 C 11.53 g/m*3 18.7 C 0 km/h
755 26-06-2009 07:03:54 18.9 C 11.34 g/m*3 18.9 C 0 km/h
756 26-06-2009 07:15:53 18.9 C 11.18 g/m*3 18.9 C 0 km/h
757 26-06-2009 07:27:53 19.1 C 11.15 g/m*3 19.1 C 0 km/h
758 26-06-2009 07:39:53 19.4 C 11.18 g/m*3 19.4 C 0 km/h
759 26-06-2009 07:51:53 19.8 C 11.1 g/m*3 19.8 C 0 km/h
760 26-06-2009 08:03:53 20 C 10.89 g/m*3 20 C 0 km/h
761 26-06-2009 08:15:52 20 C 10.89 g/m*3 20 C 0 km/h
762 26-06-2009 08:27:52 20 C 10.71 g/m*3 20 C 0 km/h
763 26-06-2009 08:39:52 20.1 C 10.78 g/m*3 20.1 C 0 km/h
764 26-06-2009 08:51:52 19.9 C 10.65 g/m*3 19.9 C 0 km/h
765 26-06-2009 09:03:52 20.7 C 10.8 g/m*3 20.7 C 0 km/h
766 26-06-2009 09:15:52 21.2 C 10.38 g/m*3 21.2 C 0 km/h
767 26-06-2009 09:27:52 21.6 C 10.81 g/m*3 21.6 C 0 km/h
768 26-06-2009 09:39:52 22.2 C 10.41 g/m*3 22.2 C 0 km/h
769 26-06-2009 09:51:52 22.3 C 10.66 g/m*3 22.3 C 0 km/h
770 26-06-2009 10:03:51 22.5 C 10.79 g/m*3 22.5 C 0 km/h
771 26-06-2009 10:15:52 21.6 C 10.62 g/m*3 21.6 C 0 km/h
772 26-06-2009 10:27:52 22.1 C 10.74 g/m*3 22.1 C 0 km/h
773 26-06-2009 10:39:51 22.9 C 11.04 g/m*3 22.9 C 0 km/h
774 26-06-2009 10:51:51 24 C 10.66 g/m*3 24 C 0 km/h
775 26-06-2009 11:03:51 22.6 C 10.65 g/m*3 22.6 C 0 km/h
Sensor: Nr:Datum:Temp:Abs-Feuchte:Windchill:Wind:
Aussen-T/F 776 26-06-2009 11:15:51 23.8 C 11.19 g/m*3 23.8 C 0 km/h
777 26-06-2009 11:27:51 24.6 C 10.8 g/m*3 24.6 C 0 km/h
778 26-06-2009 11:39:51 24.9 C 10.53 g/m*3 24.9 C 0 km/h
779 26-06-2009 11:51:51 26.6 C 10.32 g/m*3 26.6 C 0 km/h
780 26-06-2009 12:03:51 27.9 C 10.01 g/m*3 27.9 C 0 km/h
781 26-06-2009 12:15:50 28.3 C 9.95 g/m*3 28.3 C 0 km/h
782 26-06-2009 12:27:50 28 C 9.52 g/m*3 28 C 0 km/h
783 26-06-2009 12:39:50 29.2 C 8.71 g/m*3 29.2 C 0 km/h
784 26-06-2009 12:51:50 27.7 C 9.63 g/m*3 27.7 C 0 km/h
785 26-06-2009 13:03:50 28 C 9.52 g/m*3 28 C 0 km/h
786 26-06-2009 13:15:49 30.9 C 8.28 g/m*3 30.9 C 0 km/h
787 26-06-2009 13:27:49 31.9 C 7.39 g/m*3 31.9 C 0 km/h
788 26-06-2009 13:39:50 31.8 C 7.01 g/m*3 31.8 C 0 km/h
789 26-06-2009 13:51:49 31.9 C 7.05 g/m*3 31.9 C 0 km/h
790 26-06-2009 14:03:49 31.8 C 7.35 g/m*3 31.8 C 0 km/h
791 26-06-2009 14:15:50 30.4 C 8.68 g/m*3 30.4 C 0 km/h
792 26-06-2009 14:27:50 30.7 C 8.19 g/m*3 30.7 C 0 km/h
793 26-06-2009 14:39:49 30.3 C 8.94 g/m*3 30.3 C 0 km/h
794 26-06-2009 14:51:49 30.3 C 8.63 g/m*3 30.3 C 0 km/h
795 26-06-2009 15:03:49 30.2 C 8.89 g/m*3 30.2 C 0 km/h
796 26-06-2009 15:15:49 30 C 8.79 g/m*3 30 C 0 km/h
797 26-06-2009 15:27:49 30.6 C 8.46 g/m*3 30.6 C 0 km/h
798 26-06-2009 15:39:48 31 C 8.96 g/m*3 31 C 0 km/h
799 26-06-2009 15:51:49 31.9 C 8.06 g/m*3 31.9 C 0 km/h
800 26-06-2009 16:03:48 31.7 C 7.64 g/m*3 31.7 C 0 km/h
Sensor: Nr:Datum:Temp:Abs-Feuchte:Windchill:Wind:
Aussen-T/F 801 26-06-2009 16:15:48 31.6 C 7.27 g/m*3 31.6 C 0 km/h
802 26-06-2009 16:27:48 32 C 7.43 g/m*3 32 C 0 km/h
803 26-06-2009 16:39:48 32.3 C 6.86 g/m*3 32.3 C 0 km/h
804 26-06-2009 16:51:48 32.7 C 7.01 g/m*3 32.7 C 0 km/h
805 26-06-2009 17:03:48 33 C 7.12 g/m*3 33 C 0 km/h
806 26-06-2009 17:15:47 32.5 C 6.93 g/m*3 32.5 C 0 km/h
807 26-06-2009 17:27:47 32.9 C 7.08 g/m*3 32.9 C 0 km/h
808 26-06-2009 17:39:48 33.3 C 7.23 g/m*3 33.3 C 0 km/h
809 26-06-2009 17:51:47 32.7 C 7.01 g/m*3 32.7 C 0 km/h
810 26-06-2009 18:03:47 32.8 C 7.04 g/m*3 32.8 C 0 km/h
811 26-06-2009 18:15:47 32.6 C 6.97 g/m*3 32.6 C 0 km/h
812 26-06-2009 18:27:47 31.9 C 6.72 g/m*3 31.9 C 0 km/h
813 26-06-2009 18:39:47 32.6 C 6.97 g/m*3 32.6 C 0 km/h
814 26-06-2009 18:51:46 32.8 C 7.04 g/m*3 32.8 C 0 km/h
815 26-06-2009 19:03:46 33.2 C 7.2 g/m*3 33.2 C 0 km/h
816 26-06-2009 19:15:47 31.9 C 7.39 g/m*3 31.9 C 0 km/h
817 26-06-2009 19:27:47 30.5 C 8.41 g/m*3 30.5 C 0 km/h
818 26-06-2009 19:39:46 29.2 C 8.42 g/m*3 29.2 C 0 km/h
819 26-06-2009 19:51:46 28 C 8.7 g/m*3 28 C 0 km/h
820 26-06-2009 20:03:46 27 C 9.01 g/m*3 27 C 0 km/h
821 26-06-2009 20:15:46 26.5 C 9.26 g/m*3 26.5 C 0 km/h
822 26-06-2009 20:27:46 25.7 C 9.58 g/m*3 25.7 C 0 km/h
823 26-06-2009 20:39:45 25.5 C 9.71 g/m*3 25.5 C 0 km/h
824 26-06-2009 20:51:46 25.2 C 9.78 g/m*3 25.2 C 0 km/h
825 26-06-2009 21:03:45 24.7 C 9.96 g/m*3 24.7 C 0 km/h
Sensor: Nr:Datum:Temp:Abs-Feuchte:Windchill:Wind:
Aussen-T/F 826 26-06-2009 21:15:45 24.4 C 10.01 g/m*3 24.4 C 0 km/h
827 26-06-2009 21:27:46 24.2 C 9.9 g/m*3 24.2 C 0 km/h
828 26-06-2009 21:39:45 23.9 C 10.17 g/m*3 23.9 C 0 km/h
829 26-06-2009 21:51:45 23.5 C 10.15 g/m*3 23.5 C 0 km/h
830 26-06-2009 22:03:44 23.2 C 10.39 g/m*3 23.2 C 0 km/h
831 26-06-2009 22:15:45 22.9 C 10.42 g/m*3 22.9 C 0 km/h
832 26-06-2009 22:27:45 22.6 C 10.65 g/m*3 22.6 C 0 km/h
833 26-06-2009 22:40:45 22.5 C 10.99 g/m*3 22.5 C 0 km/h
834 26-06-2009 22:52:45 22.5 C 11.19 g/m*3 22.5 C 0 km/h
835 26-06-2009 23:04:45 22.4 C 11.12 g/m*3 22.4 C 0 km/h
836 26-06-2009 23:16:45 22.2 C 11.19 g/m*3 22.2 C 0 km/h
837 26-06-2009 23:28:45 22 C 11.06 g/m*3 22 C 0 km/h
838 26-06-2009 23:40:45 21.9 C 11.39 g/m*3 21.9 C 0 km/h
839 26-06-2009 23:52:45 21.5 C 11.13 g/m*3 21.5 C 0 km/h
840 27-06-2009 00:04:45 21.5 C 11.5 g/m*3 21.5 C 0 km/h
841 27-06-2009 00:16:45 21.4 C 11.44 g/m*3 21.4 C 0 km/h
842 27-06-2009 00:28:45 20.9 C 11.66 g/m*3 20.9 C 0 km/h
843 27-06-2009 00:40:45 21 C 11.54 g/m*3 21 C 0 km/h
844 27-06-2009 00:52:46 20.9 C 11.66 g/m*3 20.9 C 0 km/h
845 27-06-2009 01:04:46 21.2 C 11.86 g/m*3 21.2 C 0 km/h
846 27-06-2009 01:16:46 21.2 C 11.86 g/m*3 21.2 C 0 km/h
847 27-06-2009 01:28:46 21 C 11.72 g/m*3 21 C 0 km/h
848 27-06-2009 01:40:46 20.5 C 11.92 g/m*3 20.5 C 0 km/h
849 27-06-2009 01:52:46 20.2 C 11.71 g/m*3 20.2 C 0 km/h
850 27-06-2009 02:04:46 20.1 C 11.82 g/m*3 20.1 C 0 km/h
Sensor: Nr:Datum:Temp:Abs-Feuchte:Windchill:Wind:
Aussen-T/F 851 27-06-2009 02:16:46 20.1 C 11.82 g/m*3 20.1 C 0 km/h
852 27-06-2009 02:28:46 19.9 C 11.85 g/m*3 19.9 C 0 km/h
853 27-06-2009 02:40:46 19.6 C 11.65 g/m*3 19.6 C 0 km/h
854 27-06-2009 02:52:46 19.5 C 11.75 g/m*3 19.5 C 0 km/h
855 27-06-2009 03:04:46 19.5 C 11.58 g/m*3 19.5 C 0 km/h
856 27-06-2009 03:16:46 19.3 C 11.61 g/m*3 19.3 C 0 km/h
857 27-06-2009 03:28:46 19 C 11.41 g/m*3 19 C 0 km/h
858 27-06-2009 03:40:46 18.9 C 11.66 g/m*3 18.9 C 0 km/h
859 27-06-2009 03:52:46 18.8 C 11.76 g/m*3 18.8 C 0 km/h
860 27-06-2009 04:04:46 18.5 C 11.71 g/m*3 18.5 C 0 km/h
861 27-06-2009 04:16:46 18.4 C 11.64 g/m*3 18.4 C 0 km/h
862 27-06-2009 04:28:46 18.3 C 11.73 g/m*3 18.3 C 0 km/h
863 27-06-2009 04:40:47 18.1 C 11.74 g/m*3 18.1 C 0 km/h
864 27-06-2009 04:52:47 17.8 C 11.84 g/m*3 17.8 C 0 km/h
865 27-06-2009 05:04:47 17.8 C 11.84 g/m*3 17.8 C 0 km/h
866 27-06-2009 05:16:47 17.7 C 11.92 g/m*3 17.7 C 0 km/h
867 27-06-2009 05:28:47 17.9 C 12.06 g/m*3 17.9 C 0 km/h
868 27-06-2009 05:40:47 17.9 C 11.91 g/m*3 17.9 C 0 km/h
869 27-06-2009 05:52:47 18 C 11.83 g/m*3 18 C 0 km/h
870 27-06-2009 06:04:47 18.1 C 11.9 g/m*3 18.1 C 0 km/h
871 27-06-2009 06:16:47 18 C 11.83 g/m*3 18 C 0 km/h
872 27-06-2009 06:28:47 18.2 C 11.97 g/m*3 18.2 C 0 km/h
873 27-06-2009 06:40:47 18.2 C 11.97 g/m*3 18.2 C 0 km/h
874 27-06-2009 06:52:47 18.4 C 12.11 g/m*3 18.4 C 0 km/h
875 27-06-2009 07:04:47 18.7 C 12.17 g/m*3 18.7 C 0 km/h
Sensor: Nr:Datum:Temp:Abs-Feuchte:Windchill:Wind:
Aussen-T/F 876 27-06-2009 07:16:47 18.7 C 12.01 g/m*3 18.7 C 0 km/h
877 27-06-2009 07:28:47 18.3 C 11.88 g/m*3 18.3 C 0 km/h
878 27-06-2009 07:40:47 18.5 C 12.18 g/m*3 18.5 C 0 km/h
879 27-06-2009 07:52:47 18.7 C 12.17 g/m*3 18.7 C 0 km/h
880 27-06-2009 08:04:47 19 C 12.06 g/m*3 19 C 0 km/h
881 27-06-2009 08:16:47 19.7 C 12.4 g/m*3 19.7 C 0 km/h
882 27-06-2009 08:28:48 20.3 C 11.96 g/m*3 20.3 C 0 km/h
883 27-06-2009 08:40:48 20.5 C 12.28 g/m*3 20.5 C 0 km/h
884 27-06-2009 08:52:48 21.2 C 12.23 g/m*3 21.2 C 0 km/h
885 27-06-2009 09:04:48 21.5 C 12.07 g/m*3 21.5 C 0 km/h
886 27-06-2009 09:16:44 21.6 C 12.14 g/m*3 21.6 C 0 km/h
887 27-06-2009 09:28:44 22.4 C 12.31 g/m*3 22.4 C 0 km/h
888 27-06-2009 09:40:44 23.1 C 11.99 g/m*3 23.1 C 0 km/h
889 27-06-2009 09:52:44 23.5 C 11.84 g/m*3 23.5 C 0 km/h
890 27-06-2009 10:04:44 23.7 C 11.55 g/m*3 23.7 C 0 km/h
891 27-06-2009 10:16:44 24.1 C 11.6 g/m*3 24.1 C 0 km/h
892 27-06-2009 10:28:44 24.5 C 11.41 g/m*3 24.5 C 0 km/h
893 27-06-2009 10:40:43 24.5 C 11.19 g/m*3 24.5 C 0 km/h
894 27-06-2009 10:52:44 24.6 C 11.7 g/m*3 24.6 C 0 km/h
895 27-06-2009 11:04:43 25.3 C 11.47 g/m*3 25.3 C 0 km/h
896 27-06-2009 11:16:43 26.2 C 11.08 g/m*3 26.2 C 0 km/h
897 27-06-2009 11:28:43 26.1 C 11.02 g/m*3 26.1 C 0 km/h
898 27-06-2009 11:40:43 25.9 C 10.89 g/m*3 25.9 C 0 km/h
899 27-06-2009 11:52:43 28 C 10.88 g/m*3 28 C 0 km/h
900 27-06-2009 12:04:43 28.4 C 10.56 g/m*3 28.4 C 0 km/h
Sensor: Nr:Datum:Temp:Abs-Feuchte:Windchill:Wind:
Aussen-T/F 901 27-06-2009 12:16:42 26 C 10.47 g/m*3 26 C 0 km/h
902 27-06-2009 12:28:42 25.4 C 10.83 g/m*3 25.4 C 0 km/h
903 27-06-2009 12:40:43 26.9 C 11.01 g/m*3 26.9 C 0 km/h
904 27-06-2009 12:52:42 28.1 C 10.12 g/m*3 28.1 C 0 km/h
905 27-06-2009 13:04:43 28.9 C 10.86 g/m*3 28.9 C 0 km/h
906 27-06-2009 13:16:42 27.4 C 9.47 g/m*3 27.4 C 0 km/h
907 27-06-2009 13:28:42 28.5 C 9.78 g/m*3 28.5 C 0 km/h
908 27-06-2009 13:40:42 29.9 C 9.95 g/m*3 29.9 C 0 km/h
909 27-06-2009 13:52:42 28.3 C 9.95 g/m*3 28.3 C 0 km/h
910 27-06-2009 14:04:42 27 C 10.29 g/m*3 27 C 0 km/h
911 27-06-2009 14:16:31 26.4 C 10.7 g/m*3 26.4 C 0 km/h
912 27-06-2009 14:28:31 23.4 C 13.04 g/m*3 23.4 C 0 km/h
913 27-06-2009 14:40:32 21.8 C 14.2 g/m*3 21.8 C 0 km/h
914 27-06-2009 14:52:32 21.3 C 14.54 g/m*3 21.3 C 0 km/h
915 27-06-2009 15:04:41 21.2 C 14.64 g/m*3 21.2 C 0 km/h
916 27-06-2009 15:16:41 21.4 C 15.19 g/m*3 21.4 C 0 km/h
917 27-06-2009 15:28:41 21.2 C 15.01 g/m*3 21.2 C 0 km/h
918 27-06-2009 15:40:41 21.7 C 15.64 g/m*3 21.7 C 0 km/h
919 27-06-2009 15:52:40 23 C 16.65 g/m*3 23 C 0 km/h
920 27-06-2009 16:04:40 24.4 C 16.69 g/m*3 24.4 C 0 km/h
921 27-06-2009 16:16:41 26.8 C 14.76 g/m*3 26.8 C 0 km/h
922 27-06-2009 16:28:41 27.6 C 12.77 g/m*3 27.6 C 0 km/h
923 27-06-2009 16:40:40 26.1 C 12.98 g/m*3 26.1 C 0 km/h
924 27-06-2009 16:52:01 25.5 C 13.97 g/m*3 25.5 C 0 km/h
925 27-06-2009 17:04:01 25.4 C 14.36 g/m*3 25.4 C 0 km/h
Sensor: Nr:Datum:Temp:Abs-Feuchte:Windchill:Wind:
Aussen-T/F 926 27-06-2009 17:16:01 25.6 C 14.05 g/m*3 25.6 C 0 km/h
927 27-06-2009 17:28:01 25.4 C 13.89 g/m*3 25.4 C 0 km/h
928 27-06-2009 17:40:02 25.4 C 13.89 g/m*3 25.4 C 0 km/h
929 27-06-2009 17:52:01 25 C 13.35 g/m*3 25 C 0 km/h
930 27-06-2009 18:04:01 23.9 C 13.63 g/m*3 23.9 C 0 km/h
931 27-06-2009 18:16:01 23.5 C 13.53 g/m*3 23.5 C 0 km/h
932 27-06-2009 18:28:01 23.5 C 13.32 g/m*3 23.5 C 0 km/h
933 27-06-2009 18:40:01 23.6 C 13.19 g/m*3 23.6 C 0 km/h
934 27-06-2009 18:52:00 23.6 C 13.4 g/m*3 23.6 C 0 km/h
935 27-06-2009 19:04:01 23.6 C 13.4 g/m*3 23.6 C 0 km/h
936 27-06-2009 19:16:00 23.8 C 13.55 g/m*3 23.8 C 0 km/h
937 27-06-2009 19:28:00 23.8 C 13.55 g/m*3 23.8 C 0 km/h
938 27-06-2009 19:40:00 24 C 13.49 g/m*3 24 C 0 km/h
939 27-06-2009 19:52:00 23.7 C 13.05 g/m*3 23.7 C 0 km/h
940 27-06-2009 20:04:00 23.7 C 13.05 g/m*3 23.7 C 0 km/h
941 27-06-2009 20:16:00 23.2 C 12.68 g/m*3 23.2 C 0 km/h
942 27-06-2009 20:28:00 22.9 C 12.67 g/m*3 22.9 C 0 km/h
943 27-06-2009 20:40:59 22.7 C 12.53 g/m*3 22.7 C 0 km/h
944 27-06-2009 20:52:00 22.6 C 12.86 g/m*3 22.6 C 0 km/h
945 27-06-2009 21:04:59 22.5 C 12.78 g/m*3 22.5 C 0 km/h
946 27-06-2009 21:16:00 22.3 C 12.83 g/m*3 22.3 C 0 km/h
947 27-06-2009 21:28:00 22 C 12.81 g/m*3 22 C 0 km/h
948 27-06-2009 21:40:59 21.6 C 12.9 g/m*3 21.6 C 0 km/h
949 27-06-2009 21:52:58 21.2 C 12.6 g/m*3 21.2 C 0 km/h
950 27-06-2009 22:04:59 20.7 C 12.78 g/m*3 20.7 C 0 km/h
Sensor: Nr:Datum:Temp:Abs-Feuchte:Windchill:Wind:
Aussen-T/F 951 27-06-2009 22:17:00 20.3 C 12.84 g/m*3 20.3 C 0 km/h
952 27-06-2009 22:29:00 20.2 C 12.76 g/m*3 20.2 C 0 km/h
953 27-06-2009 22:41:00 20 C 12.44 g/m*3 20 C 0 km/h
954 27-06-2009 22:53:00 20.1 C 12.52 g/m*3 20.1 C 0 km/h
955 27-06-2009 23:05:00 19.8 C 12.47 g/m*3 19.8 C 0 km/h
956 27-06-2009 23:17:00 19.7 C 12.57 g/m*3 19.7 C 0 km/h
957 27-06-2009 23:29:00 19.7 C 12.57 g/m*3 19.7 C 0 km/h
958 27-06-2009 23:41:00 19.7 C 12.74 g/m*3 19.7 C 0 km/h
959 27-06-2009 23:53:00 19.8 C 12.98 g/m*3 19.8 C 0 km/h
960 28-06-2009 00:05:00 19.8 C 13.15 g/m*3 19.8 C 0 km/h
961 28-06-2009 00:17:00 19.6 C 13 g/m*3 19.6 C 0 km/h
962 28-06-2009 00:29:00 19.8 C 13.32 g/m*3 19.8 C 0 km/h
963 28-06-2009 00:41:00 19.7 C 13.08 g/m*3 19.7 C 0 km/h
964 28-06-2009 00:53:00 19.6 C 13 g/m*3 19.6 C 0 km/h
965 28-06-2009 01:05:00 19.7 C 13.25 g/m*3 19.7 C 0 km/h
966 28-06-2009 01:17:01 19.9 C 13.23 g/m*3 19.9 C 0 km/h
967 28-06-2009 01:29:01 19.8 C 13.15 g/m*3 19.8 C 0 km/h
968 28-06-2009 01:41:01 19.6 C 13 g/m*3 19.6 C 0 km/h
969 28-06-2009 01:53:01 19.5 C 12.92 g/m*3 19.5 C 0 km/h
970 28-06-2009 02:05:01 19.5 C 12.92 g/m*3 19.5 C 0 km/h
971 28-06-2009 02:17:01 19.5 C 12.92 g/m*3 19.5 C 0 km/h
972 28-06-2009 02:29:01 19.5 C 12.92 g/m*3 19.5 C 0 km/h
973 28-06-2009 02:41:01 19.5 C 12.92 g/m*3 19.5 C 0 km/h
974 28-06-2009 02:53:01 19.3 C 12.77 g/m*3 19.3 C 0 km/h
975 28-06-2009 03:05:01 19.3 C 12.94 g/m*3 19.3 C 0 km/h
Sensor: Nr:Datum:Temp:Abs-Feuchte:Windchill:Wind:
Aussen-T/F 976 28-06-2009 03:17:01 19.3 C 12.94 g/m*3 19.3 C 0 km/h
977 28-06-2009 03:29:01 19.4 C 13.01 g/m*3 19.4 C 0 km/h
978 28-06-2009 03:41:01 19.4 C 13.01 g/m*3 19.4 C 0 km/h
979 28-06-2009 03:53:01 19.4 C 13.01 g/m*3 19.4 C 0 km/h
980 28-06-2009 04:05:01 19.3 C 12.94 g/m*3 19.3 C 0 km/h
981 28-06-2009 04:17:01 19.4 C 13.01 g/m*3 19.4 C 0 km/h
982 28-06-2009 04:29:01 19.3 C 12.94 g/m*3 19.3 C 0 km/h
983 28-06-2009 04:41:01 19.3 C 12.94 g/m*3 19.3 C 0 km/h
984 28-06-2009 04:53:01 19.1 C 12.95 g/m*3 19.1 C 0 km/h
985 28-06-2009 05:05:02 19.1 C 12.95 g/m*3 19.1 C 0 km/h
986 28-06-2009 05:17:02 19.1 C 12.95 g/m*3 19.1 C 0 km/h
987 28-06-2009 05:29:02 19 C 12.87 g/m*3 19 C 0 km/h
988 28-06-2009 05:41:02 19.1 C 12.95 g/m*3 19.1 C 0 km/h
989 28-06-2009 05:53:02 19.1 C 12.95 g/m*3 19.1 C 0 km/h
990 28-06-2009 06:05:02 19.1 C 12.95 g/m*3 19.1 C 0 km/h
991 28-06-2009 06:17:02 19.1 C 12.95 g/m*3 19.1 C 0 km/h
992 28-06-2009 06:29:02 19.1 C 13.11 g/m*3 19.1 C 0 km/h
993 28-06-2009 06:41:02 18.9 C 13.28 g/m*3 18.9 C 0 km/h
994 28-06-2009 06:53:02 18.7 C 13.13 g/m*3 18.7 C 0 km/h
995 28-06-2009 07:05:02 18.7 C 13.29 g/m*3 18.7 C 0 km/h
996 28-06-2009 07:17:02 19.1 C 13.44 g/m*3 19.1 C 0 km/h
997 28-06-2009 07:29:02 19.3 C 13.27 g/m*3 19.3 C 0 km/h
998 28-06-2009 07:41:02 19.5 C 13.26 g/m*3 19.5 C 0 km/h
999 28-06-2009 07:53:00 20 C 13.31 g/m*3 20 C 0 km/h
1000 28-06-2009 08:05:00 20.1 C 12.86 g/m*3 20.1 C 0 km/h
Sensor: Nr:Datum:Temp:Abs-Feuchte:Windchill:Wind:
Aussen-T/F 1001 28-06-2009 08:17:59 20.3 C 13.01 g/m*3 20.3 C 0 km/h
1002 28-06-2009 08:29:59 20.8 C 13.04 g/m*3 20.8 C 0 km/h
1003 28-06-2009 08:41:59 21.3 C 12.49 g/m*3 21.3 C 0 km/h
1004 28-06-2009 08:53:59 21.6 C 12.33 g/m*3 21.6 C 0 km/h
1005 28-06-2009 09:05:00 22.2 C 11.98 g/m*3 22.2 C 0 km/h
1006 28-06-2009 09:17:59 22.3 C 11.65 g/m*3 22.3 C 0 km/h
1007 28-06-2009 09:29:59 22.5 C 11.98 g/m*3 22.5 C 0 km/h
1008 28-06-2009 09:41:59 23.2 C 11.85 g/m*3 23.2 C 0 km/h
1009 28-06-2009 09:53:58 23.5 C 11.84 g/m*3 23.5 C 0 km/h
1010 28-06-2009 10:05:59 23.7 C 11.34 g/m*3 23.7 C 0 km/h
1011 28-06-2009 10:17:58 24.1 C 10.94 g/m*3 24.1 C 0 km/h
1012 28-06-2009 10:29:58 25.1 C 11.11 g/m*3 25.1 C 0 km/h
1013 28-06-2009 10:41:58 25.5 C 9.71 g/m*3 25.5 C 0 km/h
1014 28-06-2009 10:53:58 25.2 C 10.01 g/m*3 25.2 C 0 km/h
1015 28-06-2009 11:05:58 26.4 C 10.21 g/m*3 26.4 C 0 km/h
1016 28-06-2009 11:17:58 27.1 C 9.83 g/m*3 27.1 C 0 km/h
1017 28-06-2009 11:29:58 27.2 C 9.89 g/m*3 27.2 C 0 km/h
1018 28-06-2009 11:41:57 27.4 C 9.74 g/m*3 27.4 C 0 km/h
1019 28-06-2009 11:53:58 27.5 C 9.52 g/m*3 27.5 C 0 km/h
1020 28-06-2009 12:05:57 27.1 C 9.58 g/m*3 27.1 C 0 km/h
1021 28-06-2009 12:17:57 26.9 C 9.98 g/m*3 26.9 C 0 km/h
1022 28-06-2009 12:29:57 28.3 C 9.95 g/m*3 28.3 C 0 km/h
1023 28-06-2009 12:41:57 29.8 C 9.6 g/m*3 29.8 C 0 km/h
1024 28-06-2009 12:53:57 30.1 C 9.76 g/m*3 30.1 C 0 km/h
1025 28-06-2009 13:05:56 30 C 9.4 g/m*3 30 C 0 km/h
Sensor: Nr:Datum:Temp:Abs-Feuchte:Windchill:Wind:
Aussen-T/F 1026 28-06-2009 13:17:57 29.4 C 9.39 g/m*3 29.4 C 0 km/h
1027 28-06-2009 13:29:57 29.3 C 9.63 g/m*3 29.3 C 0 km/h
1028 28-06-2009 13:41:57 30.3 C 9.25 g/m*3 30.3 C 0 km/h
1029 28-06-2009 13:53:56 30 C 9.1 g/m*3 30 C 0 km/h
1030 28-06-2009 14:05:57 30.4 C 8.99 g/m*3 30.4 C 0 km/h
1031 28-06-2009 14:17:56 30.4 C 8.37 g/m*3 30.4 C 0 km/h
1032 28-06-2009 14:29:56 30.4 C 8.68 g/m*3 30.4 C 0 km/h
1033 28-06-2009 14:41:56 30.5 C 9.03 g/m*3 30.5 C 0 km/h
1034 28-06-2009 14:53:56 30.6 C 8.46 g/m*3 30.6 C 0 km/h
1035 28-06-2009 15:05:56 30.7 C 8.82 g/m*3 30.7 C 0 km/h
1036 28-06-2009 15:17:55 31 C 8.32 g/m*3 31 C 0 km/h
1037 28-06-2009 15:29:55 31.2 C 8.09 g/m*3 31.2 C 0 km/h
1038 28-06-2009 15:41:55 31.5 C 8.22 g/m*3 31.5 C 0 km/h
1039 28-06-2009 15:53:55 32.1 C 7.47 g/m*3 32.1 C 0 km/h
1040 28-06-2009 16:05:55 32.3 C 7.55 g/m*3 32.3 C 0 km/h
1041 28-06-2009 16:17:55 31.9 C 8.06 g/m*3 31.9 C 0 km/h
1042 28-06-2009 16:29:55 32 C 7.43 g/m*3 32 C 0 km/h
1043 28-06-2009 16:41:55 32.1 C 7.13 g/m*3 32.1 C 0 km/h
1044 28-06-2009 16:53:54 31.7 C 7.64 g/m*3 31.7 C 0 km/h
1045 28-06-2009 17:05:54 31 C 7.68 g/m*3 31 C 0 km/h
1046 28-06-2009 17:17:55 31.9 C 7.72 g/m*3 31.9 C 0 km/h
1047 28-06-2009 17:29:55 31.5 C 6.9 g/m*3 31.5 C 0 km/h
1048 28-06-2009 17:41:54 31.8 C 7.01 g/m*3 31.8 C 0 km/h
1049 28-06-2009 17:53:54 31.5 C 6.57 g/m*3 31.5 C 0 km/h
1050 28-06-2009 18:05:54 31.9 C 7.05 g/m*3 31.9 C 0 km/h
Sensor: Nr:Datum:Temp:Abs-Feuchte:Windchill:Wind:
Aussen-T/F 1051 28-06-2009 18:17:54 32.6 C 6.97 g/m*3 32.6 C 0 km/h
1052 28-06-2009 18:29:55 32.7 C 7.36 g/m*3 32.7 C 0 km/h
1053 28-06-2009 18:41:53 32.7 C 7.01 g/m*3 32.7 C 0 km/h
1054 28-06-2009 18:53:54 32.7 C 7.01 g/m*3 32.7 C 0 km/h
1055 28-06-2009 19:05:53 32.3 C 6.86 g/m*3 32.3 C 0 km/h
1056 28-06-2009 19:17:53 30.9 C 7.64 g/m*3 30.9 C 0 km/h
1057 28-06-2009 19:29:53 30.9 C 7.96 g/m*3 30.9 C 0 km/h
1058 28-06-2009 19:41:53 31 C 8 g/m*3 31 C 0 km/h
1059 28-06-2009 19:53:53 31 C 8 g/m*3 31 C 0 km/h
1060 28-06-2009 20:05:53 30.9 C 8.28 g/m*3 30.9 C 0 km/h
1061 28-06-2009 20:17:52 30.6 C 8.77 g/m*3 30.6 C 0 km/h
1062 28-06-2009 20:29:52 30.1 C 9.45 g/m*3 30.1 C 0 km/h
1063 28-06-2009 20:41:53 29.5 C 9.74 g/m*3 29.5 C 0 km/h
1064 28-06-2009 20:53:52 28.5 C 9.78 g/m*3 28.5 C 0 km/h
1065 28-06-2009 21:05:52 26.7 C 9.87 g/m*3 26.7 C 0 km/h
1066 28-06-2009 21:17:52 26.4 C 9.96 g/m*3 26.4 C 0 km/h
1067 28-06-2009 21:29:52 25.9 C 10.17 g/m*3 25.9 C 0 km/h
1068 28-06-2009 21:41:52 25.4 C 9.89 g/m*3 25.4 C 0 km/h
1069 28-06-2009 21:53:51 25.3 C 10.3 g/m*3 25.3 C 0 km/h
1070 28-06-2009 22:05:52 25 C 10.59 g/m*3 25 C 0 km/h
1071 28-06-2009 22:17:52 24.6 C 10.8 g/m*3 24.6 C 0 km/h
1072 28-06-2009 22:29:52 24.4 C 10.9 g/m*3 24.4 C 0 km/h
1073 28-06-2009 22:42:52 24.1 C 10.94 g/m*3 24.1 C 0 km/h
1074 28-06-2009 22:54:52 23.9 C 11.25 g/m*3 23.9 C 0 km/h
1075 28-06-2009 23:06:52 23.7 C 11.34 g/m*3 23.7 C 0 km/h
Sensor: Nr:Datum:Temp:Abs-Feuchte:Windchill:Wind:
Aussen-T/F 1076 28-06-2009 23:18:52 23.5 C 11.42 g/m*3 23.5 C 0 km/h
1077 28-06-2009 23:30:52 23.2 C 11.43 g/m*3 23.2 C 0 km/h
1078 28-06-2009 23:42:52 23 C 11.3 g/m*3 23 C 0 km/h
1079 28-06-2009 23:54:52 22.8 C 11.38 g/m*3 22.8 C 0 km/h
1080 29-06-2009 00:06:52 22.5 C 11.58 g/m*3 22.5 C 0 km/h
1081 29-06-2009 00:18:52 22.1 C 11.52 g/m*3 22.1 C 0 km/h
1082 29-06-2009 00:30:52 21.9 C 11.58 g/m*3 21.9 C 0 km/h
1083 29-06-2009 00:42:52 21.8 C 11.7 g/m*3 21.8 C 0 km/h
1084 29-06-2009 00:54:52 21.6 C 11.57 g/m*3 21.6 C 0 km/h
1085 29-06-2009 01:06:52 21.5 C 11.69 g/m*3 21.5 C 0 km/h
1086 29-06-2009 01:18:52 21.2 C 11.49 g/m*3 21.2 C 0 km/h
1087 29-06-2009 01:30:53 20.9 C 11.66 g/m*3 20.9 C 0 km/h
1088 29-06-2009 01:42:53 20.8 C 11.77 g/m*3 20.8 C 0 km/h
1089 29-06-2009 01:54:53 20.5 C 11.74 g/m*3 20.5 C 0 km/h
1090 29-06-2009 02:06:53 20.4 C 11.85 g/m*3 20.4 C 0 km/h
1091 29-06-2009 02:18:53 20.2 C 11.89 g/m*3 20.2 C 0 km/h
1092 29-06-2009 02:30:53 20.1 C 11.82 g/m*3 20.1 C 0 km/h
1093 29-06-2009 02:42:53 20.2 C 12.06 g/m*3 20.2 C 0 km/h
1094 29-06-2009 02:54:53 20.4 C 12.03 g/m*3 20.4 C 0 km/h
1095 29-06-2009 03:06:53 20 C 11.92 g/m*3 20 C 0 km/h
1096 29-06-2009 03:18:53 19.8 C 11.96 g/m*3 19.8 C 0 km/h
1097 29-06-2009 03:30:53 19.6 C 11.99 g/m*3 19.6 C 0 km/h
1098 29-06-2009 03:42:53 19.5 C 11.92 g/m*3 19.5 C 0 km/h
1099 29-06-2009 03:54:53 19.3 C 11.78 g/m*3 19.3 C 0 km/h
1100 29-06-2009 04:06:53 19.3 C 11.94 g/m*3 19.3 C 0 km/h
Sensor: Nr:Datum:Temp:Abs-Feuchte:Windchill:Wind:
Aussen-T/F 1101 29-06-2009 04:18:53 19.1 C 11.8 g/m*3 19.1 C 0 km/h
1102 29-06-2009 04:30:53 19 C 11.73 g/m*3 19 C 0 km/h
1103 29-06-2009 04:42:53 18.8 C 11.92 g/m*3 18.8 C 0 km/h
1104 29-06-2009 04:54:53 18.7 C 12.01 g/m*3 18.7 C 0 km/h
1105 29-06-2009 05:06:53 18.5 C 12.02 g/m*3 18.5 C 0 km/h
1106 29-06-2009 05:18:54 18.4 C 11.95 g/m*3 18.4 C 0 km/h
1107 29-06-2009 05:30:54 18.4 C 11.95 g/m*3 18.4 C 0 km/h
1108 29-06-2009 05:42:54 18.3 C 12.04 g/m*3 18.3 C 0 km/h
1109 29-06-2009 05:54:54 18.3 C 12.04 g/m*3 18.3 C 0 km/h
1110 29-06-2009 06:06:54 18.3 C 12.04 g/m*3 18.3 C 0 km/h
1111 29-06-2009 06:18:54 18.2 C 12.12 g/m*3 18.2 C 0 km/h
1112 29-06-2009 06:30:54 18.1 C 12.21 g/m*3 18.1 C 0 km/h
1113 29-06-2009 06:42:54 18 C 12.29 g/m*3 18 C 0 km/h
1114 29-06-2009 06:54:54 18 C 12.29 g/m*3 18 C 0 km/h
1115 29-06-2009 07:06:51 18.3 C 12.51 g/m*3 18.3 C 0 km/h
1116 29-06-2009 07:18:52 18.3 C 12.35 g/m*3 18.3 C 0 km/h
1117 29-06-2009 07:30:52 18.5 C 12.5 g/m*3 18.5 C 0 km/h
1118 29-06-2009 07:42:52 18.7 C 12.49 g/m*3 18.7 C 0 km/h
1119 29-06-2009 07:54:51 18.8 C 12.56 g/m*3 18.8 C 0 km/h
1120 29-06-2009 08:06:52 19.2 C 12.53 g/m*3 19.2 C 0 km/h
1121 29-06-2009 08:18:51 19.5 C 12.59 g/m*3 19.5 C 0 km/h
1122 29-06-2009 08:30:51 19.9 C 12.71 g/m*3 19.9 C 0 km/h
1123 29-06-2009 08:42:52 20.2 C 12.41 g/m*3 20.2 C 0 km/h
1124 29-06-2009 08:54:51 20.5 C 12.63 g/m*3 20.5 C 0 km/h
1125 29-06-2009 09:06:51 21.2 C 12.79 g/m*3 21.2 C 0 km/h
Sensor: Nr:Datum:Temp:Abs-Feuchte:Windchill:Wind:
Aussen-T/F 1126 29-06-2009 09:18:50 21.9 C 12.74 g/m*3 21.9 C 0 km/h
1127 29-06-2009 09:30:50 22.6 C 12.66 g/m*3 22.6 C 0 km/h
1128 29-06-2009 09:42:50 23.3 C 12.75 g/m*3 23.3 C 0 km/h
1129 29-06-2009 09:54:50 23.9 C 12.55 g/m*3 23.9 C 0 km/h
1130 29-06-2009 10:06:50 24.4 C 12.46 g/m*3 24.4 C 0 km/h
1131 29-06-2009 10:18:49 24.8 C 12.06 g/m*3 24.8 C 0 km/h
1132 29-06-2009 10:30:50 25.3 C 11.94 g/m*3 25.3 C 0 km/h
1133 29-06-2009 10:42:50 25.8 C 11.8 g/m*3 25.8 C 0 km/h
1134 29-06-2009 10:54:49 26.4 C 11.2 g/m*3 26.4 C 0 km/h
1135 29-06-2009 11:06:49 27 C 11.32 g/m*3 27 C 0 km/h
1136 29-06-2009 11:18:50 27.3 C 10.99 g/m*3 27.3 C 0 km/h
1137 29-06-2009 11:30:49 27.8 C 11.03 g/m*3 27.8 C 0 km/h
1138 29-06-2009 11:42:49 28.8 C 11.08 g/m*3 28.8 C 0 km/h
1139 29-06-2009 11:54:49 29.2 C 10.45 g/m*3 29.2 C 0 km/h
1140 29-06-2009 12:06:49 29.5 C 10.33 g/m*3 29.5 C 0 km/h
1141 29-06-2009 12:18:49 30.4 C 10.23 g/m*3 30.4 C 0 km/h
1142 29-06-2009 12:30:49 30.9 C 9.55 g/m*3 30.9 C 0 km/h
1143 29-06-2009 12:42:49 31 C 9.6 g/m*3 31 C 0 km/h
1144 29-06-2009 12:54:49 31.6 C 8.59 g/m*3 31.6 C 0 km/h
1145 29-06-2009 13:06:48 32 C 8.78 g/m*3 32 C 0 km/h
1146 29-06-2009 13:18:48 32.3 C 8.23 g/m*3 32.3 C 0 km/h
1147 29-06-2009 13:30:48 31.9 C 8.06 g/m*3 31.9 C 0 km/h
1148 29-06-2009 13:42:48 31.2 C 9.06 g/m*3 31.2 C 0 km/h
1149 29-06-2009 13:54:48 28.7 C 10.17 g/m*3 28.7 C 0 km/h
1150 29-06-2009 14:06:48 28.7 C 10.17 g/m*3 28.7 C 0 km/h
Sensor: Nr:Datum:Temp:Abs-Feuchte:Windchill:Wind:
Aussen-T/F 1151 29-06-2009 14:18:47 28.3 C 10.23 g/m*3 28.3 C 0 km/h
1152 29-06-2009 14:30:48 28.5 C 10.06 g/m*3 28.5 C 0 km/h
1153 29-06-2009 14:42:49 28.2 C 9.9 g/m*3 28.2 C 0 km/h
1154 29-06-2009 14:54:47 28.8 C 10.23 g/m*3 28.8 C 0 km/h
1155 29-06-2009 15:06:47 29.1 C 10.11 g/m*3 29.1 C 0 km/h
1156 29-06-2009 15:18:47 30 C 10.01 g/m*3 30 C 0 km/h
1157 29-06-2009 15:30:47 30.2 C 10.12 g/m*3 30.2 C 0 km/h
1158 29-06-2009 15:42:47 29.9 C 10.25 g/m*3 29.9 C 0 km/h
1159 29-06-2009 15:54:46 29.4 C 9.98 g/m*3 29.4 C 0 km/h
1160 29-06-2009 16:06:47 29.3 C 10.51 g/m*3 29.3 C 0 km/h
1161 29-06-2009 16:18:47 29.2 C 10.45 g/m*3 29.2 C 0 km/h
1162 29-06-2009 16:30:46 29.5 C 11.22 g/m*3 29.5 C 0 km/h
1163 29-06-2009 16:42:46 29.3 C 10.51 g/m*3 29.3 C 0 km/h
1164 29-06-2009 16:54:47 29.5 C 10.92 g/m*3 29.5 C 0 km/h
1165 29-06-2009 17:06:46 29.1 C 10.69 g/m*3 29.1 C 0 km/h
1166 29-06-2009 17:18:46 28.8 C 11.08 g/m*3 28.8 C 0 km/h
1167 29-06-2009 17:30:46 29 C 11.78 g/m*3 29 C 0 km/h
1168 29-06-2009 17:42:46 30.1 C 10.98 g/m*3 30.1 C 0 km/h
1169 29-06-2009 17:54:46 30.1 C 10.37 g/m*3 30.1 C 0 km/h
1170 29-06-2009 18:06:46 30.6 C 10.65 g/m*3 30.6 C 0 km/h
1171 29-06-2009 18:18:45 31.5 C 8.88 g/m*3 31.5 C 0 km/h
1172 29-06-2009 18:30:45 31.5 C 10.19 g/m*3 31.5 C 0 km/h
1173 29-06-2009 18:42:45 31.2 C 10.03 g/m*3 31.2 C 0 km/h
1174 29-06-2009 18:54:45 31.3 C 9.76 g/m*3 31.3 C 0 km/h
1175 29-06-2009 19:06:45 31.1 C 9.97 g/m*3 31.1 C 0 km/h
Sensor: Nr:Datum:Temp:Abs-Feuchte:Windchill:Wind:
Aussen-T/F 1176 29-06-2009 19:18:45 30.4 C 10.23 g/m*3 30.4 C 0 km/h
1177 29-06-2009 19:30:45 30.2 C 11.34 g/m*3 30.2 C 0 km/h
1178 29-06-2009 19:42:45 29.9 C 10.56 g/m*3 29.9 C 0 km/h
1179 29-06-2009 19:54:45 28.8 C 10.51 g/m*3 28.8 C 0 km/h
1180 29-06-2009 20:06:44 28.9 C 10.86 g/m*3 28.9 C 0 km/h
1181 29-06-2009 20:18:45 29 C 11.2 g/m*3 29 C 0 km/h
1182 29-06-2009 20:30:44 28.7 C 11.02 g/m*3 28.7 C 0 km/h
1183 29-06-2009 20:42:44 28.4 C 11.4 g/m*3 28.4 C 0 km/h
1184 29-06-2009 20:54:44 27.6 C 10.91 g/m*3 27.6 C 0 km/h
1185 29-06-2009 21:06:44 27.2 C 11.45 g/m*3 27.2 C 0 km/h
1186 29-06-2009 21:18:44 26.2 C 11.32 g/m*3 26.2 C 0 km/h
1187 29-06-2009 21:30:44 25.3 C 11.47 g/m*3 25.3 C 0 km/h
1188 29-06-2009 21:42:44 24.6 C 11.48 g/m*3 24.6 C 0 km/h
1189 29-06-2009 21:54:44 24.3 C 11.73 g/m*3 24.3 C 0 km/h
1190 29-06-2009 22:06:43 23.9 C 12.11 g/m*3 23.9 C 0 km/h
1191 29-06-2009 22:18:43 23.6 C 11.91 g/m*3 23.6 C 0 km/h
1192 29-06-2009 22:30:43 23.5 C 12.05 g/m*3 23.5 C 0 km/h
1193 29-06-2009 22:42:43 23.4 C 12.2 g/m*3 23.4 C 0 km/h
1194 29-06-2009 22:55:56 23.4 C 12.2 g/m*3 23.4 C 0 km/h
1195 29-06-2009 23:07:56 23.2 C 12.27 g/m*3 23.2 C 0 km/h
1196 29-06-2009 23:19:56 22.9 C 12.47 g/m*3 22.9 C 0 km/h
1197 29-06-2009 23:31:56 22.7 C 12.53 g/m*3 22.7 C 0 km/h
1198 29-06-2009 23:43:56 22.5 C 12.38 g/m*3 22.5 C 0 km/h
1199 29-06-2009 23:55:56 22.3 C 12.44 g/m*3 22.3 C 0 km/h
1200 30-06-2009 00:07:56 22 C 12.42 g/m*3 22 C 0 km/h
Sensor: Nr:Datum:Temp:Abs-Feuchte:Windchill:Wind:
Aussen-T/F 1201 30-06-2009 00:19:56 21.9 C 12.74 g/m*3 21.9 C 0 km/h
1202 30-06-2009 00:31:56 21.8 C 12.85 g/m*3 21.8 C 0 km/h
1203 30-06-2009 00:43:56 21.6 C 12.9 g/m*3 21.6 C 0 km/h
1204 30-06-2009 00:55:56 21.4 C 12.94 g/m*3 21.4 C 0 km/h
1205 30-06-2009 01:07:56 21.2 C 12.79 g/m*3 21.2 C 0 km/h
1206 30-06-2009 01:19:56 21 C 13.01 g/m*3 21 C 0 km/h
1207 30-06-2009 01:31:56 20.9 C 12.93 g/m*3 20.9 C 0 km/h
1208 30-06-2009 01:43:56 20.7 C 13.14 g/m*3 20.7 C 0 km/h
1209 30-06-2009 01:55:57 20.6 C 13.07 g/m*3 20.6 C 0 km/h
1210 30-06-2009 02:07:57 20.5 C 13.17 g/m*3 20.5 C 0 km/h
1211 30-06-2009 02:19:57 20.4 C 13.09 g/m*3 20.4 C 0 km/h
1212 30-06-2009 02:31:57 20.2 C 12.94 g/m*3 20.2 C 0 km/h
1213 30-06-2009 02:43:57 20 C 12.96 g/m*3 20 C 0 km/h
1214 30-06-2009 02:55:57 19.9 C 13.23 g/m*3 19.9 C 0 km/h
1215 30-06-2009 03:07:57 19.7 C 13.08 g/m*3 19.7 C 0 km/h
1216 30-06-2009 03:19:57 19.5 C 13.26 g/m*3 19.5 C 0 km/h
1217 30-06-2009 03:31:57 19.2 C 13.03 g/m*3 19.2 C 0 km/h
1218 30-06-2009 03:43:57 19.2 C 13.03 g/m*3 19.2 C 0 km/h
1219 30-06-2009 03:55:57 19.2 C 13.03 g/m*3 19.2 C 0 km/h
1220 30-06-2009 04:07:57 19.2 C 13.03 g/m*3 19.2 C 0 km/h
1221 30-06-2009 04:19:57 19 C 12.87 g/m*3 19 C 0 km/h
1222 30-06-2009 04:31:57 19 C 12.87 g/m*3 19 C 0 km/h
1223 30-06-2009 04:43:57 19.1 C 13.11 g/m*3 19.1 C 0 km/h
1224 30-06-2009 04:55:57 19.1 C 12.95 g/m*3 19.1 C 0 km/h
1225 30-06-2009 05:07:57 18.9 C 13.12 g/m*3 18.9 C 0 km/h
Sensor: Nr:Datum:Temp:Abs-Feuchte:Windchill:Wind:
Aussen-T/F 1226 30-06-2009 05:19:57 18.8 C 13.21 g/m*3 18.8 C 0 km/h
1227 30-06-2009 05:31:57 18.8 C 13.21 g/m*3 18.8 C 0 km/h
1228 30-06-2009 05:43:58 18.7 C 13.13 g/m*3 18.7 C 0 km/h
1229 30-06-2009 05:55:58 18.8 C 13.21 g/m*3 18.8 C 0 km/h
1230 30-06-2009 06:07:58 18.8 C 13.21 g/m*3 18.8 C 0 km/h
1231 30-06-2009 06:19:58 18.8 C 13.21 g/m*3 18.8 C 0 km/h
1232 30-06-2009 06:31:58 18.8 C 13.21 g/m*3 18.8 C 0 km/h
1233 30-06-2009 06:43:58 19.1 C 13.28 g/m*3 19.1 C 0 km/h
1234 30-06-2009 06:55:58 19.3 C 13.27 g/m*3 19.3 C 0 km/h
1235 30-06-2009 07:07:44 19.5 C 13.09 g/m*3 19.5 C 0 km/h
1236 30-06-2009 07:19:43 19.6 C 13.17 g/m*3 19.6 C 0 km/h
1237 30-06-2009 07:31:44 19.8 C 13.15 g/m*3 19.8 C 0 km/h
1238 30-06-2009 07:43:44 19.9 C 13.23 g/m*3 19.9 C 0 km/h
1239 30-06-2009 07:55:43 20.2 C 13.29 g/m*3 20.2 C 0 km/h
1240 30-06-2009 08:07:43 20.4 C 13.27 g/m*3 20.4 C 0 km/h
1241 30-06-2009 08:19:44 20.7 C 13.32 g/m*3 20.7 C 0 km/h
1242 30-06-2009 08:31:43 21.6 C 13.85 g/m*3 21.6 C 0 km/h
1243 30-06-2009 08:43:43 22.1 C 13.66 g/m*3 22.1 C 0 km/h
1244 30-06-2009 08:55:43 22.5 C 13.58 g/m*3 22.5 C 0 km/h
1245 30-06-2009 09:07:43 23 C 13.36 g/m*3 23 C 0 km/h
1246 30-06-2009 09:19:43 23.2 C 13.51 g/m*3 23.2 C 0 km/h
1247 30-06-2009 09:31:43 23.7 C 13.48 g/m*3 23.7 C 0 km/h
1248 30-06-2009 09:43:43 24.5 C 13.43 g/m*3 24.5 C 0 km/h
1249 30-06-2009 09:55:42 24.5 C 13.2 g/m*3 24.5 C 0 km/h
1250 30-06-2009 10:07:43 25 C 13.12 g/m*3 25 C 0 km/h
Sensor: Nr:Datum:Temp:Abs-Feuchte:Windchill:Wind:
Aussen-T/F 1251 30-06-2009 10:19:42 25.6 C 13.09 g/m*3 25.6 C 0 km/h
1252 30-06-2009 10:31:42 26 C 12.9 g/m*3 26 C 0 km/h
1253 30-06-2009 10:43:42 26.6 C 12.84 g/m*3 26.6 C 0 km/h
1254 30-06-2009 10:55:42 27.3 C 12.04 g/m*3 27.3 C 0 km/h
1255 30-06-2009 11:07:42 28.1 C 12.3 g/m*3 28.1 C 0 km/h
1256 30-06-2009 11:19:41 28.3 C 12.16 g/m*3 28.3 C 0 km/h
1257 30-06-2009 11:31:42 28.4 C 11.95 g/m*3 28.4 C 0 km/h
1258 30-06-2009 11:43:42 29.2 C 12.2 g/m*3 29.2 C 0 km/h
1259 30-06-2009 11:55:41 29.7 C 11.93 g/m*3 29.7 C 0 km/h
1260 30-06-2009 12:07:41 30.2 C 11.65 g/m*3 30.2 C 0 km/h
1261 30-06-2009 12:19:41 30.3 C 12.02 g/m*3 30.3 C 0 km/h
1262 30-06-2009 12:31:41 30.8 C 11.08 g/m*3 30.8 C 0 km/h
1263 30-06-2009 12:43:41 31.4 C 10.14 g/m*3 31.4 C 0 km/h
1264 30-06-2009 12:55:41 31.5 C 10.52 g/m*3 31.5 C 0 km/h
1265 30-06-2009 13:07:40 31.9 C 9.4 g/m*3 31.9 C 0 km/h
1266 30-06-2009 13:19:41 32 C 9.45 g/m*3 32 C 0 km/h
1267 30-06-2009 13:31:40 32.7 C 9.11 g/m*3 32.7 C 0 km/h
1268 30-06-2009 13:43:40 31.2 C 9.38 g/m*3 31.2 C 0 km/h
1269 30-06-2009 13:55:40 31.3 C 9.76 g/m*3 31.3 C 0 km/h
1270 30-06-2009 14:07:40 31.7 C 8.64 g/m*3 31.7 C 0 km/h
1271 30-06-2009 14:19:40 31.9 C 9.07 g/m*3 31.9 C 0 km/h
1272 30-06-2009 14:31:40 31.9 C 8.73 g/m*3 31.9 C 0 km/h
1273 30-06-2009 14:43:40 31.6 C 8.92 g/m*3 31.6 C 0 km/h
1274 30-06-2009 14:55:40 31 C 9.6 g/m*3 31 C 0 km/h
1275 30-06-2009 15:07:40 28.9 C 10.57 g/m*3 28.9 C 0 km/h
Sensor: Nr:Datum:Temp:Abs-Feuchte:Windchill:Wind:
Aussen-T/F 1276 30-06-2009 15:19:39 23.4 C 15.35 g/m*3 23.4 C 0 km/h
1277 30-06-2009 15:31:39 22.3 C 16.39 g/m*3 22.3 C 0 km/h
1278 30-06-2009 15:43:39 21 C 15.39 g/m*3 21 C 0 km/h
1279 30-06-2009 15:55:39 20.2 C 15.04 g/m*3 20.2 C 0 km/h
1280 30-06-2009 16:07:39 19.7 C 14.77 g/m*3 19.7 C 0 km/h
1281 30-06-2009 16:19:38 20 C 15.04 g/m*3 20 C 0 km/h
1282 30-06-2009 16:31:39 20.5 C 15.84 g/m*3 20.5 C 0 km/h
1283 30-06-2009 16:43:39 19.3 C 14.6 g/m*3 19.3 C 0 km/h
1284 30-06-2009 16:55:38 19.3 C 14.6 g/m*3 19.3 C 0 km/h
1285 30-06-2009 17:07:38 19.7 C 15.11 g/m*3 19.7 C 0 km/h
1286 30-06-2009 17:19:39 20 C 15.38 g/m*3 20 C 0 km/h
1287 30-06-2009 17:31:38 20.1 C 15.47 g/m*3 20.1 C 0 km/h
1288 30-06-2009 17:43:38 20.3 C 15.65 g/m*3 20.3 C 0 km/h
1289 30-06-2009 17:55:38 20.6 C 16.11 g/m*3 20.6 C 0 km/h
1290 30-06-2009 18:07:38 20.8 C 16.3 g/m*3 20.8 C 0 km/h
1291 30-06-2009 18:19:38 21.1 C 16.4 g/m*3 21.1 C 0 km/h
1292 30-06-2009 18:31:37 21.3 C 16.4 g/m*3 21.3 C 0 km/h
1293 30-06-2009 18:43:37 21.7 C 16.41 g/m*3 21.7 C 0 km/h
1294 30-06-2009 18:55:38 22 C 16.3 g/m*3 22 C 0 km/h
1295 30-06-2009 19:07:37 22 C 15.72 g/m*3 22 C 0 km/h
1296 30-06-2009 19:19:37 22.3 C 15.99 g/m*3 22.3 C 0 km/h
1297 30-06-2009 19:31:37 22.6 C 16.27 g/m*3 22.6 C 0 km/h
1298 30-06-2009 19:43:37 22.8 C 16.05 g/m*3 22.8 C 0 km/h
1299 30-06-2009 19:55:37 23.1 C 15.92 g/m*3 23.1 C 0 km/h
1300 30-06-2009 20:07:37 23.3 C 16.31 g/m*3 23.3 C 0 km/h
Sensor: Nr:Datum:Temp:Abs-Feuchte:Windchill:Wind:
Aussen-T/F 1301 30-06-2009 20:19:36 23.2 C 16.22 g/m*3 23.2 C 0 km/h
1302 30-06-2009 20:31:37 22.8 C 15.85 g/m*3 22.8 C 0 km/h
1303 30-06-2009 20:43:37 22.2 C 15.31 g/m*3 22.2 C 0 km/h
1304 30-06-2009 20:55:36 21.6 C 14.79 g/m*3 21.6 C 0 km/h
1305 30-06-2009 21:07:37 21 C 14.47 g/m*3 21 C 0 km/h
1306 30-06-2009 21:19:36 20.5 C 14.06 g/m*3 20.5 C 0 km/h
1307 30-06-2009 21:31:36 20 C 13.65 g/m*3 20 C 0 km/h
1308 30-06-2009 21:43:37 19.7 C 13.75 g/m*3 19.7 C 0 km/h
1309 30-06-2009 21:55:36 19.5 C 13.76 g/m*3 19.5 C 0 km/h
1310 30-06-2009 22:07:36 19.4 C 13.85 g/m*3 19.4 C 0 km/h
1311 30-06-2009 22:19:35 19.3 C 13.77 g/m*3 19.3 C 0 km/h
1312 30-06-2009 22:31:35 19.2 C 13.85 g/m*3 19.2 C 0 km/h
1313 30-06-2009 22:43:35 19.2 C 13.85 g/m*3 19.2 C 0 km/h
1314 30-06-2009 22:56:36 19.3 C 13.93 g/m*3 19.3 C 0 km/h
1315 30-06-2009 23:08:36 19.2 C 13.85 g/m*3 19.2 C 0 km/h
1316 30-06-2009 23:20:36 19.1 C 13.77 g/m*3 19.1 C 0 km/h
1317 30-06-2009 23:32:36 19 C 13.85 g/m*3 19 C 0 km/h
1318 30-06-2009 23:44:36 18.9 C 13.93 g/m*3 18.9 C 0 km/h
1319 30-06-2009 23:56:36 18.8 C 13.85 g/m*3 18.8 C 0 km/h
1320 01-07-2009 00:08:36 18.8 C 13.85 g/m*3 18.8 C 0 km/h
1321 01-07-2009 00:20:36 18.7 C 13.77 g/m*3 18.7 C 0 km/h
1322 01-07-2009 00:32:37 18.5 C 13.61 g/m*3 18.5 C 0 km/h
1323 01-07-2009 00:44:37 18.5 C 13.77 g/m*3 18.5 C 0 km/h
1324 01-07-2009 00:56:37 18.4 C 13.68 g/m*3 18.4 C 0 km/h
1325 01-07-2009 01:08:37 18.3 C 13.76 g/m*3 18.3 C 0 km/h
Sensor: Nr:Datum:Temp:Abs-Feuchte:Windchill:Wind:
Aussen-T/F 1326 01-07-2009 01:20:37 18.2 C 13.68 g/m*3 18.2 C 0 km/h
1327 01-07-2009 01:32:37 18.2 C 13.68 g/m*3 18.2 C 0 km/h
1328 01-07-2009 01:44:37 18.1 C 13.6 g/m*3 18.1 C 0 km/h
1329 01-07-2009 01:56:37 18.1 C 13.6 g/m*3 18.1 C 0 km/h
1330 01-07-2009 02:08:37 18.3 C 13.76 g/m*3 18.3 C 0 km/h
1331 01-07-2009 02:20:37 18.4 C 14 g/m*3 18.4 C 0 km/h
1332 01-07-2009 02:32:37 18.3 C 13.76 g/m*3 18.3 C 0 km/h
1333 01-07-2009 02:44:37 18.2 C 13.68 g/m*3 18.2 C 0 km/h
1334 01-07-2009 02:56:37 18.1 C 13.75 g/m*3 18.1 C 0 km/h
1335 01-07-2009 03:08:37 18.1 C 13.6 g/m*3 18.1 C 0 km/h
1336 01-07-2009 03:20:37 18 C 13.67 g/m*3 18 C 0 km/h
1337 01-07-2009 03:32:37 18 C 13.67 g/m*3 18 C 0 km/h
1338 01-07-2009 03:44:37 18.1 C 13.75 g/m*3 18.1 C 0 km/h
1339 01-07-2009 03:56:37 18.1 C 13.75 g/m*3 18.1 C 0 km/h
1340 01-07-2009 04:08:37 18.1 C 13.75 g/m*3 18.1 C 0 km/h
1341 01-07-2009 04:20:38 18 C 13.52 g/m*3 18 C 0 km/h
1342 01-07-2009 04:32:38 17.9 C 13.59 g/m*3 17.9 C 0 km/h
1343 01-07-2009 04:44:38 17.7 C 13.43 g/m*3 17.7 C 0 km/h
1344 01-07-2009 04:56:38 17.6 C 13.35 g/m*3 17.6 C 0 km/h
1345 01-07-2009 05:08:38 17.5 C 13.27 g/m*3 17.5 C 0 km/h
1346 01-07-2009 05:20:38 17.6 C 13.35 g/m*3 17.6 C 0 km/h
1347 01-07-2009 05:32:38 17.9 C 13.74 g/m*3 17.9 C 0 km/h
1348 01-07-2009 05:44:38 18 C 13.67 g/m*3 18 C 0 km/h
1349 01-07-2009 05:56:38 18 C 13.67 g/m*3 18 C 0 km/h
1350 01-07-2009 06:08:38 17.9 C 13.74 g/m*3 17.9 C 0 km/h
Sensor: Nr:Datum:Temp:Abs-Feuchte:Windchill:Wind:
Aussen-T/F 1351 01-07-2009 06:20:38 17.9 C 13.74 g/m*3 17.9 C 0 km/h
1352 01-07-2009 06:32:38 18.1 C 13.75 g/m*3 18.1 C 0 km/h
1353 01-07-2009 06:44:38 18.2 C 13.83 g/m*3 18.2 C 0 km/h
1354 01-07-2009 06:56:38 18.3 C 13.92 g/m*3 18.3 C 0 km/h
1355 01-07-2009 07:08:36 18.7 C 14.25 g/m*3 18.7 C 0 km/h
1356 01-07-2009 07:20:35 18.7 C 13.93 g/m*3 18.7 C 0 km/h
1357 01-07-2009 07:32:35 18.8 C 13.85 g/m*3 18.8 C 0 km/h
1358 01-07-2009 07:44:35 18.9 C 13.93 g/m*3 18.9 C 0 km/h
1359 01-07-2009 07:56:35 19 C 13.69 g/m*3 19 C 0 km/h
1360 01-07-2009 08:08:35 19.3 C 13.77 g/m*3 19.3 C 0 km/h
1361 01-07-2009 08:20:34 19.9 C 13.92 g/m*3 19.9 C 0 km/h
1362 01-07-2009 08:32:35 20.5 C 13.88 g/m*3 20.5 C 0 km/h
1363 01-07-2009 08:44:34 20.7 C 13.5 g/m*3 20.7 C 0 km/h
1364 01-07-2009 08:56:34 21.1 C 13.82 g/m*3 21.1 C 0 km/h
1365 01-07-2009 09:08:34 21.2 C 13.71 g/m*3 21.2 C 0 km/h
1366 01-07-2009 09:20:35 21.7 C 14.31 g/m*3 21.7 C 0 km/h
1367 01-07-2009 09:32:34 22.1 C 14.25 g/m*3 22.1 C 0 km/h
1368 01-07-2009 09:44:34 22.5 C 14.58 g/m*3 22.5 C 0 km/h
1369 01-07-2009 09:56:34 22.9 C 14.51 g/m*3 22.9 C 0 km/h
1370 01-07-2009 10:08:34 23.5 C 14.59 g/m*3 23.5 C 0 km/h
1371 01-07-2009 10:20:34 23.9 C 14.49 g/m*3 23.9 C 0 km/h
1372 01-07-2009 10:32:33 24.5 C 14.1 g/m*3 24.5 C 0 km/h
1373 01-07-2009 10:44:34 24.7 C 13.58 g/m*3 24.7 C 0 km/h
1374 01-07-2009 10:56:34 25.6 C 13.81 g/m*3 25.6 C 0 km/h
1375 01-07-2009 11:08:33 26 C 12.9 g/m*3 26 C 0 km/h
Sensor: Nr:Datum:Temp:Abs-Feuchte:Windchill:Wind:
Aussen-T/F 1376 01-07-2009 11:20:33 26.8 C 13.24 g/m*3 26.8 C 0 km/h
1377 01-07-2009 11:32:33 27.4 C 12.89 g/m*3 27.4 C 0 km/h
1378 01-07-2009 11:44:33 28.3 C 12.16 g/m*3 28.3 C 0 km/h
1379 01-07-2009 11:56:33 28.8 C 12.79 g/m*3 28.8 C 0 km/h
1380 01-07-2009 12:08:33 29.7 C 11.64 g/m*3 29.7 C 0 km/h
1381 01-07-2009 12:20:32 30.3 C 11.71 g/m*3 30.3 C 0 km/h
1382 01-07-2009 12:32:33 30.9 C 11.14 g/m*3 30.9 C 0 km/h
1383 01-07-2009 12:44:32 31 C 10.88 g/m*3 31 C 0 km/h
1384 01-07-2009 12:56:32 31.2 C 10.03 g/m*3 31.2 C 0 km/h
1385 01-07-2009 13:08:32 31.7 C 9.3 g/m*3 31.7 C 0 km/h
1386 01-07-2009 13:20:32 32.1 C 10.18 g/m*3 32.1 C 0 km/h
1387 01-07-2009 13:32:32 32.7 C 8.76 g/m*3 32.7 C 0 km/h
1388 01-07-2009 13:44:32 32.9 C 8.14 g/m*3 32.9 C 0 km/h
1389 01-07-2009 13:56:32 31.7 C 8.97 g/m*3 31.7 C 0 km/h
1390 01-07-2009 14:08:32 27.9 C 10.82 g/m*3 27.9 C 0 km/h
1391 01-07-2009 14:20:32 23.8 C 14.63 g/m*3 23.8 C 0 km/h
1392 01-07-2009 14:32:31 23.8 C 15.27 g/m*3 23.8 C 0 km/h
1393 01-07-2009 14:44:31 24.2 C 14.52 g/m*3 24.2 C 0 km/h
1394 01-07-2009 14:56:31 25 C 14.73 g/m*3 25 C 0 km/h
1395 01-07-2009 15:08:31 25.8 C 14.45 g/m*3 25.8 C 0 km/h
1396 01-07-2009 15:20:31 26.7 C 14.17 g/m*3 26.7 C 0 km/h
1397 01-07-2009 15:32:31 27.4 C 13.68 g/m*3 27.4 C 0 km/h
1398 01-07-2009 15:44:31 28.2 C 14.02 g/m*3 28.2 C 0 km/h
1399 01-07-2009 15:56:31 29.2 C 14.23 g/m*3 29.2 C 0 km/h
1400 01-07-2009 16:08:31 29.5 C 13.58 g/m*3 29.5 C 0 km/h
Sensor: Nr:Datum:Temp:Abs-Feuchte:Windchill:Wind:
Aussen-T/F 1401 01-07-2009 16:20:30 29.7 C 13.13 g/m*3 29.7 C 0 km/h
1402 01-07-2009 16:32:31 30.9 C 11.14 g/m*3 30.9 C 0 km/h
1403 01-07-2009 16:44:30 32.2 C 10.92 g/m*3 32.2 C 0 km/h
1404 01-07-2009 16:56:30 32.7 C 9.11 g/m*3 32.7 C 0 km/h
1405 01-07-2009 17:08:31 32.9 C 8.5 g/m*3 32.9 C 0 km/h
1406 01-07-2009 17:20:30 31.7 C 8.97 g/m*3 31.7 C 0 km/h
1407 01-07-2009 17:32:29 31.7 C 8.64 g/m*3 31.7 C 0 km/h
1408 01-07-2009 17:44:30 31.1 C 9.65 g/m*3 31.1 C 0 km/h
1409 01-07-2009 17:56:30 29.7 C 11.64 g/m*3 29.7 C 0 km/h
1410 01-07-2009 18:08:29 28.3 C 11.89 g/m*3 28.3 C 0 km/h
1411 01-07-2009 18:20:29 27.5 C 11.64 g/m*3 27.5 C 0 km/h
1412 01-07-2009 18:32:29 27 C 11.84 g/m*3 27 C 0 km/h
1413 01-07-2009 18:44:29 26.6 C 12.08 g/m*3 26.6 C 0 km/h
1414 01-07-2009 18:56:30 26.2 C 11.82 g/m*3 26.2 C 0 km/h
1415 01-07-2009 19:08:28 25.9 C 12.35 g/m*3 25.9 C 0 km/h
1416 01-07-2009 19:20:29 25.9 C 12.35 g/m*3 25.9 C 0 km/h
1417 01-07-2009 19:32:29 26 C 11.93 g/m*3 26 C 0 km/h
1418 01-07-2009 19:44:28 26.1 C 12.24 g/m*3 26.1 C 0 km/h
1419 01-07-2009 19:56:28 26.5 C 12.52 g/m*3 26.5 C 0 km/h
1420 01-07-2009 20:08:29 27 C 12.35 g/m*3 27 C 0 km/h
1421 01-07-2009 20:20:28 27.1 C 12.42 g/m*3 27.1 C 0 km/h
1422 01-07-2009 20:32:28 26.7 C 12.15 g/m*3 26.7 C 0 km/h
1423 01-07-2009 20:44:28 26.4 C 12.45 g/m*3 26.4 C 0 km/h
1424 01-07-2009 20:56:28 25.9 C 12.59 g/m*3 25.9 C 0 km/h
1425 01-07-2009 21:08:28 25.3 C 12.41 g/m*3 25.3 C 0 km/h
Sensor: Nr:Datum:Temp:Abs-Feuchte:Windchill:Wind:
Aussen-T/F 1426 01-07-2009 21:20:27 24.6 C 12.83 g/m*3 24.6 C 0 km/h
1427 01-07-2009 21:32:27 24.4 C 12.91 g/m*3 24.4 C 0 km/h
1428 01-07-2009 21:44:27 24.1 C 12.47 g/m*3 24.1 C 0 km/h
1429 01-07-2009 21:56:27 23.7 C 12.62 g/m*3 23.7 C 0 km/h
1430 01-07-2009 22:08:27 23.3 C 12.75 g/m*3 23.3 C 0 km/h
1431 01-07-2009 22:20:27 23.1 C 13.02 g/m*3 23.1 C 0 km/h
1432 01-07-2009 22:32:21 22.9 C 13.28 g/m*3 22.9 C 0 km/h
1433 01-07-2009 22:44:21 22.8 C 13.21 g/m*3 22.8 C 0 km/h
1434 01-07-2009 22:56:21 22.6 C 13.26 g/m*3 22.6 C 0 km/h
1435 01-07-2009 23:08:21 22.4 C 13.11 g/m*3 22.4 C 0 km/h
1436 01-07-2009 23:20:21 22.1 C 13.27 g/m*3 22.1 C 0 km/h
1437 01-07-2009 23:32:21 21.9 C 13.51 g/m*3 21.9 C 0 km/h
1438 01-07-2009 23:44:21 21.9 C 13.7 g/m*3 21.9 C 0 km/h
1439 01-07-2009 23:56:22 22 C 13.78 g/m*3 22 C 0 km/h
1440 02-07-2009 00:08:22 21.7 C 13.73 g/m*3 21.7 C 0 km/h
1441 02-07-2009 00:20:22 21.6 C 13.66 g/m*3 21.6 C 0 km/h
1442 02-07-2009 00:32:22 21.5 C 13.77 g/m*3 21.5 C 0 km/h
1443 02-07-2009 00:44:22 21.2 C 13.53 g/m*3 21.2 C 0 km/h
1444 02-07-2009 00:56:28 21.1 C 13.63 g/m*3 21.1 C 0 km/h
1445 02-07-2009 01:09:28 20.9 C 13.48 g/m*3 20.9 C 0 km/h
1446 02-07-2009 01:21:28 20.8 C 13.58 g/m*3 20.8 C 0 km/h
1447 02-07-2009 01:33:28 20.6 C 13.42 g/m*3 20.6 C 0 km/h
1448 02-07-2009 01:45:28 20.4 C 13.44 g/m*3 20.4 C 0 km/h
1449 02-07-2009 01:57:28 20.3 C 13.37 g/m*3 20.3 C 0 km/h
1450 02-07-2009 02:09:28 20.1 C 13.21 g/m*3 20.1 C 0 km/h
Sensor: Nr:Datum:Temp:Abs-Feuchte:Windchill:Wind:
Aussen-T/F 1451 02-07-2009 02:21:28 20 C 13.31 g/m*3 20 C 0 km/h
1452 02-07-2009 02:33:28 19.9 C 13.57 g/m*3 19.9 C 0 km/h
1453 02-07-2009 02:45:28 19.7 C 13.41 g/m*3 19.7 C 0 km/h
1454 02-07-2009 02:57:29 19.7 C 13.41 g/m*3 19.7 C 0 km/h
1455 02-07-2009 03:09:29 19.7 C 13.58 g/m*3 19.7 C 0 km/h
1456 02-07-2009 03:21:29 19.4 C 13.35 g/m*3 19.4 C 0 km/h
1457 02-07-2009 03:33:29 19.4 C 13.35 g/m*3 19.4 C 0 km/h
1458 02-07-2009 03:45:29 19.2 C 13.36 g/m*3 19.2 C 0 km/h
1459 02-07-2009 03:57:29 19 C 13.36 g/m*3 19 C 0 km/h
1460 02-07-2009 04:09:29 18.9 C 13.45 g/m*3 18.9 C 0 km/h
1461 02-07-2009 04:21:29 18.9 C 13.45 g/m*3 18.9 C 0 km/h
1462 02-07-2009 04:33:29 18.9 C 13.45 g/m*3 18.9 C 0 km/h
1463 02-07-2009 04:45:29 18.7 C 13.29 g/m*3 18.7 C 0 km/h
1464 02-07-2009 04:57:29 18.6 C 13.21 g/m*3 18.6 C 0 km/h
1465 02-07-2009 05:09:29 18.5 C 13.13 g/m*3 18.5 C 0 km/h
1466 02-07-2009 05:21:29 18.5 C 13.13 g/m*3 18.5 C 0 km/h
1467 02-07-2009 05:33:29 18.3 C 12.98 g/m*3 18.3 C 0 km/h
1468 02-07-2009 05:45:29 18.4 C 13.21 g/m*3 18.4 C 0 km/h
1469 02-07-2009 05:57:29 18.3 C 13.13 g/m*3 18.3 C 0 km/h
1470 02-07-2009 06:09:29 18.3 C 13.13 g/m*3 18.3 C 0 km/h
1471 02-07-2009 06:21:29 18.4 C 13.21 g/m*3 18.4 C 0 km/h
1472 02-07-2009 06:33:29 18.4 C 13.21 g/m*3 18.4 C 0 km/h
1473 02-07-2009 06:45:29 18.5 C 13.29 g/m*3 18.5 C 0 km/h
1474 02-07-2009 06:57:29 18.5 C 13.29 g/m*3 18.5 C 0 km/h
1475 02-07-2009 07:09:28 18.6 C 13.37 g/m*3 18.6 C 0 km/h
Sensor: Nr:Datum:Temp:Abs-Feuchte:Windchill:Wind:
Aussen-T/F 1476 02-07-2009 07:21:28 18.7 C 13.45 g/m*3 18.7 C 0 km/h
1477 02-07-2009 07:33:29 18.9 C 13.61 g/m*3 18.9 C 0 km/h
1478 02-07-2009 07:45:28 19.1 C 13.44 g/m*3 19.1 C 0 km/h
1479 02-07-2009 07:57:28 19.2 C 13.52 g/m*3 19.2 C 0 km/h
1480 02-07-2009 08:09:28 19.6 C 13.84 g/m*3 19.6 C 0 km/h
1481 02-07-2009 08:21:28 20 C 13.83 g/m*3 20 C 0 km/h
1482 02-07-2009 08:33:28 20.3 C 13.72 g/m*3 20.3 C 0 km/h
1483 02-07-2009 08:45:27 20.6 C 13.96 g/m*3 20.6 C 0 km/h
1484 02-07-2009 08:57:27 20.7 C 14.04 g/m*3 20.7 C 0 km/h
1485 02-07-2009 09:09:28 20.9 C 14.21 g/m*3 20.9 C 0 km/h
1486 02-07-2009 09:21:27 21 C 14.11 g/m*3 21 C 0 km/h
1487 02-07-2009 09:33:27 21.3 C 14.17 g/m*3 21.3 C 0 km/h
1488 02-07-2009 09:45:27 22 C 14.17 g/m*3 22 C 0 km/h
1489 02-07-2009 09:57:27 23.1 C 14.26 g/m*3 23.1 C 0 km/h
1490 02-07-2009 10:09:27 23.8 C 13.77 g/m*3 23.8 C 0 km/h
1491 02-07-2009 10:21:27 24.5 C 13.88 g/m*3 24.5 C 0 km/h
1492 02-07-2009 10:33:26 25.2 C 13.74 g/m*3 25.2 C 0 km/h
1493 02-07-2009 10:45:27 25.8 C 13.72 g/m*3 25.8 C 0 km/h
1494 02-07-2009 10:57:27 26.3 C 13.12 g/m*3 26.3 C 0 km/h
1495 02-07-2009 11:09:26 27 C 13.13 g/m*3 27 C 0 km/h
1496 02-07-2009 11:21:26 27.5 C 13.23 g/m*3 27.5 C 0 km/h
1497 02-07-2009 11:33:26 28.2 C 12.92 g/m*3 28.2 C 0 km/h
1498 02-07-2009 11:45:26 29 C 12.35 g/m*3 29 C 0 km/h
1499 02-07-2009 11:57:26 29.1 C 12.13 g/m*3 29.1 C 0 km/h
1500 02-07-2009 12:09:25 29.6 C 12.17 g/m*3 29.6 C 0 km/h
Sensor: Nr:Datum:Temp:Abs-Feuchte:Windchill:Wind:
Aussen-T/F 1501 02-07-2009 12:21:26 30 C 10.92 g/m*3 30 C 0 km/h
1502 02-07-2009 12:33:26 30.7 C 10.71 g/m*3 30.7 C 0 km/h
1503 02-07-2009 12:45:25 31.2 C 10.35 g/m*3 31.2 C 0 km/h
1504 02-07-2009 12:57:25 31.6 C 9.58 g/m*3 31.6 C 0 km/h
1505 02-07-2009 13:09:26 32 C 8.78 g/m*3 32 C 0 km/h
1506 02-07-2009 13:21:25 32.6 C 8.71 g/m*3 32.6 C 0 km/h
1507 02-07-2009 13:33:25 33.1 C 8.59 g/m*3 33.1 C 0 km/h
1508 02-07-2009 13:45:25 33.1 C 8.23 g/m*3 33.1 C 0 km/h
1509 02-07-2009 13:57:25 32.3 C 8.58 g/m*3 32.3 C 0 km/h
1510 02-07-2009 14:09:25 32.4 C 8.62 g/m*3 32.4 C 0 km/h
1511 02-07-2009 14:21:24 32.3 C 8.92 g/m*3 32.3 C 0 km/h
1512 02-07-2009 14:33:24 32 C 9.45 g/m*3 32 C 0 km/h
1513 02-07-2009 14:45:25 32.1 C 8.48 g/m*3 32.1 C 0 km/h
1514 02-07-2009 14:57:25 31.8 C 9.02 g/m*3 31.8 C 0 km/h
1515 02-07-2009 15:09:24 32.4 C 7.93 g/m*3 32.4 C 0 km/h
1516 02-07-2009 15:21:24 32.7 C 7.36 g/m*3 32.7 C 0 km/h
1517 02-07-2009 15:33:24 33.1 C 7.52 g/m*3 33.1 C 0 km/h
1518 02-07-2009 15:45:24 33.6 C 7.35 g/m*3 33.6 C 0 km/h
1519 02-07-2009 15:57:24 33.8 C 7.43 g/m*3 33.8 C 0 km/h
1520 02-07-2009 16:09:23 32.6 C 9.06 g/m*3 32.6 C 0 km/h
1521 02-07-2009 16:21:24 31.3 C 10.41 g/m*3 31.3 C 0 km/h
1522 02-07-2009 16:33:24 32.5 C 8.32 g/m*3 32.5 C 0 km/h
1523 02-07-2009 16:45:23 33.7 C 7.39 g/m*3 33.7 C 0 km/h
1524 02-07-2009 16:57:23 33.6 C 7.35 g/m*3 33.6 C 0 km/h
1525 02-07-2009 17:09:23 33.1 C 7.16 g/m*3 33.1 C 0 km/h
Sensor: Nr:Datum:Temp:Abs-Feuchte:Windchill:Wind:
Aussen-T/F 1526 02-07-2009 17:21:23 33.3 C 7.23 g/m*3 33.3 C 0 km/h
1527 02-07-2009 17:33:24 33.6 C 7.35 g/m*3 33.6 C 0 km/h
1528 02-07-2009 17:45:22 34 C 7.5 g/m*3 34 C 0 km/h
1529 02-07-2009 17:57:22 34.4 C 7.66 g/m*3 34.4 C 0 km/h
1530 02-07-2009 18:09:23 34.8 C 7.82 g/m*3 34.8 C 0 km/h
1531 02-07-2009 18:21:22 34.4 C 7.66 g/m*3 34.4 C 0 km/h
1532 02-07-2009 18:33:22 34.4 C 7.66 g/m*3 34.4 C 0 km/h
1533 02-07-2009 18:45:22 34.5 C 7.7 g/m*3 34.5 C 0 km/h
1534 02-07-2009 18:57:22 34.2 C 7.58 g/m*3 34.2 C 0 km/h
1535 02-07-2009 19:09:22 34.2 C 7.96 g/m*3 34.2 C 0 km/h
1536 02-07-2009 19:21:22 34 C 7.88 g/m*3 34 C 0 km/h
1537 02-07-2009 19:33:21 33.7 C 8.13 g/m*3 33.7 C 0 km/h
1538 02-07-2009 19:45:22 33.6 C 8.45 g/m*3 33.6 C 0 km/h
1539 02-07-2009 19:57:22 32.6 C 8.36 g/m*3 32.6 C 0 km/h
1540 02-07-2009 20:09:21 31.7 C 8.64 g/m*3 31.7 C 0 km/h
1541 02-07-2009 20:21:21 31.1 C 9.33 g/m*3 31.1 C 0 km/h
1542 02-07-2009 20:33:21 30.4 C 10.85 g/m*3 30.4 C 0 km/h
1543 02-07-2009 20:45:21 30 C 10.92 g/m*3 30 C 0 km/h
1544 02-07-2009 20:57:21 29 C 11.2 g/m*3 29 C 0 km/h
1545 02-07-2009 21:09:20 28.3 C 11.33 g/m*3 28.3 C 0 km/h
1546 02-07-2009 21:21:21 28 C 11.42 g/m*3 28 C 0 km/h
1547 02-07-2009 21:33:20 27.6 C 11.97 g/m*3 27.6 C 0 km/h
1548 02-07-2009 21:45:20 27.2 C 11.97 g/m*3 27.2 C 0 km/h
1549 02-07-2009 21:57:20 26.9 C 12.29 g/m*3 26.9 C 0 km/h
1550 02-07-2009 22:09:20 26.3 C 12.13 g/m*3 26.3 C 0 km/h
Sensor: Nr:Datum:Temp:Abs-Feuchte:Windchill:Wind:
Aussen-T/F 1551 02-07-2009 22:21:20 26.2 C 11.82 g/m*3 26.2 C 0 km/h
1552 02-07-2009 22:33:20 26 C 11.69 g/m*3 26 C 0 km/h
1553 02-07-2009 22:46:21 25.8 C 12.04 g/m*3 25.8 C 0 km/h
1554 02-07-2009 22:58:21 25.7 C 12.21 g/m*3 25.7 C 0 km/h
1555 02-07-2009 23:10:21 25.6 C 12.14 g/m*3 25.6 C 0 km/h
1556 02-07-2009 23:22:21 25.3 C 12.17 g/m*3 25.3 C 0 km/h
1557 02-07-2009 23:34:21 25 C 11.97 g/m*3 25 C 0 km/h
1558 02-07-2009 23:46:21 24.7 C 12 g/m*3 24.7 C 0 km/h
1559 02-07-2009 23:58:21 24.7 C 12.22 g/m*3 24.7 C 0 km/h
1560 03-07-2009 00:10:21 24.5 C 12.09 g/m*3 24.5 C 0 km/h
1561 03-07-2009 00:22:21 24 C 12.18 g/m*3 24 C 0 km/h
1562 03-07-2009 00:34:21 23.9 C 12.55 g/m*3 23.9 C 0 km/h
1563 03-07-2009 00:46:21 23.6 C 12.34 g/m*3 23.6 C 0 km/h
1564 03-07-2009 00:58:21 23.5 C 12.27 g/m*3 23.5 C 0 km/h
1565 03-07-2009 01:10:21 23.3 C 12.34 g/m*3 23.3 C 0 km/h
1566 03-07-2009 01:22:21 23.1 C 12.2 g/m*3 23.1 C 0 km/h
1567 03-07-2009 01:34:21 23 C 12.54 g/m*3 23 C 0 km/h
1568 03-07-2009 01:46:21 22.8 C 12.6 g/m*3 22.8 C 0 km/h
1569 03-07-2009 01:58:21 22.5 C 12.58 g/m*3 22.5 C 0 km/h
1570 03-07-2009 02:10:21 22.5 C 12.58 g/m*3 22.5 C 0 km/h
1571 03-07-2009 02:22:21 22.1 C 12.69 g/m*3 22.1 C 0 km/h
1572 03-07-2009 02:34:22 22 C 12.62 g/m*3 22 C 0 km/h
1573 03-07-2009 02:46:22 21.7 C 12.59 g/m*3 21.7 C 0 km/h
1574 03-07-2009 02:58:22 21.6 C 12.71 g/m*3 21.6 C 0 km/h
1575 03-07-2009 03:10:22 21.5 C 12.82 g/m*3 21.5 C 0 km/h
Sensor: Nr:Datum:Temp:Abs-Feuchte:Windchill:Wind:
Aussen-T/F 1576 03-07-2009 03:22:22 21.5 C 12.82 g/m*3 21.5 C 0 km/h
1577 03-07-2009 03:34:22 21.5 C 12.63 g/m*3 21.5 C 0 km/h
1578 03-07-2009 03:46:22 21.3 C 12.68 g/m*3 21.3 C 0 km/h
1579 03-07-2009 03:58:22 21 C 12.64 g/m*3 21 C 0 km/h
1580 03-07-2009 04:10:22 20.8 C 12.86 g/m*3 20.8 C 0 km/h
1581 03-07-2009 04:22:22 20.6 C 12.89 g/m*3 20.6 C 0 km/h
1582 03-07-2009 04:34:22 20.5 C 12.81 g/m*3 20.5 C 0 km/h
1583 03-07-2009 04:46:22 20.3 C 12.84 g/m*3 20.3 C 0 km/h
1584 03-07-2009 04:58:22 20.4 C 12.91 g/m*3 20.4 C 0 km/h
1585 03-07-2009 05:10:22 20.2 C 12.94 g/m*3 20.2 C 0 km/h
1586 03-07-2009 05:22:22 20.1 C 12.86 g/m*3 20.1 C 0 km/h
1587 03-07-2009 05:34:22 20 C 12.79 g/m*3 20 C 0 km/h
1588 03-07-2009 05:46:22 20 C 12.79 g/m*3 20 C 0 km/h
1589 03-07-2009 05:58:22 19.9 C 12.89 g/m*3 19.9 C 0 km/h
1590 03-07-2009 06:10:22 20 C 12.96 g/m*3 20 C 0 km/h
1591 03-07-2009 06:22:23 20.2 C 13.11 g/m*3 20.2 C 0 km/h
1592 03-07-2009 06:34:23 20 C 12.96 g/m*3 20 C 0 km/h
1593 03-07-2009 06:46:23 20 C 12.96 g/m*3 20 C 0 km/h
1594 03-07-2009 06:58:23 20.1 C 13.21 g/m*3 20.1 C 0 km/h
1595 03-07-2009 07:10:21 20.1 C 13.21 g/m*3 20.1 C 0 km/h
1596 03-07-2009 07:22:20 20.1 C 13.21 g/m*3 20.1 C 0 km/h
1597 03-07-2009 07:34:21 20.4 C 13.44 g/m*3 20.4 C 0 km/h
1598 03-07-2009 07:46:20 20.6 C 13.42 g/m*3 20.6 C 0 km/h
1599 03-07-2009 07:58:20 20.7 C 13.5 g/m*3 20.7 C 0 km/h
1600 03-07-2009 08:10:20 21.1 C 13.45 g/m*3 21.1 C 0 km/h
Sensor: Nr:Datum:Temp:Abs-Feuchte:Windchill:Wind:
Aussen-T/F 1601 03-07-2009 08:22:20 21.4 C 13.31 g/m*3 21.4 C 0 km/h
1602 03-07-2009 08:34:20 21.9 C 13.51 g/m*3 21.9 C 0 km/h
1603 03-07-2009 08:46:19 22.4 C 13.5 g/m*3 22.4 C 0 km/h
1604 03-07-2009 08:58:19 22.9 C 13.49 g/m*3 22.9 C 0 km/h
1605 03-07-2009 09:10:20 23.5 C 13.53 g/m*3 23.5 C 0 km/h
1606 03-07-2009 09:22:20 24.1 C 13.57 g/m*3 24.1 C 0 km/h
1607 03-07-2009 09:34:19 24.7 C 13.13 g/m*3 24.7 C 0 km/h
1608 03-07-2009 09:46:20 25.3 C 13.34 g/m*3 25.3 C 0 km/h
1609 03-07-2009 09:58:20 25.9 C 13.32 g/m*3 25.9 C 0 km/h
1610 03-07-2009 10:10:19 26.4 C 13.19 g/m*3 26.4 C 0 km/h
1611 03-07-2009 10:22:19 27.1 C 12.94 g/m*3 27.1 C 0 km/h
1612 03-07-2009 10:34:19 27.6 C 12.5 g/m*3 27.6 C 0 km/h
1613 03-07-2009 10:46:19 28.2 C 12.37 g/m*3 28.2 C 0 km/h
1614 03-07-2009 10:58:19 28.4 C 12.23 g/m*3 28.4 C 0 km/h
1615 03-07-2009 11:10:18 28.9 C 12 g/m*3 28.9 C 0 km/h
1616 03-07-2009 11:22:19 29.4 C 12.04 g/m*3 29.4 C 0 km/h
1617 03-07-2009 11:34:19 30 C 11.52 g/m*3 30 C 0 km/h
1618 03-07-2009 11:46:18 30.2 C 11.65 g/m*3 30.2 C 0 km/h
1619 03-07-2009 11:58:18 30.6 C 10.96 g/m*3 30.6 C 0 km/h
1620 03-07-2009 12:10:18 31.3 C 11.06 g/m*3 31.3 C 0 km/h
1621 03-07-2009 12:22:18 31.5 C 9.86 g/m*3 31.5 C 0 km/h
1622 03-07-2009 12:34:18 32 C 9.45 g/m*3 32 C 0 km/h
1623 03-07-2009 12:46:18 32.4 C 8.62 g/m*3 32.4 C 0 km/h
1624 03-07-2009 12:58:18 32.9 C 8.14 g/m*3 32.9 C 0 km/h
1625 03-07-2009 13:10:18 31.8 C 9.35 g/m*3 31.8 C 0 km/h
Sensor: Nr:Datum:Temp:Abs-Feuchte:Windchill:Wind:
Aussen-T/F 1626 03-07-2009 13:22:17 31.2 C 11.32 g/m*3 31.2 C 0 km/h
1627 03-07-2009 13:34:17 30.1 C 11.89 g/m*3 30.1 C 0 km/h
1628 03-07-2009 13:46:17 27.5 C 12.7 g/m*3 27.5 C 0 km/h
1629 03-07-2009 13:58:17 23.7 C 14.76 g/m*3 23.7 C 0 km/h
1630 03-07-2009 14:10:17 23 C 14.59 g/m*3 23 C 0 km/h
1631 03-07-2009 14:22:16 22.5 C 13.58 g/m*3 22.5 C 0 km/h
1632 03-07-2009 14:34:17 21.9 C 12.74 g/m*3 21.9 C 0 km/h
1633 03-07-2009 14:46:13 21.8 C 12.85 g/m*3 21.8 C 0 km/h
1634 03-07-2009 14:58:13 20.7 C 13.86 g/m*3 20.7 C 0 km/h
1635 03-07-2009 15:10:13 20.1 C 14.25 g/m*3 20.1 C 0 km/h
1636 03-07-2009 15:22:02 20.1 C 14.6 g/m*3 20.1 C 0 km/h
1637 03-07-2009 15:34:02 20.1 C 14.78 g/m*3 20.1 C 0 km/h
1638 03-07-2009 15:46:02 20.5 C 15.3 g/m*3 20.5 C 0 km/h
1639 03-07-2009 15:58:03 20.7 C 15.66 g/m*3 20.7 C 0 km/h
1640 03-07-2009 16:10:01 20.9 C 15.84 g/m*3 20.9 C 0 km/h
1641 03-07-2009 16:22:02 20.9 C 15.84 g/m*3 20.9 C 0 km/h
1642 03-07-2009 16:34:02 20.8 C 15.21 g/m*3 20.8 C 0 km/h
1643 03-07-2009 16:46:01 20.7 C 14.58 g/m*3 20.7 C 0 km/h
1644 03-07-2009 16:58:01 20.8 C 14.67 g/m*3 20.8 C 0 km/h
1645 03-07-2009 17:10:01 21 C 14.84 g/m*3 21 C 0 km/h
1646 03-07-2009 17:22:01 21.7 C 14.88 g/m*3 21.7 C 0 km/h
1647 03-07-2009 17:34:01 21.9 C 14.86 g/m*3 21.9 C 0 km/h
1648 03-07-2009 17:46:00 22.4 C 14.89 g/m*3 22.4 C 0 km/h
1649 03-07-2009 17:58:00 22.7 C 14.75 g/m*3 22.7 C 0 km/h
1650 03-07-2009 18:10:01 23.8 C 14.63 g/m*3 23.8 C 0 km/h
Sensor: Nr:Datum:Temp:Abs-Feuchte:Windchill:Wind:
Aussen-T/F 1651 03-07-2009 18:22:00 23.9 C 14.28 g/m*3 23.9 C 0 km/h
1652 03-07-2009 18:34:00 25.6 C 14.28 g/m*3 25.6 C 0 km/h
1653 03-07-2009 18:46:00 26.6 C 13.59 g/m*3 26.6 C 0 km/h
1654 03-07-2009 18:58:00 26.4 C 13.94 g/m*3 26.4 C 0 km/h
1655 03-07-2009 19:10:00 26.5 C 13.77 g/m*3 26.5 C 0 km/h
1656 03-07-2009 19:22:00 26.3 C 13.62 g/m*3 26.3 C 0 km/h
1657 03-07-2009 19:34:59 26.4 C 13.69 g/m*3 26.4 C 0 km/h
1658 03-07-2009 19:46:00 26.3 C 13.62 g/m*3 26.3 C 0 km/h
1659 03-07-2009 19:58:00 25.4 C 14.13 g/m*3 25.4 C 0 km/h
1660 03-07-2009 20:10:59 24.5 C 14.1 g/m*3 24.5 C 0 km/h
1661 03-07-2009 20:22:59 23.9 C 14.49 g/m*3 23.9 C 0 km/h
1662 03-07-2009 20:34:59 23.6 C 14.68 g/m*3 23.6 C 0 km/h
1663 03-07-2009 20:46:59 23.4 C 14.72 g/m*3 23.4 C 0 km/h
1664 03-07-2009 20:59:00 23.1 C 14.47 g/m*3 23.1 C 0 km/h
1665 03-07-2009 21:10:59 23.1 C 14.68 g/m*3 23.1 C 0 km/h
1666 03-07-2009 21:22:58 22.5 C 14.78 g/m*3 22.5 C 0 km/h
1667 03-07-2009 21:34:58 22.2 C 14.92 g/m*3 22.2 C 0 km/h
1668 03-07-2009 21:46:58 22.1 C 14.84 g/m*3 22.1 C 0 km/h
1669 03-07-2009 21:58:58 22.1 C 14.84 g/m*3 22.1 C 0 km/h
1670 03-07-2009 22:10:58 21.7 C 14.88 g/m*3 21.7 C 0 km/h
1671 03-07-2009 22:22:58 21.5 C 14.9 g/m*3 21.5 C 0 km/h
1672 03-07-2009 22:34:58 21.2 C 14.83 g/m*3 21.2 C 0 km/h
1673 03-07-2009 22:46:58 21 C 14.84 g/m*3 21 C 0 km/h
1674 03-07-2009 22:58:58 21 C 14.47 g/m*3 21 C 0 km/h
1675 03-07-2009 23:10:57 21 C 14.47 g/m*3 21 C 0 km/h
Sensor: Nr:Datum:Temp:Abs-Feuchte:Windchill:Wind:
Aussen-T/F 1676 03-07-2009 23:22:58 20.8 C 14.3 g/m*3 20.8 C 0 km/h
1677 03-07-2009 23:35:57 20.8 C 14.49 g/m*3 20.8 C 0 km/h
1678 03-07-2009 23:47:57 20.6 C 14.32 g/m*3 20.6 C 0 km/h
1679 03-07-2009 23:59:57 20.5 C 14.41 g/m*3 20.5 C 0 km/h
1680 04-07-2009 00:11:57 20.4 C 14.51 g/m*3 20.4 C 0 km/h
1681 04-07-2009 00:23:57 20.3 C 14.42 g/m*3 20.3 C 0 km/h
1682 04-07-2009 00:35:57 20.2 C 14.34 g/m*3 20.2 C 0 km/h
1683 04-07-2009 00:47:57 20.1 C 14.25 g/m*3 20.1 C 0 km/h
1684 04-07-2009 00:59:57 19.8 C 14.35 g/m*3 19.8 C 0 km/h
1685 04-07-2009 01:11:57 19.5 C 14.43 g/m*3 19.5 C 0 km/h
1686 04-07-2009 01:23:58 19.5 C 14.43 g/m*3 19.5 C 0 km/h
1687 04-07-2009 01:35:58 19.4 C 14.68 g/m*3 19.4 C 0 km/h
1688 04-07-2009 01:47:58 19.3 C 14.6 g/m*3 19.3 C 0 km/h
1689 04-07-2009 01:59:58 19.3 C 14.6 g/m*3 19.3 C 0 km/h
1690 04-07-2009 02:11:58 19.2 C 14.51 g/m*3 19.2 C 0 km/h
1691 04-07-2009 02:23:58 19.1 C 14.43 g/m*3 19.1 C 0 km/h
1692 04-07-2009 02:35:58 19.1 C 14.43 g/m*3 19.1 C 0 km/h
1693 04-07-2009 02:47:58 19.2 C 14.51 g/m*3 19.2 C 0 km/h
1694 04-07-2009 02:59:58 19.1 C 14.43 g/m*3 19.1 C 0 km/h
1695 04-07-2009 03:11:58 18.9 C 14.42 g/m*3 18.9 C 0 km/h
1696 04-07-2009 03:23:58 18.8 C 14.33 g/m*3 18.8 C 0 km/h
1697 04-07-2009 03:35:58 18.7 C 14.25 g/m*3 18.7 C 0 km/h
1698 04-07-2009 03:47:58 18.9 C 14.42 g/m*3 18.9 C 0 km/h
1699 04-07-2009 03:59:58 18.9 C 14.42 g/m*3 18.9 C 0 km/h
1700 04-07-2009 04:11:58 18.7 C 14.09 g/m*3 18.7 C 0 km/h
Sensor: Nr:Datum:Temp:Abs-Feuchte:Windchill:Wind:
Aussen-T/F 1701 04-07-2009 04:23:58 18.8 C 14.17 g/m*3 18.8 C 0 km/h
1702 04-07-2009 04:35:58 18.9 C 14.26 g/m*3 18.9 C 0 km/h
1703 04-07-2009 04:47:58 18.9 C 14.26 g/m*3 18.9 C 0 km/h
1704 04-07-2009 04:59:58 18.8 C 14.01 g/m*3 18.8 C 0 km/h
1705 04-07-2009 05:11:59 18.6 C 13.69 g/m*3 18.6 C 0 km/h
1706 04-07-2009 05:23:59 18.4 C 13.37 g/m*3 18.4 C 0 km/h
1707 04-07-2009 05:35:59 18.3 C 13.13 g/m*3 18.3 C 0 km/h
1708 04-07-2009 05:47:59 18.1 C 12.98 g/m*3 18.1 C 0 km/h
1709 04-07-2009 05:59:59 17.7 C 12.98 g/m*3 17.7 C 0 km/h
1710 04-07-2009 06:11:59 17.6 C 12.9 g/m*3 17.6 C 0 km/h
1711 04-07-2009 06:23:59 17.6 C 12.9 g/m*3 17.6 C 0 km/h
1712 04-07-2009 06:35:59 17.5 C 12.82 g/m*3 17.5 C 0 km/h
1713 04-07-2009 06:47:59 17.5 C 12.97 g/m*3 17.5 C 0 km/h
1714 04-07-2009 06:59:59 17.4 C 13.04 g/m*3 17.4 C 0 km/h
1715 04-07-2009 07:11:59 17.7 C 13.28 g/m*3 17.7 C 0 km/h
1716 04-07-2009 07:23:59 17.9 C 13.28 g/m*3 17.9 C 0 km/h
1717 04-07-2009 07:35:59 18 C 13.06 g/m*3 18 C 0 km/h
1718 04-07-2009 07:47:59 18 C 12.9 g/m*3 18 C 0 km/h
1719 04-07-2009 07:59:59 18.2 C 12.75 g/m*3 18.2 C 0 km/h
1720 04-07-2009 08:11:57 18.5 C 12.66 g/m*3 18.5 C 0 km/h
1721 04-07-2009 08:23:57 18.8 C 12.24 g/m*3 18.8 C 0 km/h
1722 04-07-2009 08:35:57 19.1 C 11.8 g/m*3 19.1 C 0 km/h
1723 04-07-2009 08:47:56 19.5 C 11.24 g/m*3 19.5 C 0 km/h
1724 04-07-2009 08:59:56 19.7 C 10.87 g/m*3 19.7 C 0 km/h
1725 04-07-2009 09:11:56 20 C 10.89 g/m*3 20 C 0 km/h
Sensor: Nr:Datum:Temp:Abs-Feuchte:Windchill:Wind:
Aussen-T/F 1726 04-07-2009 09:23:56 20.4 C 10.61 g/m*3 20.4 C 0 km/h
1727 04-07-2009 09:35:56 21.3 C 10.25 g/m*3 21.3 C 0 km/h
1728 04-07-2009 09:47:55 22.2 C 10.41 g/m*3 22.2 C 0 km/h
1729 04-07-2009 09:59:55 22.1 C 10.54 g/m*3 22.1 C 0 km/h
1730 04-07-2009 10:11:56 22.3 C 10.47 g/m*3 22.3 C 0 km/h
1731 04-07-2009 10:23:56 22.7 C 10.51 g/m*3 22.7 C 0 km/h
1732 04-07-2009 10:35:55 23.5 C 10.79 g/m*3 23.5 C 0 km/h
1733 04-07-2009 10:47:56 24.3 C 10.62 g/m*3 24.3 C 0 km/h
1734 04-07-2009 10:59:56 24.7 C 10.19 g/m*3 24.7 C 0 km/h
1735 04-07-2009 11:11:55 25.3 C 9.83 g/m*3 25.3 C 0 km/h
1736 04-07-2009 11:23:55 25.6 C 9.76 g/m*3 25.6 C 0 km/h
1737 04-07-2009 11:35:54 26.2 C 9.6 g/m*3 26.2 C 0 km/h
1738 04-07-2009 11:47:55 26.7 C 9.87 g/m*3 26.7 C 0 km/h
1739 04-07-2009 11:59:55 27.8 C 9.95 g/m*3 27.8 C 0 km/h
1740 04-07-2009 12:11:54 28.3 C 9.95 g/m*3 28.3 C 0 km/h
1741 04-07-2009 12:23:54 27.8 C 9.41 g/m*3 27.8 C 0 km/h
1742 04-07-2009 12:35:55 27.1 C 9.58 g/m*3 27.1 C 0 km/h
1743 04-07-2009 12:47:54 26.7 C 9.62 g/m*3 26.7 C 0 km/h
1744 04-07-2009 12:59:54 25.8 C 10.11 g/m*3 25.8 C 0 km/h
1745 04-07-2009 13:11:54 27.3 C 9.68 g/m*3 27.3 C 0 km/h
1746 04-07-2009 13:23:53 27.7 C 9.9 g/m*3 27.7 C 0 km/h
1747 04-07-2009 13:35:54 30.6 C 9.08 g/m*3 30.6 C 0 km/h
1748 04-07-2009 13:47:53 31.3 C 8.13 g/m*3 31.3 C 0 km/h
1749 04-07-2009 13:59:53 30.6 C 8.77 g/m*3 30.6 C 0 km/h
1750 04-07-2009 14:11:53 30 C 9.4 g/m*3 30 C 0 km/h
Sensor: Nr:Datum:Temp:Abs-Feuchte:Windchill:Wind:
Aussen-T/F 1751 04-07-2009 14:23:54 29.6 C 8.9 g/m*3 29.6 C 0 km/h
1752 04-07-2009 14:35:53 27.9 C 8.65 g/m*3 27.9 C 0 km/h
1753 04-07-2009 14:47:53 28.9 C 8.86 g/m*3 28.9 C 0 km/h
1754 04-07-2009 14:59:53 30.3 C 8.63 g/m*3 30.3 C 0 km/h
1755 04-07-2009 15:11:53 29.9 C 9.05 g/m*3 29.9 C 0 km/h
1756 04-07-2009 15:23:53 30.2 C 9.2 g/m*3 30.2 C 0 km/h
1757 04-07-2009 15:35:52 29.6 C 8.31 g/m*3 29.6 C 0 km/h
1758 04-07-2009 15:47:53 30.4 C 8.06 g/m*3 30.4 C 0 km/h
1759 04-07-2009 15:59:53 30 C 8.49 g/m*3 30 C 0 km/h
1760 04-07-2009 16:11:52 31.2 C 7.12 g/m*3 31.2 C 0 km/h
1761 04-07-2009 16:23:52 31 C 7.04 g/m*3 31 C 0 km/h
1762 04-07-2009 16:35:52 30.8 C 7.28 g/m*3 30.8 C 0 km/h
1763 04-07-2009 16:47:52 31.1 C 6.76 g/m*3 31.1 C 0 km/h
1764 04-07-2009 16:59:52 30.9 C 6.68 g/m*3 30.9 C 0 km/h
1765 04-07-2009 17:11:52 30.4 C 6.82 g/m*3 30.4 C 0 km/h
1766 04-07-2009 17:23:51 31.2 C 6.79 g/m*3 31.2 C 0 km/h
1767 04-07-2009 17:35:52 30.6 C 6.58 g/m*3 30.6 C 0 km/h
1768 04-07-2009 17:47:51 30.4 C 7.13 g/m*3 30.4 C 0 km/h
1769 04-07-2009 17:59:51 31.5 C 6.57 g/m*3 31.5 C 0 km/h
1770 04-07-2009 18:11:51 31.2 C 6.47 g/m*3 31.2 C 0 km/h
1771 04-07-2009 18:23:50 30.6 C 6.26 g/m*3 30.6 C 0 km/h
1772 04-07-2009 18:35:51 31 C 6.4 g/m*3 31 C 0 km/h
1773 04-07-2009 18:47:50 30.3 C 6.78 g/m*3 30.3 C 0 km/h
1774 04-07-2009 18:59:50 30.6 C 6.58 g/m*3 30.6 C 0 km/h
1775 04-07-2009 19:11:50 30.5 C 7.48 g/m*3 30.5 C 0 km/h
Sensor: Nr:Datum:Temp:Abs-Feuchte:Windchill:Wind:
Aussen-T/F 1776 04-07-2009 19:23:51 30.6 C 7.2 g/m*3 30.6 C 0 km/h
1777 04-07-2009 19:35:50 30.7 C 7.24 g/m*3 30.7 C 0 km/h
1778 04-07-2009 19:47:50 31 C 7.36 g/m*3 31 C 0 km/h
1779 04-07-2009 19:59:50 31.2 C 7.12 g/m*3 31.2 C 0 km/h
1780 04-07-2009 20:11:50 30.9 C 7.32 g/m*3 30.9 C 0 km/h
1781 04-07-2009 20:23:50 30.3 C 8.01 g/m*3 30.3 C 0 km/h
1782 04-07-2009 20:35:49 30.1 C 8.84 g/m*3 30.1 C 0 km/h
1783 04-07-2009 20:47:49 29.2 C 8.71 g/m*3 29.2 C 0 km/h
1784 04-07-2009 20:59:49 28.6 C 9.27 g/m*3 28.6 C 0 km/h
1785 04-07-2009 21:11:49 27.3 C 9.42 g/m*3 27.3 C 0 km/h
1786 04-07-2009 21:23:49 25.9 C 9.68 g/m*3 25.9 C 0 km/h
1787 04-07-2009 21:35:49 25.1 C 9.49 g/m*3 25.1 C 0 km/h
1788 04-07-2009 21:47:49 24.4 C 9.35 g/m*3 24.4 C 0 km/h
1789 04-07-2009 21:59:49 24.1 C 9.41 g/m*3 24.1 C 0 km/h
1790 04-07-2009 22:11:48 24.1 C 9.41 g/m*3 24.1 C 0 km/h
1791 04-07-2009 22:23:49 23.6 C 9.57 g/m*3 23.6 C 0 km/h
1792 04-07-2009 22:35:49 23.2 C 9.77 g/m*3 23.2 C 0 km/h
1793 04-07-2009 22:47:48 23 C 9.66 g/m*3 23 C 0 km/h
1794 04-07-2009 22:59:48 22.5 C 9.79 g/m*3 22.5 C 0 km/h
1795 04-07-2009 23:12:49 22.2 C 9.62 g/m*3 22.2 C 0 km/h
1796 04-07-2009 23:24:49 21.7 C 10.3 g/m*3 21.7 C 0 km/h
1797 04-07-2009 23:36:49 21.5 C 10.18 g/m*3 21.5 C 0 km/h
1798 04-07-2009 23:48:49 21.3 C 10.25 g/m*3 21.3 C 0 km/h
1799 05-07-2009 00:00:49 20.9 C 10.38 g/m*3 20.9 C 0 km/h
1800 05-07-2009 00:12:49 20.8 C 10.5 g/m*3 20.8 C 0 km/h
Sensor: Nr:Datum:Temp:Abs-Feuchte:Windchill:Wind:
Aussen-T/F 1801 05-07-2009 00:24:49 20.7 C 10.44 g/m*3 20.7 C 0 km/h
1802 05-07-2009 00:36:49 20.5 C 10.32 g/m*3 20.5 C 0 km/h
1803 05-07-2009 00:48:49 20.3 C 10.38 g/m*3 20.3 C 0 km/h
1804 05-07-2009 01:00:49 19.9 C 10.48 g/m*3 19.9 C 0 km/h
1805 05-07-2009 01:12:49 19.7 C 10.7 g/m*3 19.7 C 0 km/h
1806 05-07-2009 01:24:49 19.3 C 10.78 g/m*3 19.3 C 0 km/h
1807 05-07-2009 01:36:49 19.3 C 10.78 g/m*3 19.3 C 0 km/h
1808 05-07-2009 01:48:49 19 C 10.92 g/m*3 19 C 0 km/h
1809 05-07-2009 02:00:49 18.8 C 11.11 g/m*3 18.8 C 0 km/h
1810 05-07-2009 02:12:49 18.6 C 11.14 g/m*3 18.6 C 0 km/h
1811 05-07-2009 02:24:49 18.5 C 11.08 g/m*3 18.5 C 0 km/h
1812 05-07-2009 02:36:49 18.5 C 11.08 g/m*3 18.5 C 0 km/h
1813 05-07-2009 02:48:49 18.4 C 11.17 g/m*3 18.4 C 0 km/h
1814 05-07-2009 03:00:50 18.4 C 11.17 g/m*3 18.4 C 0 km/h
1815 05-07-2009 03:12:50 18.1 C 10.97 g/m*3 18.1 C 0 km/h
1816 05-07-2009 03:24:50 18 C 10.91 g/m*3 18 C 0 km/h
1817 05-07-2009 03:36:50 17.9 C 11.15 g/m*3 17.9 C 0 km/h
1818 05-07-2009 03:48:50 17.7 C 11.16 g/m*3 17.7 C 0 km/h
1819 05-07-2009 04:00:50 17.6 C 11.25 g/m*3 17.6 C 0 km/h
1820 05-07-2009 04:12:50 17.5 C 11.18 g/m*3 17.5 C 0 km/h
1821 05-07-2009 04:24:50 17.4 C 11.12 g/m*3 17.4 C 0 km/h
1822 05-07-2009 04:36:50 17.2 C 10.98 g/m*3 17.2 C 0 km/h
1823 05-07-2009 04:48:50 17.2 C 10.98 g/m*3 17.2 C 0 km/h
1824 05-07-2009 05:00:50 17.2 C 11.13 g/m*3 17.2 C 0 km/h
1825 05-07-2009 05:12:50 16.9 C 11.08 g/m*3 16.9 C 0 km/h
Sensor: Nr:Datum:Temp:Abs-Feuchte:Windchill:Wind:
Aussen-T/F 1826 05-07-2009 05:24:50 16.8 C 11.01 g/m*3 16.8 C 0 km/h
1827 05-07-2009 05:36:50 16.8 C 11.15 g/m*3 16.8 C 0 km/h
1828 05-07-2009 05:48:49 16.9 C 11.22 g/m*3 16.9 C 0 km/h
1829 05-07-2009 06:00:49 17.3 C 11.34 g/m*3 17.3 C 0 km/h
1830 05-07-2009 06:12:49 17.3 C 11.2 g/m*3 17.3 C 0 km/h
1831 05-07-2009 06:24:48 17.4 C 11.26 g/m*3 17.4 C 0 km/h
1832 05-07-2009 06:36:48 17.4 C 11.26 g/m*3 17.4 C 0 km/h
1833 05-07-2009 06:48:49 17.4 C 11.26 g/m*3 17.4 C 0 km/h
1834 05-07-2009 07:00:02 17.5 C 11.33 g/m*3 17.5 C 0 km/h
1835 05-07-2009 07:12:02 17.8 C 11.54 g/m*3 17.8 C 0 km/h
1836 05-07-2009 07:24:02 17.7 C 11.47 g/m*3 17.7 C 0 km/h
1837 05-07-2009 07:36:02 17.9 C 11.45 g/m*3 17.9 C 0 km/h
1838 05-07-2009 07:48:02 18 C 11.21 g/m*3 18 C 0 km/h
1839 05-07-2009 08:00:02 18.5 C 11.55 g/m*3 18.5 C 0 km/h
1840 05-07-2009 08:12:01 19.2 C 11.54 g/m*3 19.2 C 0 km/h
1841 05-07-2009 08:24:02 19.7 C 11.38 g/m*3 19.7 C 0 km/h
1842 05-07-2009 08:36:02 20.4 C 11.32 g/m*3 20.4 C 0 km/h
1843 05-07-2009 08:48:01 21.1 C 11.24 g/m*3 21.1 C 0 km/h
1844 05-07-2009 09:00:01 21.9 C 11.39 g/m*3 21.9 C 0 km/h
1845 05-07-2009 09:12:01 22.2 C 11.19 g/m*3 22.2 C 0 km/h
1846 05-07-2009 09:24:02 22.7 C 11.31 g/m*3 22.7 C 0 km/h
1847 05-07-2009 09:36:01 22.8 C 11.18 g/m*3 22.8 C 0 km/h
1848 05-07-2009 09:48:01 22.9 C 11.24 g/m*3 22.9 C 0 km/h
1849 05-07-2009 10:00:01 23 C 11.3 g/m*3 23 C 0 km/h
1850 05-07-2009 10:12:00 23.2 C 11.64 g/m*3 23.2 C 0 km/h
Sensor: Nr:Datum:Temp:Abs-Feuchte:Windchill:Wind:
Aussen-T/F 1851 05-07-2009 10:24:01 23.1 C 11.58 g/m*3 23.1 C 0 km/h
1852 05-07-2009 10:36:00 22.9 C 11.65 g/m*3 22.9 C 0 km/h
1853 05-07-2009 10:48:00 23.2 C 11.43 g/m*3 23.2 C 0 km/h
1854 05-07-2009 11:00:00 23.9 C 11.25 g/m*3 23.9 C 0 km/h
1855 05-07-2009 11:12:00 24.1 C 10.94 g/m*3 24.1 C 0 km/h
1856 05-07-2009 11:24:00 24.3 C 11.06 g/m*3 24.3 C 0 km/h
1857 05-07-2009 11:36:00 24.8 C 11.15 g/m*3 24.8 C 0 km/h
1858 05-07-2009 11:48:00 24.8 C 10.93 g/m*3 24.8 C 0 km/h
1859 05-07-2009 12:00:00 25.7 C 11.25 g/m*3 25.7 C 0 km/h
1860 05-07-2009 12:12:59 26.8 C 11.2 g/m*3 26.8 C 0 km/h
1861 05-07-2009 12:24:59 26.5 C 10.76 g/m*3 26.5 C 0 km/h
1862 05-07-2009 12:36:59 27.4 C 10.52 g/m*3 27.4 C 0 km/h
1863 05-07-2009 12:48:01 28.1 C 9.84 g/m*3 28.1 C 0 km/h
1864 05-07-2009 13:00:01 28.5 C 9.22 g/m*3 28.5 C 0 km/h
1865 05-07-2009 13:12:59 29.6 C 8.9 g/m*3 29.6 C 0 km/h
1866 05-07-2009 13:24:58 29.2 C 9.29 g/m*3 29.2 C 0 km/h
1867 05-07-2009 13:36:00 29 C 8.62 g/m*3 29 C 0 km/h
1868 05-07-2009 13:48:59 30.5 C 8.72 g/m*3 30.5 C 0 km/h
1869 05-07-2009 13:59:59 30 C 8.49 g/m*3 30 C 0 km/h
1870 05-07-2009 14:11:59 30.7 C 7.87 g/m*3 30.7 C 0 km/h
1871 05-07-2009 14:24:58 30.9 C 8.59 g/m*3 30.9 C 0 km/h
1872 05-07-2009 14:36:58 31 C 8.32 g/m*3 31 C 0 km/h
1873 05-07-2009 14:48:57 31.7 C 7.97 g/m*3 31.7 C 0 km/h
1874 05-07-2009 15:00:58 30.8 C 7.28 g/m*3 30.8 C 0 km/h
1875 05-07-2009 15:12:58 31.5 C 7.56 g/m*3 31.5 C 0 km/h
Sensor: Nr:Datum:Temp:Abs-Feuchte:Windchill:Wind:
Aussen-T/F 1876 05-07-2009 15:24:57 31.9 C 7.05 g/m*3 31.9 C 0 km/h
1877 05-07-2009 15:36:57 32.1 C 7.13 g/m*3 32.1 C 0 km/h
1878 05-07-2009 15:48:57 32.7 C 7.01 g/m*3 32.7 C 0 km/h
1879 05-07-2009 16:00:57 33 C 7.12 g/m*3 33 C 0 km/h
1880 05-07-2009 16:12:57 32.1 C 6.79 g/m*3 32.1 C 0 km/h
1881 05-07-2009 16:24:02 31.5 C 6.57 g/m*3 31.5 C 0 km/h
1882 05-07-2009 16:36:02 31.5 C 6.57 g/m*3 31.5 C 0 km/h
1883 05-07-2009 16:48:01 31.2 C 8.09 g/m*3 31.2 C 0 km/h
1884 05-07-2009 17:00:01 30.9 C 8.91 g/m*3 30.9 C 0 km/h
1885 05-07-2009 17:12:02 30.6 C 7.83 g/m*3 30.6 C 0 km/h
1886 05-07-2009 17:24:01 30.4 C 9.3 g/m*3 30.4 C 0 km/h
1887 05-07-2009 17:36:01 29.8 C 9.9 g/m*3 29.8 C 0 km/h
1888 05-07-2009 17:48:01 27.9 C 8.92 g/m*3 27.9 C 0 km/h
1889 05-07-2009 18:00:01 26.6 C 9.31 g/m*3 26.6 C 0 km/h
1890 05-07-2009 18:12:01 26.9 C 9.73 g/m*3 26.9 C 0 km/h
1891 05-07-2009 18:24:01 26.9 C 9.47 g/m*3 26.9 C 0 km/h
1892 05-07-2009 18:36:00 28 C 9.52 g/m*3 28 C 0 km/h
1893 05-07-2009 18:48:01 29 C 8.9 g/m*3 29 C 0 km/h
1894 05-07-2009 19:00:01 29.2 C 9 g/m*3 29.2 C 0 km/h
1895 05-07-2009 19:12:00 30.4 C 9.3 g/m*3 30.4 C 0 km/h
1896 05-07-2009 19:24:00 30.6 C 8.46 g/m*3 30.6 C 0 km/h
1897 05-07-2009 19:36:00 29.8 C 8.4 g/m*3 29.8 C 0 km/h
1898 05-07-2009 19:48:00 30 C 8.79 g/m*3 30 C 0 km/h
1899 05-07-2009 20:00:00 30 C 9.1 g/m*3 30 C 0 km/h
1900 05-07-2009 20:12:00 29.4 C 9.1 g/m*3 29.4 C 0 km/h
Sensor: Nr:Datum:Temp:Abs-Feuchte:Windchill:Wind:
Aussen-T/F 1901 05-07-2009 20:24:59 28.9 C 9.71 g/m*3 28.9 C 0 km/h
1902 05-07-2009 20:36:00 27.5 C 10.05 g/m*3 27.5 C 0 km/h
1903 05-07-2009 20:48:59 26.9 C 10.24 g/m*3 26.9 C 0 km/h
1904 05-07-2009 20:59:59 26.5 C 10.51 g/m*3 26.5 C 0 km/h
1905 05-07-2009 21:11:59 26 C 10.23 g/m*3 26 C 0 km/h
1906 05-07-2009 21:24:59 25.4 C 10.36 g/m*3 25.4 C 0 km/h
1907 05-07-2009 21:36:59 25 C 10.36 g/m*3 25 C 0 km/h
1908 05-07-2009 21:48:58 24.6 C 10.35 g/m*3 24.6 C 0 km/h
1909 05-07-2009 22:00:59 24.3 C 10.62 g/m*3 24.3 C 0 km/h
1910 05-07-2009 22:13:00 24 C 10.66 g/m*3 24 C 0 km/h
1911 05-07-2009 22:25:59 23.8 C 10.97 g/m*3 23.8 C 0 km/h
1912 05-07-2009 22:37:59 23.7 C 10.91 g/m*3 23.7 C 0 km/h
1913 05-07-2009 22:49:59 23.4 C 10.93 g/m*3 23.4 C 0 km/h
1914 05-07-2009 23:01:59 23.4 C 11.14 g/m*3 23.4 C 0 km/h
1915 05-07-2009 23:13:59 23 C 11.3 g/m*3 23 C 0 km/h
1916 05-07-2009 23:25:59 22.2 C 12.96 g/m*3 22.2 C 0 km/h
1917 05-07-2009 23:37:59 20 C 13.48 g/m*3 20 C 0 km/h
1918 05-07-2009 23:49:59 19.8 C 14.18 g/m*3 19.8 C 0 km/h
1919 06-07-2009 00:02:00 19.3 C 14.43 g/m*3 19.3 C 0 km/h
1920 06-07-2009 00:14:00 18.8 C 14.33 g/m*3 18.8 C 0 km/h
1921 06-07-2009 00:26:00 18.5 C 14.24 g/m*3 18.5 C 0 km/h
1922 06-07-2009 00:38:00 18.4 C 14.16 g/m*3 18.4 C 0 km/h
1923 06-07-2009 00:49:00 18.7 C 14.57 g/m*3 18.7 C 0 km/h
1924 06-07-2009 01:01:00 18.5 C 14.4 g/m*3 18.5 C 0 km/h
1925 06-07-2009 01:13:00 18.6 C 14.64 g/m*3 18.6 C 0 km/h
Sensor: Nr:Datum:Temp:Abs-Feuchte:Windchill:Wind:
Aussen-T/F 1926 06-07-2009 01:25:00 18.8 C 14.82 g/m*3 18.8 C 0 km/h
1927 06-07-2009 01:37:00 18.8 C 14.82 g/m*3 18.8 C 0 km/h
1928 06-07-2009 01:49:00 18.8 C 14.82 g/m*3 18.8 C 0 km/h
1929 06-07-2009 02:01:00 18.6 C 14.64 g/m*3 18.6 C 0 km/h
1930 06-07-2009 02:13:00 18.3 C 14.23 g/m*3 18.3 C 0 km/h
1931 06-07-2009 02:25:00 18.3 C 14.23 g/m*3 18.3 C 0 km/h
1932 06-07-2009 02:37:00 18.4 C 14.16 g/m*3 18.4 C 0 km/h
1933 06-07-2009 02:49:00 18.5 C 14.24 g/m*3 18.5 C 0 km/h
1934 06-07-2009 03:01:00 18.6 C 14.17 g/m*3 18.6 C 0 km/h
1935 06-07-2009 03:13:00 18.5 C 13.77 g/m*3 18.5 C 0 km/h
1936 06-07-2009 03:25:00 18.3 C 13.6 g/m*3 18.3 C 0 km/h
1937 06-07-2009 03:37:00 18 C 13.52 g/m*3 18 C 0 km/h
1938 06-07-2009 03:49:00 17.8 C 13.66 g/m*3 17.8 C 0 km/h
1939 06-07-2009 04:01:01 17.7 C 13.58 g/m*3 17.7 C 0 km/h
1940 06-07-2009 04:13:01 17.6 C 13.5 g/m*3 17.6 C 0 km/h
1941 06-07-2009 04:25:01 17.7 C 13.58 g/m*3 17.7 C 0 km/h
1942 06-07-2009 04:37:01 17.6 C 13.5 g/m*3 17.6 C 0 km/h
1943 06-07-2009 04:49:01 17.6 C 13.5 g/m*3 17.6 C 0 km/h
1944 06-07-2009 05:01:01 17.5 C 13.42 g/m*3 17.5 C 0 km/h
1945 06-07-2009 05:13:01 17.5 C 13.42 g/m*3 17.5 C 0 km/h
1946 06-07-2009 05:25:01 17.5 C 13.27 g/m*3 17.5 C 0 km/h
1947 06-07-2009 05:37:01 17.5 C 13.12 g/m*3 17.5 C 0 km/h
1948 06-07-2009 05:49:01 17.4 C 13.04 g/m*3 17.4 C 0 km/h
1949 06-07-2009 06:01:01 17.3 C 12.96 g/m*3 17.3 C 0 km/h
1950 06-07-2009 06:13:01 17.4 C 13.04 g/m*3 17.4 C 0 km/h
Sensor: Nr:Datum:Temp:Abs-Feuchte:Windchill:Wind:
Aussen-T/F 1951 06-07-2009 06:25:01 17.4 C 13.04 g/m*3 17.4 C 0 km/h
1952 06-07-2009 06:37:01 17.3 C 12.96 g/m*3 17.3 C 0 km/h
1953 06-07-2009 06:49:01 17.4 C 13.04 g/m*3 17.4 C 0 km/h
1954 06-07-2009 07:01:59 17.7 C 13.28 g/m*3 17.7 C 0 km/h
1955 06-07-2009 07:13:59 18 C 13.36 g/m*3 18 C 0 km/h
1956 06-07-2009 07:25:59 18.7 C 13.77 g/m*3 18.7 C 0 km/h
1957 06-07-2009 07:37:59 18.6 C 13.37 g/m*3 18.6 C 0 km/h
1958 06-07-2009 07:49:58 19 C 13.53 g/m*3 19 C 0 km/h
1959 06-07-2009 08:01:59 18.6 C 12.73 g/m*3 18.6 C 0 km/h
1960 06-07-2009 08:13:59 18.7 C 12.97 g/m*3 18.7 C 0 km/h
1961 06-07-2009 08:25:58 18.7 C 12.81 g/m*3 18.7 C 0 km/h
1962 06-07-2009 08:37:58 19 C 12.71 g/m*3 19 C 0 km/h
1963 06-07-2009 08:49:58 19.7 C 13.08 g/m*3 19.7 C 0 km/h
1964 06-07-2009 09:01:58 20.5 C 12.46 g/m*3 20.5 C 0 km/h
1965 06-07-2009 09:13:58 20.8 C 11.77 g/m*3 20.8 C 0 km/h
1966 06-07-2009 09:25:58 21.1 C 11.98 g/m*3 21.1 C 0 km/h
1967 06-07-2009 09:37:57 21.2 C 11.12 g/m*3 21.2 C 0 km/h
1968 06-07-2009 09:49:58 21.9 C 11.19 g/m*3 21.9 C 0 km/h
1969 06-07-2009 10:01:57 22.6 C 10.04 g/m*3 22.6 C 0 km/h
1970 06-07-2009 10:13:57 22.8 C 10.16 g/m*3 22.8 C 0 km/h
1971 06-07-2009 10:25:57 23 C 9.45 g/m*3 23 C 0 km/h
1972 06-07-2009 10:37:57 24.1 C 10.06 g/m*3 24.1 C 0 km/h
1973 06-07-2009 10:49:57 25.2 C 9.78 g/m*3 25.2 C 0 km/h
1974 06-07-2009 11:01:56 25.3 C 8.66 g/m*3 25.3 C 0 km/h
1975 06-07-2009 11:13:56 26 C 9.74 g/m*3 26 C 0 km/h
Sensor: Nr:Datum:Temp:Abs-Feuchte:Windchill:Wind:
Aussen-T/F 1976 06-07-2009 11:25:57 25.4 C 8.95 g/m*3 25.4 C 0 km/h
1977 06-07-2009 11:37:57 26.4 C 9.21 g/m*3 26.4 C 0 km/h
1978 06-07-2009 11:49:56 26.8 C 9.16 g/m*3 26.8 C 0 km/h
1979 06-07-2009 12:01:56 28.6 C 8.71 g/m*3 28.6 C 0 km/h
1980 06-07-2009 12:13:56 27.6 C 7.45 g/m*3 27.6 C 0 km/h
1981 06-07-2009 12:25:02 26.3 C 8.66 g/m*3 26.3 C 0 km/h
1982 06-07-2009 12:37:02 24.3 C 9.52 g/m*3 24.3 C 0 km/h
1983 06-07-2009 12:49:01 21.2 C 11.12 g/m*3 21.2 C 0 km/h
1984 06-07-2009 13:01:01 21 C 11.91 g/m*3 21 C 0 km/h
1985 06-07-2009 13:13:01 22.3 C 11.26 g/m*3 22.3 C 0 km/h
1986 06-07-2009 13:25:01 24.7 C 10.41 g/m*3 24.7 C 0 km/h
1987 06-07-2009 13:37:01 25.2 C 9.78 g/m*3 25.2 C 0 km/h
1988 06-07-2009 13:49:01 25.1 C 8.57 g/m*3 25.1 C 0 km/h
1989 06-07-2009 14:01:01 26.7 C 8.86 g/m*3 26.7 C 0 km/h
1990 06-07-2009 14:13:01 26.6 C 8.05 g/m*3 26.6 C 0 km/h
1991 06-07-2009 14:25:01 26.3 C 8.66 g/m*3 26.3 C 0 km/h
1992 06-07-2009 14:37:00 26.6 C 8.81 g/m*3 26.6 C 0 km/h
1993 06-07-2009 14:49:01 27.9 C 9.2 g/m*3 27.9 C 0 km/h
1994 06-07-2009 15:01:00 28.5 C 8.94 g/m*3 28.5 C 0 km/h
1995 06-07-2009 15:13:00 28.2 C 7.97 g/m*3 28.2 C 0 km/h
1996 06-07-2009 15:25:00 28.4 C 8.34 g/m*3 28.4 C 0 km/h
1997 06-07-2009 15:37:00 29 C 7.47 g/m*3 29 C 0 km/h
1998 06-07-2009 15:49:00 29 C 6.61 g/m*3 29 C 0 km/h
1999 06-07-2009 16:01:00 29.1 C 6.64 g/m*3 29.1 C 0 km/h
2000 06-07-2009 16:13:00 28.8 C 6.82 g/m*3 28.8 C 0 km/h
Sensor: Nr:Datum:Temp:Abs-Feuchte:Windchill:Wind:
Aussen-T/F 2001 06-07-2009 16:25:59 26.5 C 7.76 g/m*3 26.5 C 0 km/h
2002 06-07-2009 16:37:00 23.6 C 8.51 g/m*3 23.6 C 0 km/h
2003 06-07-2009 16:49:59 23.9 C 8.65 g/m*3 23.9 C 0 km/h
2004 06-07-2009 17:01:59 24.8 C 8.65 g/m*3 24.8 C 0 km/h
2005 06-07-2009 17:13:59 25.5 C 8.29 g/m*3 25.5 C 0 km/h
2006 06-07-2009 17:25:59 26.5 C 8.26 g/m*3 26.5 C 0 km/h
2007 06-07-2009 17:37:59 26.8 C 8.14 g/m*3 26.8 C 0 km/h
2008 06-07-2009 17:49:58 27.5 C 7.94 g/m*3 27.5 C 0 km/h
2009 06-07-2009 18:01:58 27.4 C 8.95 g/m*3 27.4 C 0 km/h
2010 06-07-2009 18:13:58 26.7 C 8.86 g/m*3 26.7 C 0 km/h
2011 06-07-2009 18:25:59 27.6 C 9.04 g/m*3 27.6 C 0 km/h
2012 06-07-2009 18:37:58 28.1 C 8.75 g/m*3 28.1 C 0 km/h
2013 06-07-2009 18:49:58 28 C 8.43 g/m*3 28 C 0 km/h
2014 06-07-2009 19:01:58 29.3 C 8.76 g/m*3 29.3 C 0 km/h
2015 06-07-2009 19:13:58 28.6 C 8.71 g/m*3 28.6 C 0 km/h
2016 06-07-2009 19:25:58 27.9 C 9.2 g/m*3 27.9 C 0 km/h
2017 06-07-2009 19:37:58 26.8 C 9.67 g/m*3 26.8 C 0 km/h
2018 06-07-2009 19:49:57 25.2 C 8.15 g/m*3 25.2 C 0 km/h
2019 06-07-2009 20:01:58 24.4 C 8.23 g/m*3 24.4 C 0 km/h
2020 06-07-2009 20:13:58 23.7 C 8.13 g/m*3 23.7 C 0 km/h
2021 06-07-2009 20:25:57 23.3 C 8.78 g/m*3 23.3 C 0 km/h
2022 06-07-2009 20:37:57 21.3 C 9.69 g/m*3 21.3 C 0 km/h
2023 06-07-2009 20:49:57 19.9 C 11.51 g/m*3 19.9 C 0 km/h
2024 06-07-2009 21:01:56 18.6 C 11.62 g/m*3 18.6 C 0 km/h
2025 06-07-2009 21:13:56 18.5 C 12.34 g/m*3 18.5 C 0 km/h
Sensor: Nr:Datum:Temp:Abs-Feuchte:Windchill:Wind:
Aussen-T/F 2026 06-07-2009 21:25:57 18.4 C 12.27 g/m*3 18.4 C 0 km/h
2027 06-07-2009 21:37:57 18.5 C 12.18 g/m*3 18.5 C 0 km/h
2028 06-07-2009 21:49:56 18.8 C 11.76 g/m*3 18.8 C 0 km/h
2029 06-07-2009 22:01:57 18.4 C 11.8 g/m*3 18.4 C 0 km/h
2030 06-07-2009 22:13:57 18.2 C 11.35 g/m*3 18.2 C 0 km/h
2031 06-07-2009 22:25:56 18 C 11.21 g/m*3 18 C 0 km/h
2032 06-07-2009 22:37:56 17.9 C 11.45 g/m*3 17.9 C 0 km/h
2033 06-07-2009 22:49:56 17.5 C 11.48 g/m*3 17.5 C 0 km/h
2034 06-07-2009 23:01:56 17.4 C 11.41 g/m*3 17.4 C 0 km/h
2035 06-07-2009 23:13:56 17.5 C 11.48 g/m*3 17.5 C 0 km/h
2036 06-07-2009 23:26:56 17.9 C 11.3 g/m*3 17.9 C 0 km/h
2037 06-07-2009 23:38:56 18 C 11.21 g/m*3 18 C 0 km/h
2038 06-07-2009 23:50:56 17.8 C 11.69 g/m*3 17.8 C 0 km/h
2039 07-07-2009 00:02:56 17.5 C 11.93 g/m*3 17.5 C 0 km/h
2040 07-07-2009 00:14:56 17.5 C 11.93 g/m*3 17.5 C 0 km/h
2041 07-07-2009 00:26:56 17.5 C 11.93 g/m*3 17.5 C 0 km/h
2042 07-07-2009 00:38:56 17.5 C 11.78 g/m*3 17.5 C 0 km/h
2043 07-07-2009 00:50:56 17.5 C 11.78 g/m*3 17.5 C 0 km/h
2044 07-07-2009 01:02:56 17.6 C 11.85 g/m*3 17.6 C 0 km/h
2045 07-07-2009 01:14:56 17.6 C 11.7 g/m*3 17.6 C 0 km/h
2046 07-07-2009 01:26:56 17.6 C 11.7 g/m*3 17.6 C 0 km/h
2047 07-07-2009 01:38:57 17.7 C 11.62 g/m*3 17.7 C 0 km/h
2048 07-07-2009 01:50:57 17.5 C 11.48 g/m*3 17.5 C 0 km/h
2049 07-07-2009 02:02:57 17.3 C 11.34 g/m*3 17.3 C 0 km/h
2050 07-07-2009 02:14:57 17.2 C 11.42 g/m*3 17.2 C 0 km/h
Sensor: Nr:Datum:Temp:Abs-Feuchte:Windchill:Wind:
Aussen-T/F 2051 07-07-2009 02:26:57 16.8 C 11.29 g/m*3 16.8 C 0 km/h
2052 07-07-2009 02:38:57 16.8 C 11.58 g/m*3 16.8 C 0 km/h
2053 07-07-2009 02:50:57 16.8 C 11.72 g/m*3 16.8 C 0 km/h
2054 07-07-2009 03:02:57 16.8 C 11.58 g/m*3 16.8 C 0 km/h
2055 07-07-2009 03:14:57 16.8 C 11.58 g/m*3 16.8 C 0 km/h
2056 07-07-2009 03:26:57 16.8 C 11.58 g/m*3 16.8 C 0 km/h
2057 07-07-2009 03:38:57 16.8 C 11.72 g/m*3 16.8 C 0 km/h
2058 07-07-2009 03:50:57 16.7 C 11.65 g/m*3 16.7 C 0 km/h
2059 07-07-2009 04:02:57 16.8 C 11.72 g/m*3 16.8 C 0 km/h
2060 07-07-2009 04:14:57 16.8 C 11.72 g/m*3 16.8 C 0 km/h
2061 07-07-2009 04:26:57 16.7 C 11.65 g/m*3 16.7 C 0 km/h
2062 07-07-2009 04:38:57 16.6 C 11.44 g/m*3 16.6 C 0 km/h
2063 07-07-2009 04:50:57 16.2 C 11.31 g/m*3 16.2 C 0 km/h
2064 07-07-2009 05:02:57 16 C 11.17 g/m*3 16 C 0 km/h
2065 07-07-2009 05:14:57 16 C 11.31 g/m*3 16 C 0 km/h
2066 07-07-2009 05:26:58 16.1 C 11.65 g/m*3 16.1 C 0 km/h
2067 07-07-2009 05:38:58 16.1 C 11.51 g/m*3 16.1 C 0 km/h
2068 07-07-2009 05:50:58 16 C 11.44 g/m*3 16 C 0 km/h
2069 07-07-2009 06:02:58 16 C 11.44 g/m*3 16 C 0 km/h
2070 07-07-2009 06:14:58 15.9 C 11.38 g/m*3 15.9 C 0 km/h
2071 07-07-2009 06:26:58 16 C 11.31 g/m*3 16 C 0 km/h
2072 07-07-2009 06:38:58 16.2 C 11.31 g/m*3 16.2 C 0 km/h
2073 07-07-2009 06:50:56 16.4 C 11.31 g/m*3 16.4 C 0 km/h
2074 07-07-2009 07:02:57 16.4 C 11.31 g/m*3 16.4 C 0 km/h
2075 07-07-2009 07:14:56 16.6 C 11.44 g/m*3 16.6 C 0 km/h
Sensor: Nr:Datum:Temp:Abs-Feuchte:Windchill:Wind:
Aussen-T/F 2076 07-07-2009 07:26:56 16.2 C 11.31 g/m*3 16.2 C 0 km/h
2077 07-07-2009 07:38:56 16 C 11.44 g/m*3 16 C 0 km/h
2078 07-07-2009 07:50:56 16 C 11.44 g/m*3 16 C 0 km/h
2079 07-07-2009 08:02:56 16.4 C 11.72 g/m*3 16.4 C 0 km/h
2080 07-07-2009 08:14:56 17 C 11.72 g/m*3 17 C 0 km/h
2081 07-07-2009 08:26:56 17.5 C 11.48 g/m*3 17.5 C 0 km/h
2082 07-07-2009 08:38:55 17.7 C 11.62 g/m*3 17.7 C 0 km/h
2083 07-07-2009 08:50:55 17.7 C 11.01 g/m*3 17.7 C 0 km/h
2084 07-07-2009 09:02:55 17.9 C 10.99 g/m*3 17.9 C 0 km/h
2085 07-07-2009 09:14:55 17.3 C 10.75 g/m*3 17.3 C 0 km/h
2086 07-07-2009 09:26:55 17.4 C 10.97 g/m*3 17.4 C 0 km/h
2087 07-07-2009 09:38:55 18 C 10.75 g/m*3 18 C 0 km/h
2088 07-07-2009 09:50:55 18.4 C 10.54 g/m*3 18.4 C 0 km/h
2089 07-07-2009 10:02:55 18.2 C 10.1 g/m*3 18.2 C 0 km/h
2090 07-07-2009 10:14:54 17.9 C 10.38 g/m*3 17.9 C 0 km/h
2091 07-07-2009 10:26:54 18.2 C 10.1 g/m*3 18.2 C 0 km/h
2092 07-07-2009 10:38:54 18 C 9.68 g/m*3 18 C 0 km/h
2093 07-07-2009 10:50:54 18.6 C 9.87 g/m*3 18.6 C 0 km/h
2094 07-07-2009 11:02:54 19.1 C 9.84 g/m*3 19.1 C 0 km/h
2095 07-07-2009 11:14:53 19.7 C 9.68 g/m*3 19.7 C 0 km/h
2096 07-07-2009 11:26:53 20.1 C 9.39 g/m*3 20.1 C 0 km/h
2097 07-07-2009 11:38:54 20.7 C 9 g/m*3 20.7 C 0 km/h
2098 07-07-2009 11:50:53 20.2 C 9.09 g/m*3 20.2 C 0 km/h
2099 07-07-2009 12:02:53 20.5 C 8.54 g/m*3 20.5 C 0 km/h
2100 07-07-2009 12:14:54 20 C 8.64 g/m*3 20 C 0 km/h
Sensor: Nr:Datum:Temp:Abs-Feuchte:Windchill:Wind:
Aussen-T/F 2101 07-07-2009 12:26:54 18.8 C 9.99 g/m*3 18.8 C 0 km/h
2102 07-07-2009 12:38:53 19.1 C 10.33 g/m*3 19.1 C 0 km/h
2103 07-07-2009 12:50:53 19.9 C 9.62 g/m*3 19.9 C 0 km/h
2104 07-07-2009 13:02:52 20.5 C 9.07 g/m*3 20.5 C 0 km/h
2105 07-07-2009 13:14:53 22.4 C 8.34 g/m*3 22.4 C 0 km/h
2106 07-07-2009 13:26:53 23 C 7.6 g/m*3 23 C 0 km/h
2107 07-07-2009 13:38:53 22.8 C 8.13 g/m*3 22.8 C 0 km/h
2108 07-07-2009 13:50:52 23.5 C 7.4 g/m*3 23.5 C 0 km/h
2109 07-07-2009 14:02:53 22.5 C 7.39 g/m*3 22.5 C 0 km/h
2110 07-07-2009 14:14:52 23.2 C 6.65 g/m*3 23.2 C 0 km/h
2111 07-07-2009 14:26:52 23.3 C 7.11 g/m*3 23.3 C 0 km/h
2112 07-07-2009 14:38:52 23.3 C 7.32 g/m*3 23.3 C 0 km/h
2113 07-07-2009 14:50:52 23.5 C 7.19 g/m*3 23.5 C 0 km/h
2114 07-07-2009 15:02:52 24 C 6.96 g/m*3 24 C 0 km/h
2115 07-07-2009 15:14:51 23.9 C 6.92 g/m*3 23.9 C 0 km/h
2116 07-07-2009 15:26:51 23.3 C 6.27 g/m*3 23.3 C 0 km/h
2117 07-07-2009 15:38:51 23.1 C 6.82 g/m*3 23.1 C 0 km/h
2118 07-07-2009 15:50:51 23.5 C 6.77 g/m*3 23.5 C 0 km/h
2119 07-07-2009 16:02:51 23.3 C 6.48 g/m*3 23.3 C 0 km/h
2120 07-07-2009 16:14:51 21.7 C 6.29 g/m*3 21.7 C 0 km/h
2121 07-07-2009 16:26:51 21.5 C 6.6 g/m*3 21.5 C 0 km/h
2122 07-07-2009 16:38:51 22 C 6.79 g/m*3 22 C 0 km/h
2123 07-07-2009 16:50:51 23.5 C 6.56 g/m*3 23.5 C 0 km/h
2124 07-07-2009 17:02:50 24.3 C 6.2 g/m*3 24.3 C 0 km/h
2125 07-07-2009 17:14:50 24.4 C 6.68 g/m*3 24.4 C 0 km/h
Sensor: Nr:Datum:Temp:Abs-Feuchte:Windchill:Wind:
Aussen-T/F 2126 07-07-2009 17:26:50 24.3 C 6.64 g/m*3 24.3 C 0 km/h
2127 07-07-2009 17:38:51 24.9 C 6.87 g/m*3 24.9 C 0 km/h
2128 07-07-2009 17:50:50 25.2 C 6.98 g/m*3 25.2 C 0 km/h
2129 07-07-2009 18:02:50 23 C 6.99 g/m*3 23 C 0 km/h
2130 07-07-2009 18:14:50 22.2 C 6.87 g/m*3 22.2 C 0 km/h
2131 07-07-2009 18:26:50 23.8 C 7.31 g/m*3 23.8 C 0 km/h
2132 07-07-2009 18:38:50 23.8 C 6.88 g/m*3 23.8 C 0 km/h
2133 07-07-2009 18:50:49 23.2 C 7.07 g/m*3 23.2 C 0 km/h
2134 07-07-2009 19:02:50 24.4 C 6.9 g/m*3 24.4 C 0 km/h
2135 07-07-2009 19:14:49 24.1 C 6.78 g/m*3 24.1 C 0 km/h
2136 07-07-2009 19:26:49 23.7 C 6.84 g/m*3 23.7 C 0 km/h
2137 07-07-2009 19:38:49 22.7 C 7.07 g/m*3 22.7 C 0 km/h
2138 07-07-2009 19:50:48 21.6 C 7.4 g/m*3 21.6 C 0 km/h
2139 07-07-2009 20:02:49 18.1 C 7.26 g/m*3 18.1 C 0 km/h
2140 07-07-2009 20:14:49 15.6 C 10.37 g/m*3 15.6 C 0 km/h
2141 07-07-2009 20:26:49 15.4 C 10.64 g/m*3 15.4 C 0 km/h
2142 07-07-2009 20:38:48 15.6 C 10.64 g/m*3 15.6 C 0 km/h
2143 07-07-2009 20:50:49 16.2 C 10.62 g/m*3 16.2 C 0 km/h
2144 07-07-2009 21:02:48 16.5 C 10.81 g/m*3 16.5 C 0 km/h
2145 07-07-2009 21:14:48 16.4 C 10.33 g/m*3 16.4 C 0 km/h
2146 07-07-2009 21:26:48 16.1 C 10.14 g/m*3 16.1 C 0 km/h
2147 07-07-2009 21:38:48 15.8 C 9.83 g/m*3 15.8 C 0 km/h
2148 07-07-2009 21:50:48 15.5 C 9.78 g/m*3 15.5 C 0 km/h
2149 07-07-2009 22:02:47 15 C 9.49 g/m*3 15 C 0 km/h
2150 07-07-2009 22:14:47 14.8 C 9.5 g/m*3 14.8 C 0 km/h
Sensor: Nr:Datum:Temp:Abs-Feuchte:Windchill:Wind:
Aussen-T/F 2151 07-07-2009 22:26:47 14.7 C 9.44 g/m*3 14.7 C 0 km/h
2152 07-07-2009 22:38:48 14.4 C 9.39 g/m*3 14.4 C 0 km/h
2153 07-07-2009 22:50:47 14.1 C 9.22 g/m*3 14.1 C 0 km/h
2154 07-07-2009 23:03:49 14 C 9.29 g/m*3 14 C 0 km/h
2155 07-07-2009 23:15:49 14 C 9.41 g/m*3 14 C 0 km/h
2156 07-07-2009 23:27:49 14.1 C 9.47 g/m*3 14.1 C 0 km/h
2157 07-07-2009 23:39:49 14.1 C 9.47 g/m*3 14.1 C 0 km/h
2158 07-07-2009 23:51:49 14.1 C 9.47 g/m*3 14.1 C 0 km/h
2159 08-07-2009 00:03:49 14.3 C 9.46 g/m*3 14.3 C 0 km/h
2160 08-07-2009 00:15:49 14.4 C 9.39 g/m*3 14.4 C 0 km/h
2161 08-07-2009 00:27:49 14.4 C 9.27 g/m*3 14.4 C 0 km/h
2162 08-07-2009 00:39:49 14.5 C 9.33 g/m*3 14.5 C 0 km/h
2163 08-07-2009 00:51:49 14.7 C 9.32 g/m*3 14.7 C 0 km/h
2164 08-07-2009 01:03:50 14.7 C 9.57 g/m*3 14.7 C 0 km/h
2165 08-07-2009 01:15:50 14.5 C 9.58 g/m*3 14.5 C 0 km/h
2166 08-07-2009 01:27:50 14.8 C 9.63 g/m*3 14.8 C 0 km/h
2167 08-07-2009 01:39:50 14.8 C 9.5 g/m*3 14.8 C 0 km/h
2168 08-07-2009 01:51:50 14.9 C 9.43 g/m*3 14.9 C 0 km/h
2169 08-07-2009 02:03:50 15 C 9.23 g/m*3 15 C 0 km/h
2170 08-07-2009 02:15:50 15 C 9.1 g/m*3 15 C 0 km/h
2171 08-07-2009 02:27:50 15.1 C 9.16 g/m*3 15.1 C 0 km/h
2172 08-07-2009 02:39:50 15.2 C 9.22 g/m*3 15.2 C 0 km/h
2173 08-07-2009 02:51:50 15.2 C 9.22 g/m*3 15.2 C 0 km/h
2174 08-07-2009 03:03:50 15.1 C 9.29 g/m*3 15.1 C 0 km/h
2175 08-07-2009 03:15:50 14.4 C 9.77 g/m*3 14.4 C 0 km/h
Sensor: Nr:Datum:Temp:Abs-Feuchte:Windchill:Wind:
Aussen-T/F 2176 08-07-2009 03:27:50 14.5 C 10.07 g/m*3 14.5 C 0 km/h
2177 08-07-2009 03:39:50 14.5 C 10.07 g/m*3 14.5 C 0 km/h
2178 08-07-2009 03:51:50 14.5 C 10.07 g/m*3 14.5 C 0 km/h
2179 08-07-2009 04:03:50 14.2 C 10.01 g/m*3 14.2 C 0 km/h
2180 08-07-2009 04:15:50 14 C 10.13 g/m*3 14 C 0 km/h
2181 08-07-2009 04:27:50 13.9 C 10.19 g/m*3 13.9 C 0 km/h
2182 08-07-2009 04:39:50 14 C 10.25 g/m*3 14 C 0 km/h
2183 08-07-2009 04:51:51 13.7 C 10.3 g/m*3 13.7 C 0 km/h
2184 08-07-2009 05:03:51 13.6 C 10.36 g/m*3 13.6 C 0 km/h
2185 08-07-2009 05:15:51 13.7 C 10.42 g/m*3 13.7 C 0 km/h
2186 08-07-2009 05:27:51 13.9 C 10.43 g/m*3 13.9 C 0 km/h
2187 08-07-2009 05:39:51 14 C 10.13 g/m*3 14 C 0 km/h
2188 08-07-2009 05:51:51 14 C 10.13 g/m*3 14 C 0 km/h
2189 08-07-2009 06:03:51 13.8 C 10.13 g/m*3 13.8 C 0 km/h
2190 08-07-2009 06:15:51 13.7 C 10.3 g/m*3 13.7 C 0 km/h
2191 08-07-2009 06:27:51 13.6 C 10.36 g/m*3 13.6 C 0 km/h
2192 08-07-2009 06:39:51 13.7 C 10.3 g/m*3 13.7 C 0 km/h
2193 08-07-2009 06:51:51 14 C 10.49 g/m*3 14 C 0 km/h
2194 08-07-2009 07:03:49 14.2 C 10.5 g/m*3 14.2 C 0 km/h
2195 08-07-2009 07:15:48 14.4 C 10.38 g/m*3 14.4 C 0 km/h
2196 08-07-2009 07:27:48 14.6 C 10.26 g/m*3 14.6 C 0 km/h
2197 08-07-2009 07:39:49 14.7 C 10.2 g/m*3 14.7 C 0 km/h
2198 08-07-2009 07:51:49 14.9 C 10.2 g/m*3 14.9 C 0 km/h
2199 08-07-2009 08:03:49 15.2 C 10.38 g/m*3 15.2 C 0 km/h
2200 08-07-2009 08:15:48 15.2 C 10.25 g/m*3 15.2 C 0 km/h
Sensor: Nr:Datum:Temp:Abs-Feuchte:Windchill:Wind:
Aussen-T/F 2201 08-07-2009 08:27:48 15.2 C 10.25 g/m*3 15.2 C 0 km/h
2202 08-07-2009 08:39:48 14.9 C 10.45 g/m*3 14.9 C 0 km/h
2203 08-07-2009 08:51:48 15 C 10.39 g/m*3 15 C 0 km/h
2204 08-07-2009 09:03:48 15 C 10.51 g/m*3 15 C 0 km/h
2205 08-07-2009 09:15:47 16 C 10.63 g/m*3 16 C 0 km/h
2206 08-07-2009 09:27:47 16.6 C 10.59 g/m*3 16.6 C 0 km/h
2207 08-07-2009 09:39:48 17 C 10.56 g/m*3 17 C 0 km/h
2208 08-07-2009 09:51:47 17 C 10.13 g/m*3 17 C 0 km/h
2209 08-07-2009 10:03:47 16.7 C 10.09 g/m*3 16.7 C 0 km/h
2210 08-07-2009 10:15:47 17.2 C 9.81 g/m*3 17.2 C 0 km/h
2211 08-07-2009 10:27:47 16.8 C 9.87 g/m*3 16.8 C 0 km/h
2212 08-07-2009 10:39:47 16.4 C 10.05 g/m*3 16.4 C 0 km/h
2213 08-07-2009 10:51:47 16.6 C 10.31 g/m*3 16.6 C 0 km/h
2214 08-07-2009 11:03:46 17 C 10.56 g/m*3 17 C 0 km/h
2215 08-07-2009 11:15:47 18.1 C 10.2 g/m*3 18.1 C 0 km/h
2216 08-07-2009 11:27:47 18.5 C 9.97 g/m*3 18.5 C 0 km/h
2217 08-07-2009 11:39:47 18.1 C 10.51 g/m*3 18.1 C 0 km/h
2218 08-07-2009 11:51:46 19.2 C 10.06 g/m*3 19.2 C 0 km/h
2219 08-07-2009 12:03:46 18.7 C 9.77 g/m*3 18.7 C 0 km/h
2220 08-07-2009 12:15:46 20 C 9.85 g/m*3 20 C 0 km/h
2221 08-07-2009 12:27:46 22 C 9.12 g/m*3 22 C 0 km/h
2222 08-07-2009 12:39:46 21.4 C 8.81 g/m*3 21.4 C 0 km/h
2223 08-07-2009 12:51:45 21.5 C 8.49 g/m*3 21.5 C 0 km/h
2224 08-07-2009 13:03:46 22 C 8.15 g/m*3 22 C 0 km/h
2225 08-07-2009 13:15:45 22.7 C 7.88 g/m*3 22.7 C 0 km/h
Sensor: Nr:Datum:Temp:Abs-Feuchte:Windchill:Wind:
Aussen-T/F 2226 08-07-2009 13:27:45 17 C 6.8 g/m*3 17 C 0 km/h
2227 08-07-2009 13:39:45 14.7 C 10.07 g/m*3 14.7 C 0 km/h
2228 08-07-2009 13:51:45 15.4 C 10.77 g/m*3 15.4 C 0 km/h
2229 08-07-2009 14:03:45 15.9 C 10.56 g/m*3 15.9 C 0 km/h
2230 08-07-2009 14:15:45 16.5 C 10.53 g/m*3 16.5 C 0 km/h
2231 08-07-2009 14:27:45 16.8 C 10.44 g/m*3 16.8 C 0 km/h
2232 08-07-2009 14:39:44 16.7 C 11.08 g/m*3 16.7 C 0 km/h
2233 08-07-2009 14:51:45 17.7 C 11.32 g/m*3 17.7 C 0 km/h
2234 08-07-2009 15:03:44 17.7 C 10.71 g/m*3 17.7 C 0 km/h
2235 08-07-2009 15:15:44 16.8 C 10.29 g/m*3 16.8 C 0 km/h
2236 08-07-2009 15:27:44 16.2 C 10.2 g/m*3 16.2 C 0 km/h
2237 08-07-2009 15:39:45 17.9 C 10.38 g/m*3 17.9 C 0 km/h
2238 08-07-2009 15:51:44 19 C 9.29 g/m*3 19 C 0 km/h
2239 08-07-2009 16:03:44 20 C 9.51 g/m*3 20 C 0 km/h
2240 08-07-2009 16:15:43 20.4 C 9.2 g/m*3 20.4 C 0 km/h
2241 08-07-2009 16:27:43 19.6 C 8.44 g/m*3 19.6 C 0 km/h
2242 08-07-2009 16:39:44 19.5 C 7.55 g/m*3 19.5 C 0 km/h
2243 08-07-2009 16:51:43 19.7 C 7.81 g/m*3 19.7 C 0 km/h
2244 08-07-2009 17:03:43 19.5 C 8.22 g/m*3 19.5 C 0 km/h
2245 08-07-2009 17:15:43 19 C 8.96 g/m*3 19 C 0 km/h
2246 08-07-2009 17:27:43 18.7 C 9.45 g/m*3 18.7 C 0 km/h
2247 08-07-2009 17:39:43 18.4 C 7.55 g/m*3 18.4 C 0 km/h
2248 08-07-2009 17:51:43 18.3 C 7.82 g/m*3 18.3 C 0 km/h
2249 08-07-2009 18:03:42 18.1 C 7.88 g/m*3 18.1 C 0 km/h
2250 08-07-2009 18:15:43 17.7 C 8.3 g/m*3 17.7 C 0 km/h
Sensor: Nr:Datum:Temp:Abs-Feuchte:Windchill:Wind:
Aussen-T/F 2251 08-07-2009 18:27:43 17.7 C 8.15 g/m*3 17.7 C 0 km/h
2252 08-07-2009 18:39:42 17.7 C 8.3 g/m*3 17.7 C 0 km/h
2253 08-07-2009 18:51:42 17.5 C 8.05 g/m*3 17.5 C 0 km/h
2254 08-07-2009 19:03:42 17.3 C 8.1 g/m*3 17.3 C 0 km/h
2255 08-07-2009 19:15:42 17.2 C 8.35 g/m*3 17.2 C 0 km/h
2256 08-07-2009 19:27:42 17 C 8.39 g/m*3 17 C 0 km/h
2257 08-07-2009 19:39:42 17.2 C 8.2 g/m*3 17.2 C 0 km/h
2258 08-07-2009 19:51:42 17.1 C 8.3 g/m*3 17.1 C 0 km/h
2259 08-07-2009 20:03:42 17 C 8.25 g/m*3 17 C 0 km/h
2260 08-07-2009 20:15:41 16.8 C 8.58 g/m*3 16.8 C 0 km/h
2261 08-07-2009 20:27:41 16.8 C 8.72 g/m*3 16.8 C 0 km/h
2262 08-07-2009 20:39:41 16.7 C 8.67 g/m*3 16.7 C 0 km/h
2263 08-07-2009 20:51:41 16.6 C 8.76 g/m*3 16.6 C 0 km/h
2264 08-07-2009 21:03:41 16.5 C 8.85 g/m*3 16.5 C 0 km/h
2265 08-07-2009 21:15:40 16.5 C 8.71 g/m*3 16.5 C 0 km/h
2266 08-07-2009 21:27:40 16.5 C 8.71 g/m*3 16.5 C 0 km/h
2267 08-07-2009 21:39:41 16.4 C 8.51 g/m*3 16.4 C 0 km/h
2268 08-07-2009 21:51:40 16.4 C 8.65 g/m*3 16.4 C 0 km/h
2269 08-07-2009 22:03:40 16.3 C 8.74 g/m*3 16.3 C 0 km/h
2270 08-07-2009 22:15:40 16.2 C 8.83 g/m*3 16.2 C 0 km/h
2271 08-07-2009 22:27:40 16.1 C 8.91 g/m*3 16.1 C 0 km/h
2272 08-07-2009 22:39:40 16 C 8.99 g/m*3 16 C 0 km/h
2273 08-07-2009 22:52:41 15.9 C 9.07 g/m*3 15.9 C 0 km/h
2274 08-07-2009 23:04:41 15.9 C 9.21 g/m*3 15.9 C 0 km/h
2275 08-07-2009 23:16:41 15.9 C 9.21 g/m*3 15.9 C 0 km/h
Sensor: Nr:Datum:Temp:Abs-Feuchte:Windchill:Wind:
Aussen-T/F 2276 08-07-2009 23:28:41 15.8 C 9.15 g/m*3 15.8 C 0 km/h
2277 08-07-2009 23:40:41 15.8 C 8.88 g/m*3 15.8 C 0 km/h
2278 08-07-2009 23:52:41 15.7 C 8.83 g/m*3 15.7 C 0 km/h
2279 09-07-2009 00:04:41 15.6 C 8.78 g/m*3 15.6 C 0 km/h
2280 09-07-2009 00:16:41 15.6 C 8.78 g/m*3 15.6 C 0 km/h
2281 09-07-2009 00:28:41 15.6 C 8.78 g/m*3 15.6 C 0 km/h
2282 09-07-2009 00:40:41 15.5 C 8.99 g/m*3 15.5 C 0 km/h
2283 09-07-2009 00:52:41 15.2 C 9.22 g/m*3 15.2 C 0 km/h
2284 09-07-2009 01:04:41 14.8 C 9.5 g/m*3 14.8 C 0 km/h
2285 09-07-2009 01:16:41 14.8 C 9.88 g/m*3 14.8 C 0 km/h
2286 09-07-2009 01:28:42 14.5 C 9.83 g/m*3 14.5 C 0 km/h
2287 09-07-2009 01:40:42 14.3 C 9.58 g/m*3 14.3 C 0 km/h
2288 09-07-2009 01:52:42 13.8 C 9.53 g/m*3 13.8 C 0 km/h
2289 09-07-2009 02:04:42 13.5 C 9.59 g/m*3 13.5 C 0 km/h
2290 09-07-2009 02:16:42 13.2 C 9.53 g/m*3 13.2 C 0 km/h
2291 09-07-2009 02:28:42 13.3 C 9.47 g/m*3 13.3 C 0 km/h
2292 09-07-2009 02:40:42 13.5 C 9.36 g/m*3 13.5 C 0 km/h
2293 09-07-2009 02:52:42 13.4 C 9.3 g/m*3 13.4 C 0 km/h
2294 09-07-2009 03:04:42 13.4 C 9.42 g/m*3 13.4 C 0 km/h
2295 09-07-2009 03:16:42 13.4 C 9.53 g/m*3 13.4 C 0 km/h
2296 09-07-2009 03:28:42 13.4 C 9.53 g/m*3 13.4 C 0 km/h
2297 09-07-2009 03:40:42 13.5 C 9.59 g/m*3 13.5 C 0 km/h
2298 09-07-2009 03:52:42 13.5 C 9.71 g/m*3 13.5 C 0 km/h
2299 09-07-2009 04:04:42 13.4 C 9.53 g/m*3 13.4 C 0 km/h
2300 09-07-2009 04:16:42 13.4 C 9.53 g/m*3 13.4 C 0 km/h
Sensor: Nr:Datum:Temp:Abs-Feuchte:Windchill:Wind:
Aussen-T/F 2301 09-07-2009 04:28:42 13.4 C 9.53 g/m*3 13.4 C 0 km/h
2302 09-07-2009 04:40:42 13.3 C 9.47 g/m*3 13.3 C 0 km/h
2303 09-07-2009 04:52:42 13.2 C 9.42 g/m*3 13.2 C 0 km/h
2304 09-07-2009 05:04:42 13.2 C 9.3 g/m*3 13.2 C 0 km/h
2305 09-07-2009 05:16:42 13.2 C 9.07 g/m*3 13.2 C 0 km/h
2306 09-07-2009 05:28:42 13.1 C 8.9 g/m*3 13.1 C 0 km/h
2307 09-07-2009 05:40:43 13.1 C 8.9 g/m*3 13.1 C 0 km/h
2308 09-07-2009 05:52:43 13.1 C 8.67 g/m*3 13.1 C 0 km/h
2309 09-07-2009 06:04:43 13.1 C 8.44 g/m*3 13.1 C 0 km/h
2310 09-07-2009 06:16:43 13.2 C 8.38 g/m*3 13.2 C 0 km/h
2311 09-07-2009 06:28:43 13.2 C 8.38 g/m*3 13.2 C 0 km/h
2312 09-07-2009 06:40:43 13.3 C 8.43 g/m*3 13.3 C 0 km/h
2313 09-07-2009 06:52:43 13.4 C 8.37 g/m*3 13.4 C 0 km/h
2314 09-07-2009 07:04:40 13.5 C 8.54 g/m*3 13.5 C 0 km/h
2315 09-07-2009 07:16:41 13.7 C 8.76 g/m*3 13.7 C 0 km/h
2316 09-07-2009 07:28:41 13.6 C 8.71 g/m*3 13.6 C 0 km/h
2317 09-07-2009 07:40:40 13.5 C 8.66 g/m*3 13.5 C 0 km/h
2318 09-07-2009 07:52:40 13.6 C 8.83 g/m*3 13.6 C 0 km/h
2319 09-07-2009 08:04:40 13.9 C 8.99 g/m*3 13.9 C 0 km/h
2320 09-07-2009 08:16:40 14.3 C 9.09 g/m*3 14.3 C 0 km/h
2321 09-07-2009 08:28:40 14.7 C 9.07 g/m*3 14.7 C 0 km/h
2322 09-07-2009 08:40:39 15.1 C 8.9 g/m*3 15.1 C 0 km/h
2323 09-07-2009 08:52:40 15.2 C 8.83 g/m*3 15.2 C 0 km/h
2324 09-07-2009 09:04:39 15.1 C 8.64 g/m*3 15.1 C 0 km/h
2325 09-07-2009 09:16:39 14.4 C 8.78 g/m*3 14.4 C 0 km/h
Sensor: Nr:Datum:Temp:Abs-Feuchte:Windchill:Wind:
Aussen-T/F 2326 09-07-2009 09:28:39 14.1 C 8.74 g/m*3 14.1 C 0 km/h
2327 09-07-2009 09:40:39 14.2 C 8.67 g/m*3 14.2 C 0 km/h
2328 09-07-2009 09:52:39 14.8 C 8.74 g/m*3 14.8 C 0 km/h
2329 09-07-2009 10:04:39 15 C 8.59 g/m*3 15 C 0 km/h
2330 09-07-2009 10:16:38 15.5 C 8.59 g/m*3 15.5 C 0 km/h
2331 09-07-2009 10:28:38 16.1 C 8.36 g/m*3 16.1 C 0 km/h
2332 09-07-2009 10:40:39 16.8 C 7.72 g/m*3 16.8 C 0 km/h
2333 09-07-2009 10:52:38 16.8 C 7.43 g/m*3 16.8 C 0 km/h
2334 09-07-2009 11:04:38 16.7 C 6.82 g/m*3 16.7 C 0 km/h
2335 09-07-2009 11:16:38 17.1 C 6.99 g/m*3 17.1 C 0 km/h
2336 09-07-2009 11:28:38 17.1 C 6.7 g/m*3 17.1 C 0 km/h
2337 09-07-2009 11:40:38 17.6 C 6.75 g/m*3 17.6 C 0 km/h
2338 09-07-2009 11:52:38 18.7 C 6.24 g/m*3 18.7 C 0 km/h
2339 09-07-2009 12:04:37 19.6 C 6.25 g/m*3 19.6 C 0 km/h
2340 09-07-2009 12:16:38 20.5 C 6.05 g/m*3 20.5 C 0 km/h
2341 09-07-2009 12:28:38 20.3 C 6.16 g/m*3 20.3 C 0 km/h
2342 09-07-2009 12:40:37 19.9 C 5.84 g/m*3 19.9 C 0 km/h
2343 09-07-2009 12:52:37 19.1 C 6.07 g/m*3 19.1 C 0 km/h
2344 09-07-2009 13:04:37 18.7 C 5.92 g/m*3 18.7 C 0 km/h
2345 09-07-2009 13:16:37 20.3 C 7.21 g/m*3 20.3 C 0 km/h
2346 09-07-2009 13:28:37 22.5 C 5.79 g/m*3 22.5 C 0 km/h
2347 09-07-2009 13:40:37 20.9 C 5.65 g/m*3 20.9 C 0 km/h
2348 09-07-2009 13:52:37 20.8 C 6.34 g/m*3 20.8 C 0 km/h
2349 09-07-2009 14:04:37 21.7 C 5.53 g/m*3 21.7 C 0 km/h
2350 09-07-2009 14:16:36 21.3 C 5.59 g/m*3 21.3 C 0 km/h
Sensor: Nr:Datum:Temp:Abs-Feuchte:Windchill:Wind:
Aussen-T/F 2351 09-07-2009 14:28:36 21.5 C 5.66 g/m*3 21.5 C 0 km/h
2352 09-07-2009 14:40:36 21.9 C 6.18 g/m*3 21.9 C 0 km/h
2353 09-07-2009 14:52:36 21.4 C 5.81 g/m*3 21.4 C 0 km/h
2354 09-07-2009 15:04:36 21.2 C 5.74 g/m*3 21.2 C 0 km/h
2355 09-07-2009 15:16:35 21.5 C 6.22 g/m*3 21.5 C 0 km/h
2356 09-07-2009 15:28:35 22.7 C 5.86 g/m*3 22.7 C 0 km/h
2357 09-07-2009 15:40:36 23.3 C 5.44 g/m*3 23.3 C 0 km/h
2358 09-07-2009 15:52:35 23.2 C 5.82 g/m*3 23.2 C 0 km/h
2359 09-07-2009 16:04:35 23.4 C 5.68 g/m*3 23.4 C 0 km/h
2360 09-07-2009 16:16:36 22.9 C 5.72 g/m*3 22.9 C 0 km/h
2361 09-07-2009 16:28:36 23 C 5.96 g/m*3 23 C 0 km/h
2362 09-07-2009 16:40:35 23.6 C 5.96 g/m*3 23.6 C 0 km/h
2363 09-07-2009 16:52:35 22.8 C 5.89 g/m*3 22.8 C 0 km/h
2364 09-07-2009 17:04:35 22.1 C 6.05 g/m*3 22.1 C 0 km/h
2365 09-07-2009 17:16:35 22 C 5.82 g/m*3 22 C 0 km/h
2366 09-07-2009 17:28:35 22 C 6.02 g/m*3 22 C 0 km/h
2367 09-07-2009 17:40:34 22.4 C 6.36 g/m*3 22.4 C 0 km/h
2368 09-07-2009 17:52:34 21.5 C 6.6 g/m*3 21.5 C 0 km/h
2369 09-07-2009 18:04:35 21 C 6.96 g/m*3 21 C 0 km/h
2370 09-07-2009 18:16:34 19.2 C 7.09 g/m*3 19.2 C 0 km/h
2371 09-07-2009 18:28:34 18.8 C 7.57 g/m*3 18.8 C 0 km/h
2372 09-07-2009 18:40:34 18.1 C 7.88 g/m*3 18.1 C 0 km/h
2373 09-07-2009 18:52:34 17.2 C 8.05 g/m*3 17.2 C 0 km/h
2374 09-07-2009 19:04:34 16.1 C 8.91 g/m*3 16.1 C 0 km/h
2375 09-07-2009 19:16:33 15.2 C 9.48 g/m*3 15.2 C 0 km/h
Sensor: Nr:Datum:Temp:Abs-Feuchte:Windchill:Wind:
Aussen-T/F 2376 09-07-2009 19:28:33 14.6 C 9.64 g/m*3 14.6 C 0 km/h
2377 09-07-2009 19:40:33 14.4 C 9.64 g/m*3 14.4 C 0 km/h
2378 09-07-2009 19:52:33 14.5 C 9.83 g/m*3 14.5 C 0 km/h
2379 09-07-2009 20:04:33 14.4 C 9.39 g/m*3 14.4 C 0 km/h
2380 09-07-2009 20:16:33 14.5 C 9.83 g/m*3 14.5 C 0 km/h
2381 09-07-2009 20:28:33 14.5 C 9.83 g/m*3 14.5 C 0 km/h
2382 09-07-2009 20:40:33 14.6 C 10.01 g/m*3 14.6 C 0 km/h
2383 09-07-2009 20:52:33 14.3 C 9.95 g/m*3 14.3 C 0 km/h
2384 09-07-2009 21:04:33 14.1 C 9.95 g/m*3 14.1 C 0 km/h
2385 09-07-2009 21:16:32 14.1 C 9.95 g/m*3 14.1 C 0 km/h
2386 09-07-2009 21:28:32 14.1 C 9.59 g/m*3 14.1 C 0 km/h
2387 09-07-2009 21:40:32 14.2 C 9.28 g/m*3 14.2 C 0 km/h
2388 09-07-2009 21:52:32 14.2 C 9.04 g/m*3 14.2 C 0 km/h
2389 09-07-2009 22:04:32 14.4 C 9.02 g/m*3 14.4 C 0 km/h
2390 09-07-2009 22:16:32 14.3 C 8.97 g/m*3 14.3 C 0 km/h
2391 09-07-2009 22:28:32 14.4 C 8.9 g/m*3 14.4 C 0 km/h
2392 09-07-2009 22:40:31 14.1 C 8.86 g/m*3 14.1 C 0 km/h
2393 09-07-2009 22:53:33 14.1 C 8.74 g/m*3 14.1 C 0 km/h
2394 09-07-2009 23:05:33 14.3 C 8.72 g/m*3 14.3 C 0 km/h
2395 09-07-2009 23:17:33 14.7 C 9.07 g/m*3 14.7 C 0 km/h
2396 09-07-2009 23:29:33 14.5 C 8.95 g/m*3 14.5 C 0 km/h
2397 09-07-2009 23:41:33 14.1 C 8.86 g/m*3 14.1 C 0 km/h
2398 09-07-2009 23:53:33 13.8 C 9.06 g/m*3 13.8 C 0 km/h
2399 10-07-2009 00:05:33 13.7 C 8.76 g/m*3 13.7 C 0 km/h
2400 10-07-2009 00:17:33 13.6 C 8.59 g/m*3 13.6 C 0 km/h
Sensor: Nr:Datum:Temp:Abs-Feuchte:Windchill:Wind:
Aussen-T/F 2401 10-07-2009 00:29:33 13.5 C 8.66 g/m*3 13.5 C 0 km/h
2402 10-07-2009 00:41:33 13.2 C 8.61 g/m*3 13.2 C 0 km/h
2403 10-07-2009 00:53:33 13.2 C 8.61 g/m*3 13.2 C 0 km/h
2404 10-07-2009 01:05:33 13.4 C 8.6 g/m*3 13.4 C 0 km/h
2405 10-07-2009 01:17:34 13.4 C 8.6 g/m*3 13.4 C 0 km/h
2406 10-07-2009 01:29:34 13.4 C 8.6 g/m*3 13.4 C 0 km/h
2407 10-07-2009 01:41:34 13.2 C 8.38 g/m*3 13.2 C 0 km/h
2408 10-07-2009 01:53:34 13 C 8.39 g/m*3 13 C 0 km/h
2409 10-07-2009 02:05:34 13.2 C 8.61 g/m*3 13.2 C 0 km/h
2410 10-07-2009 02:17:34 13.3 C 8.55 g/m*3 13.3 C 0 km/h
2411 10-07-2009 02:29:34 13.3 C 8.55 g/m*3 13.3 C 0 km/h
2412 10-07-2009 02:41:34 13.4 C 8.6 g/m*3 13.4 C 0 km/h
2413 10-07-2009 02:53:34 13.2 C 8.61 g/m*3 13.2 C 0 km/h
2414 10-07-2009 03:05:34 13.2 C 8.73 g/m*3 13.2 C 0 km/h
2415 10-07-2009 03:17:34 13.3 C 8.66 g/m*3 13.3 C 0 km/h
2416 10-07-2009 03:29:34 13.4 C 8.6 g/m*3 13.4 C 0 km/h
2417 10-07-2009 03:41:34 13.4 C 8.49 g/m*3 13.4 C 0 km/h
2418 10-07-2009 03:53:34 13.5 C 8.54 g/m*3 13.5 C 0 km/h
2419 10-07-2009 04:05:34 13.5 C 8.54 g/m*3 13.5 C 0 km/h
2420 10-07-2009 04:17:34 13.5 C 8.54 g/m*3 13.5 C 0 km/h
2421 10-07-2009 04:29:34 13.5 C 8.66 g/m*3 13.5 C 0 km/h
2422 10-07-2009 04:41:34 13.5 C 8.66 g/m*3 13.5 C 0 km/h
2423 10-07-2009 04:53:34 13.4 C 8.72 g/m*3 13.4 C 0 km/h
2424 10-07-2009 05:05:34 13.4 C 8.6 g/m*3 13.4 C 0 km/h
2425 10-07-2009 05:17:34 13.3 C 8.66 g/m*3 13.3 C 0 km/h
Sensor: Nr:Datum:Temp:Abs-Feuchte:Windchill:Wind:
Aussen-T/F 2426 10-07-2009 05:29:35 13.2 C 8.73 g/m*3 13.2 C 0 km/h
2427 10-07-2009 05:41:35 13.1 C 8.56 g/m*3 13.1 C 0 km/h
2428 10-07-2009 05:53:35 12.9 C 8.68 g/m*3 12.9 C 0 km/h
2429 10-07-2009 06:05:35 13 C 8.62 g/m*3 13 C 0 km/h
2430 10-07-2009 06:17:35 13.1 C 8.44 g/m*3 13.1 C 0 km/h
2431 10-07-2009 06:29:35 13.2 C 8.38 g/m*3 13.2 C 0 km/h
2432 10-07-2009 06:41:35 13.2 C 8.38 g/m*3 13.2 C 0 km/h
2433 10-07-2009 06:53:35 13.2 C 8.38 g/m*3 13.2 C 0 km/h
2434 10-07-2009 07:05:32 13.2 C 8.27 g/m*3 13.2 C 0 km/h
2435 10-07-2009 07:17:32 13.2 C 8.38 g/m*3 13.2 C 0 km/h
2436 10-07-2009 07:29:32 13.4 C 8.49 g/m*3 13.4 C 0 km/h
2437 10-07-2009 07:41:31 13.3 C 8.2 g/m*3 13.3 C 0 km/h
2438 10-07-2009 07:53:32 13.4 C 8.02 g/m*3 13.4 C 0 km/h
2439 10-07-2009 08:05:31 13.4 C 8.02 g/m*3 13.4 C 0 km/h
2440 10-07-2009 08:17:31 13.5 C 8.07 g/m*3 13.5 C 0 km/h
2441 10-07-2009 08:29:32 13.5 C 8.07 g/m*3 13.5 C 0 km/h
2442 10-07-2009 08:41:31 14.2 C 8.18 g/m*3 14.2 C 0 km/h
2443 10-07-2009 08:53:31 14.2 C 8.06 g/m*3 14.2 C 0 km/h
2444 10-07-2009 09:05:31 14.7 C 8.18 g/m*3 14.7 C 0 km/h
2445 10-07-2009 09:17:31 14.8 C 7.85 g/m*3 14.8 C 0 km/h
2446 10-07-2009 09:29:31 15.1 C 7.87 g/m*3 15.1 C 0 km/h
2447 10-07-2009 09:41:31 15.7 C 8.3 g/m*3 15.7 C 0 km/h
2448 10-07-2009 09:53:30 16.2 C 7.45 g/m*3 16.2 C 0 km/h
2449 10-07-2009 10:05:30 15.8 C 7.81 g/m*3 15.8 C 0 km/h
2450 10-07-2009 10:17:30 16.3 C 7.77 g/m*3 16.3 C 0 km/h
Sensor: Nr:Datum:Temp:Abs-Feuchte:Windchill:Wind:
Aussen-T/F 2451 10-07-2009 10:29:30 16 C 7.77 g/m*3 16 C 0 km/h
2452 10-07-2009 10:41:30 15.8 C 8.21 g/m*3 15.8 C 0 km/h
2453 10-07-2009 10:53:29 15.6 C 7.45 g/m*3 15.6 C 0 km/h
2454 10-07-2009 11:05:30 15.6 C 7.05 g/m*3 15.6 C 0 km/h
2455 10-07-2009 11:17:30 15.9 C 7.18 g/m*3 15.9 C 0 km/h
2456 10-07-2009 11:29:30 14.3 C 7.74 g/m*3 14.3 C 0 km/h
2457 10-07-2009 11:41:29 15.2 C 8.44 g/m*3 15.2 C 0 km/h
2458 10-07-2009 11:53:29 17.4 C 8.6 g/m*3 17.4 C 0 km/h
2459 10-07-2009 12:05:29 18 C 7.22 g/m*3 18 C 0 km/h
2460 10-07-2009 12:17:29 18.3 C 7.19 g/m*3 18.3 C 0 km/h
2461 10-07-2009 12:29:29 17.5 C 6.26 g/m*3 17.5 C 0 km/h
2462 10-07-2009 12:41:28 17.5 C 6.26 g/m*3 17.5 C 0 km/h
2463 10-07-2009 12:53:29 17.5 C 6.11 g/m*3 17.5 C 0 km/h
2464 10-07-2009 13:05:29 17.3 C 6.04 g/m*3 17.3 C 0 km/h
2465 10-07-2009 13:17:28 16.8 C 6.43 g/m*3 16.8 C 0 km/h
2466 10-07-2009 13:29:28 16.8 C 6.43 g/m*3 16.8 C 0 km/h
2467 10-07-2009 13:41:28 17.6 C 6.3 g/m*3 17.6 C 0 km/h
2468 10-07-2009 13:53:28 17.9 C 6.11 g/m*3 17.9 C 0 km/h
2469 10-07-2009 14:05:28 17.9 C 6.11 g/m*3 17.9 C 0 km/h
2470 10-07-2009 14:17:27 17.8 C 6.22 g/m*3 17.8 C 0 km/h
2471 10-07-2009 14:29:27 17.8 C 6.07 g/m*3 17.8 C 0 km/h
2472 10-07-2009 14:41:28 17.7 C 6.19 g/m*3 17.7 C 0 km/h
2473 10-07-2009 14:53:27 17.3 C 5.89 g/m*3 17.3 C 0 km/h
2474 10-07-2009 15:05:27 17.2 C 5.86 g/m*3 17.2 C 0 km/h
2475 10-07-2009 15:17:27 17.2 C 6 g/m*3 17.2 C 0 km/h
Sensor: Nr:Datum:Temp:Abs-Feuchte:Windchill:Wind:
Aussen-T/F 2476 10-07-2009 15:29:27 17.2 C 6 g/m*3 17.2 C 0 km/h
2477 10-07-2009 15:41:27 17.1 C 5.97 g/m*3 17.1 C 0 km/h
2478 10-07-2009 15:53:27 17.4 C 6.37 g/m*3 17.4 C 0 km/h
2479 10-07-2009 16:05:26 17 C 6.08 g/m*3 17 C 0 km/h
2480 10-07-2009 16:17:27 17 C 5.93 g/m*3 17 C 0 km/h
2481 10-07-2009 16:29:27 17.1 C 6.26 g/m*3 17.1 C 0 km/h
2482 10-07-2009 16:41:27 15.8 C 7 g/m*3 15.8 C 0 km/h
2483 10-07-2009 16:53:26 15.8 C 6.87 g/m*3 15.8 C 0 km/h
2484 10-07-2009 17:05:27 16.3 C 6.66 g/m*3 16.3 C 0 km/h
2485 10-07-2009 17:17:26 16.5 C 6.32 g/m*3 16.5 C 0 km/h
2486 10-07-2009 17:29:26 16.6 C 6.36 g/m*3 16.6 C 0 km/h
2487 10-07-2009 17:41:26 16.6 C 6.36 g/m*3 16.6 C 0 km/h
2488 10-07-2009 17:53:26 16.6 C 6.5 g/m*3 16.6 C 0 km/h
2489 10-07-2009 18:05:26 16.5 C 6.46 g/m*3 16.5 C 0 km/h
2490 10-07-2009 18:17:25 16.5 C 6.46 g/m*3 16.5 C 0 km/h
2491 10-07-2009 18:29:25 16.5 C 6.6 g/m*3 16.5 C 0 km/h
2492 10-07-2009 18:41:25 16.5 C 6.6 g/m*3 16.5 C 0 km/h
2493 10-07-2009 18:53:25 16.6 C 6.64 g/m*3 16.6 C 0 km/h
2494 10-07-2009 19:05:25 16.5 C 6.74 g/m*3 16.5 C 0 km/h
2495 10-07-2009 19:17:25 16.6 C 6.78 g/m*3 16.6 C 0 km/h
2496 10-07-2009 19:29:25 16.7 C 6.96 g/m*3 16.7 C 0 km/h
2497 10-07-2009 19:41:24 16.6 C 6.78 g/m*3 16.6 C 0 km/h
2498 10-07-2009 19:53:25 16.6 C 6.92 g/m*3 16.6 C 0 km/h
2499 10-07-2009 20:05:24 16.6 C 6.78 g/m*3 16.6 C 0 km/h
2500 10-07-2009 20:17:24 16.6 C 6.78 g/m*3 16.6 C 0 km/h
Sensor: Nr:Datum:Temp:Abs-Feuchte:Windchill:Wind:
Aussen-T/F 2501 10-07-2009 20:29:24 16.6 C 6.78 g/m*3 16.6 C 0 km/h
2502 10-07-2009 20:41:25 16.4 C 6.98 g/m*3 16.4 C 0 km/h
2503 10-07-2009 20:53:24 16.1 C 7.26 g/m*3 16.1 C 0 km/h
2504 10-07-2009 21:05:24 15.7 C 7.89 g/m*3 15.7 C 0 km/h
2505 10-07-2009 21:17:23 15.4 C 8.15 g/m*3 15.4 C 0 km/h
2506 10-07-2009 21:29:23 15.2 C 8.18 g/m*3 15.2 C 0 km/h
2507 10-07-2009 21:41:24 15.1 C 8.26 g/m*3 15.1 C 0 km/h
2508 10-07-2009 21:53:23 15 C 8.46 g/m*3 15 C 0 km/h
2509 10-07-2009 22:05:23 14.8 C 8.49 g/m*3 14.8 C 0 km/h
2510 10-07-2009 22:18:24 14.8 C 8.61 g/m*3 14.8 C 0 km/h
2511 10-07-2009 22:30:24 14.8 C 8.61 g/m*3 14.8 C 0 km/h
2512 10-07-2009 22:42:24 14.6 C 8.63 g/m*3 14.6 C 0 km/h
2513 10-07-2009 22:54:24 14.7 C 8.69 g/m*3 14.7 C 0 km/h
2514 10-07-2009 23:06:24 14.8 C 8.74 g/m*3 14.8 C 0 km/h
2515 10-07-2009 23:18:24 14.3 C 8.48 g/m*3 14.3 C 0 km/h
2516 10-07-2009 23:30:24 14.2 C 8.55 g/m*3 14.2 C 0 km/h
2517 10-07-2009 23:42:24 14.3 C 8.6 g/m*3 14.3 C 0 km/h
2518 10-07-2009 23:54:25 14.3 C 8.48 g/m*3 14.3 C 0 km/h
2519 11-07-2009 00:06:25 14.2 C 8.43 g/m*3 14.2 C 0 km/h
2520 11-07-2009 00:18:25 14.1 C 8.25 g/m*3 14.1 C 0 km/h
2521 11-07-2009 00:30:25 14.2 C 8.3 g/m*3 14.2 C 0 km/h
2522 11-07-2009 00:42:25 14.2 C 8.3 g/m*3 14.2 C 0 km/h
2523 11-07-2009 00:54:25 14.1 C 8.25 g/m*3 14.1 C 0 km/h
2524 11-07-2009 01:06:25 14.1 C 8.25 g/m*3 14.1 C 0 km/h
2525 11-07-2009 01:18:25 14.1 C 8.25 g/m*3 14.1 C 0 km/h
Sensor: Nr:Datum:Temp:Abs-Feuchte:Windchill:Wind:
Aussen-T/F 2526 11-07-2009 01:30:25 14.2 C 8.43 g/m*3 14.2 C 0 km/h
2527 11-07-2009 01:42:25 14.1 C 8.13 g/m*3 14.1 C 0 km/h
2528 11-07-2009 01:54:25 14.1 C 8.25 g/m*3 14.1 C 0 km/h
2529 11-07-2009 02:06:25 14.1 C 8.5 g/m*3 14.1 C 0 km/h
2530 11-07-2009 02:18:25 14.1 C 8.62 g/m*3 14.1 C 0 km/h
2531 11-07-2009 02:30:25 14.1 C 8.5 g/m*3 14.1 C 0 km/h
2532 11-07-2009 02:42:25 14.1 C 8.37 g/m*3 14.1 C 0 km/h
2533 11-07-2009 02:54:25 14 C 8.32 g/m*3 14 C 0 km/h
2534 11-07-2009 03:06:25 14 C 8.32 g/m*3 14 C 0 km/h
2535 11-07-2009 03:18:25 14 C 8.32 g/m*3 14 C 0 km/h
2536 11-07-2009 03:30:25 13.9 C 8.51 g/m*3 13.9 C 0 km/h
2537 11-07-2009 03:42:25 13.8 C 8.58 g/m*3 13.8 C 0 km/h
2538 11-07-2009 03:54:25 13.7 C 8.64 g/m*3 13.7 C 0 km/h
2539 11-07-2009 04:06:26 13.8 C 8.7 g/m*3 13.8 C 0 km/h
2540 11-07-2009 04:18:26 13.9 C 8.51 g/m*3 13.9 C 0 km/h
2541 11-07-2009 04:30:26 13.9 C 8.39 g/m*3 13.9 C 0 km/h
2542 11-07-2009 04:42:26 13.9 C 8.63 g/m*3 13.9 C 0 km/h
2543 11-07-2009 04:54:26 13.8 C 8.34 g/m*3 13.8 C 0 km/h
2544 11-07-2009 05:06:26 13.8 C 8.22 g/m*3 13.8 C 0 km/h
2545 11-07-2009 05:18:26 13.7 C 8.29 g/m*3 13.7 C 0 km/h
2546 11-07-2009 05:30:26 13.6 C 8.47 g/m*3 13.6 C 0 km/h
2547 11-07-2009 05:42:26 13.5 C 8.42 g/m*3 13.5 C 0 km/h
2548 11-07-2009 05:54:26 13.6 C 8.12 g/m*3 13.6 C 0 km/h
2549 11-07-2009 06:06:26 13.8 C 8.22 g/m*3 13.8 C 0 km/h
2550 11-07-2009 06:18:26 13.8 C 8.34 g/m*3 13.8 C 0 km/h
Sensor: Nr:Datum:Temp:Abs-Feuchte:Windchill:Wind:
Aussen-T/F 2551 11-07-2009 06:30:26 13.7 C 8.29 g/m*3 13.7 C 0 km/h
2552 11-07-2009 06:42:26 13.7 C 8.41 g/m*3 13.7 C 0 km/h
2553 11-07-2009 06:54:26 13.8 C 8.46 g/m*3 13.8 C 0 km/h
2554 11-07-2009 07:06:26 14 C 8.44 g/m*3 14 C 0 km/h
2555 11-07-2009 07:18:26 14 C 8.44 g/m*3 14 C 0 km/h
2556 11-07-2009 07:30:26 14.1 C 8.5 g/m*3 14.1 C 0 km/h
2557 11-07-2009 07:42:26 14.2 C 8.43 g/m*3 14.2 C 0 km/h
2558 11-07-2009 07:54:26 14.5 C 8.58 g/m*3 14.5 C 0 km/h
2559 11-07-2009 08:06:27 14.8 C 8.49 g/m*3 14.8 C 0 km/h
2560 11-07-2009 08:18:27 15.2 C 8.31 g/m*3 15.2 C 0 km/h
2561 11-07-2009 08:30:23 15.5 C 8.2 g/m*3 15.5 C 0 km/h
2562 11-07-2009 08:42:23 15.7 C 8.03 g/m*3 15.7 C 0 km/h
2563 11-07-2009 08:54:23 16 C 7.77 g/m*3 16 C 0 km/h
2564 11-07-2009 09:06:23 16 C 7.63 g/m*3 16 C 0 km/h
2565 11-07-2009 09:18:23 16.1 C 7.81 g/m*3 16.1 C 0 km/h
2566 11-07-2009 09:30:22 16.4 C 7.82 g/m*3 16.4 C 0 km/h
2567 11-07-2009 09:42:22 16.5 C 7.72 g/m*3 16.5 C 0 km/h
2568 11-07-2009 09:54:23 16.9 C 7.77 g/m*3 16.9 C 0 km/h
2569 11-07-2009 10:06:22 17.4 C 7.85 g/m*3 17.4 C 0 km/h
2570 11-07-2009 10:18:22 17.6 C 7.8 g/m*3 17.6 C 0 km/h
2571 11-07-2009 10:30:22 18.2 C 7.77 g/m*3 18.2 C 0 km/h
2572 11-07-2009 10:42:22 17.9 C 7.94 g/m*3 17.9 C 0 km/h
2573 11-07-2009 10:54:22 18.7 C 7.84 g/m*3 18.7 C 0 km/h
2574 11-07-2009 11:06:22 19.1 C 7.7 g/m*3 19.1 C 0 km/h
2575 11-07-2009 11:18:21 19.8 C 8.03 g/m*3 19.8 C 0 km/h
Sensor: Nr:Datum:Temp:Abs-Feuchte:Windchill:Wind:
Aussen-T/F 2576 11-07-2009 11:30:22 18.9 C 7.61 g/m*3 18.9 C 0 km/h
2577 11-07-2009 11:42:22 18.6 C 7.96 g/m*3 18.6 C 0 km/h
2578 11-07-2009 11:54:21 19.6 C 7.77 g/m*3 19.6 C 0 km/h
2579 11-07-2009 12:06:21 19.4 C 7.51 g/m*3 19.4 C 0 km/h
2580 11-07-2009 12:18:22 19.8 C 8.2 g/m*3 19.8 C 0 km/h
2581 11-07-2009 12:30:21 20.7 C 7.56 g/m*3 20.7 C 0 km/h
2582 11-07-2009 12:42:21 20.8 C 7.42 g/m*3 20.8 C 0 km/h
2583 11-07-2009 12:54:21 20.1 C 7.47 g/m*3 20.1 C 0 km/h
2584 11-07-2009 13:06:02 21.8 C 7.87 g/m*3 21.8 C 0 km/h
2585 11-07-2009 13:18:02 20.4 C 7.25 g/m*3 20.4 C 0 km/h
2586 11-07-2009 13:30:02 21.6 C 7.59 g/m*3 21.6 C 0 km/h
2587 11-07-2009 13:42:02 20.3 C 7.56 g/m*3 20.3 C 0 km/h
2588 11-07-2009 13:54:01 20.3 C 7.91 g/m*3 20.3 C 0 km/h
2589 11-07-2009 14:06:01 20.7 C 7.38 g/m*3 20.7 C 0 km/h
2590 11-07-2009 14:18:01 20.3 C 7.39 g/m*3 20.3 C 0 km/h
2591 11-07-2009 14:30:01 20.4 C 7.43 g/m*3 20.4 C 0 km/h
2592 11-07-2009 14:42:01 20.4 C 7.25 g/m*3 20.4 C 0 km/h
2593 11-07-2009 14:54:00 20.4 C 7.43 g/m*3 20.4 C 0 km/h
2594 11-07-2009 15:06:01 20.2 C 7.52 g/m*3 20.2 C 0 km/h
2595 11-07-2009 15:18:01 19.7 C 7.47 g/m*3 19.7 C 0 km/h
2596 11-07-2009 15:30:01 20.3 C 7.56 g/m*3 20.3 C 0 km/h
2597 11-07-2009 15:42:00 20.8 C 7.42 g/m*3 20.8 C 0 km/h
2598 11-07-2009 15:54:01 21 C 7.14 g/m*3 21 C 0 km/h
2599 11-07-2009 16:06:00 20.6 C 7.52 g/m*3 20.6 C 0 km/h
2600 11-07-2009 16:18:00 21 C 7.51 g/m*3 21 C 0 km/h
Sensor: Nr:Datum:Temp:Abs-Feuchte:Windchill:Wind:
Aussen-T/F 2601 11-07-2009 16:30:00 21.3 C 7.27 g/m*3 21.3 C 0 km/h
2602 11-07-2009 16:42:59 20.8 C 7.42 g/m*3 20.8 C 0 km/h
2603 11-07-2009 16:54:00 21.4 C 7.5 g/m*3 21.4 C 0 km/h
2604 11-07-2009 17:06:59 21 C 7.33 g/m*3 21 C 0 km/h
2605 11-07-2009 17:18:59 20.8 C 7.6 g/m*3 20.8 C 0 km/h
2606 11-07-2009 17:30:59 20.4 C 7.43 g/m*3 20.4 C 0 km/h
2607 11-07-2009 17:41:59 20.1 C 7.3 g/m*3 20.1 C 0 km/h
2608 11-07-2009 17:54:59 20.4 C 7.43 g/m*3 20.4 C 0 km/h
2609 11-07-2009 18:06:59 20.3 C 7.56 g/m*3 20.3 C 0 km/h
2610 11-07-2009 18:18:58 21 C 7.51 g/m*3 21 C 0 km/h
2611 11-07-2009 18:30:59 21.4 C 7.5 g/m*3 21.4 C 0 km/h
2612 11-07-2009 18:42:59 21.1 C 7.37 g/m*3 21.1 C 0 km/h
2613 11-07-2009 18:54:58 22.7 C 7.48 g/m*3 22.7 C 0 km/h
2614 11-07-2009 19:06:58 22.1 C 7.22 g/m*3 22.1 C 0 km/h
2615 11-07-2009 19:18:59 21.3 C 7.64 g/m*3 21.3 C 0 km/h
2616 11-07-2009 19:30:58 21 C 7.51 g/m*3 21 C 0 km/h
2617 11-07-2009 19:42:58 21.1 C 7.74 g/m*3 21.1 C 0 km/h
2618 11-07-2009 19:54:58 20.4 C 7.78 g/m*3 20.4 C 0 km/h
2619 11-07-2009 20:06:57 20.2 C 7.69 g/m*3 20.2 C 0 km/h
2620 11-07-2009 20:18:58 20.3 C 7.91 g/m*3 20.3 C 0 km/h
2621 11-07-2009 20:30:57 20 C 7.95 g/m*3 20 C 0 km/h
2622 11-07-2009 20:42:57 20 C 7.95 g/m*3 20 C 0 km/h
2623 11-07-2009 20:54:57 19.6 C 8.1 g/m*3 19.6 C 0 km/h
2624 11-07-2009 21:06:57 19.3 C 8.13 g/m*3 19.3 C 0 km/h
2625 11-07-2009 21:18:57 19.1 C 8.2 g/m*3 19.1 C 0 km/h
Sensor: Nr:Datum:Temp:Abs-Feuchte:Windchill:Wind:
Aussen-T/F 2626 11-07-2009 21:30:57 18.8 C 8.21 g/m*3 18.8 C 0 km/h
2627 11-07-2009 21:42:57 18.7 C 8.33 g/m*3 18.7 C 0 km/h
2628 11-07-2009 21:54:56 18.6 C 8.44 g/m*3 18.6 C 0 km/h
2629 11-07-2009 22:07:21 18.3 C 8.29 g/m*3 18.3 C 0 km/h
2630 11-07-2009 22:19:21 18.1 C 8.34 g/m*3 18.1 C 0 km/h
2631 11-07-2009 22:31:21 18.3 C 8.44 g/m*3 18.3 C 0 km/h
2632 11-07-2009 22:43:21 18.3 C 8.29 g/m*3 18.3 C 0 km/h
2633 11-07-2009 22:55:21 18.1 C 8.65 g/m*3 18.1 C 0 km/h
2634 11-07-2009 23:07:22 17.8 C 8.8 g/m*3 17.8 C 0 km/h
2635 11-07-2009 23:19:22 17.7 C 8.6 g/m*3 17.7 C 0 km/h
2636 11-07-2009 23:31:22 17.7 C 8.6 g/m*3 17.7 C 0 km/h
2637 11-07-2009 23:43:22 17.6 C 8.7 g/m*3 17.6 C 0 km/h
2638 11-07-2009 23:55:22 17.5 C 8.65 g/m*3 17.5 C 0 km/h
2639 12-07-2009 00:07:22 17.2 C 8.79 g/m*3 17.2 C 0 km/h
2640 12-07-2009 00:19:22 17.2 C 8.79 g/m*3 17.2 C 0 km/h
2641 12-07-2009 00:31:22 17.2 C 8.79 g/m*3 17.2 C 0 km/h
2642 12-07-2009 00:43:22 17.1 C 8.88 g/m*3 17.1 C 0 km/h
2643 12-07-2009 00:55:22 16.8 C 9.01 g/m*3 16.8 C 0 km/h
2644 12-07-2009 01:07:22 16.4 C 8.93 g/m*3 16.4 C 0 km/h
2645 12-07-2009 01:19:22 16 C 8.99 g/m*3 16 C 0 km/h
2646 12-07-2009 01:31:22 15.8 C 9.02 g/m*3 15.8 C 0 km/h
2647 12-07-2009 01:43:22 15.9 C 9.21 g/m*3 15.9 C 0 km/h
2648 12-07-2009 01:55:22 16 C 9.26 g/m*3 16 C 0 km/h
2649 12-07-2009 02:07:22 15.8 C 9.42 g/m*3 15.8 C 0 km/h
2650 12-07-2009 02:19:22 15.6 C 9.31 g/m*3 15.6 C 0 km/h
Sensor: Nr:Datum:Temp:Abs-Feuchte:Windchill:Wind:
Aussen-T/F 2651 12-07-2009 02:31:22 15.2 C 9.35 g/m*3 15.2 C 0 km/h
2652 12-07-2009 02:43:23 15 C 9.36 g/m*3 15 C 0 km/h
2653 12-07-2009 02:55:23 14.7 C 9.44 g/m*3 14.7 C 0 km/h
2654 12-07-2009 03:07:23 14.5 C 9.45 g/m*3 14.5 C 0 km/h
2655 12-07-2009 03:19:23 14.3 C 9.34 g/m*3 14.3 C 0 km/h
2656 12-07-2009 03:31:23 14.2 C 9.28 g/m*3 14.2 C 0 km/h
2657 12-07-2009 03:43:23 14.2 C 9.4 g/m*3 14.2 C 0 km/h
2658 12-07-2009 03:55:23 14.4 C 9.52 g/m*3 14.4 C 0 km/h
2659 12-07-2009 04:07:23 14.3 C 9.46 g/m*3 14.3 C 0 km/h
2660 12-07-2009 04:19:23 14.4 C 9.52 g/m*3 14.4 C 0 km/h
2661 12-07-2009 04:31:23 14.7 C 9.69 g/m*3 14.7 C 0 km/h
2662 12-07-2009 04:43:23 14.6 C 9.64 g/m*3 14.6 C 0 km/h
2663 12-07-2009 04:55:23 14.6 C 9.51 g/m*3 14.6 C 0 km/h
2664 12-07-2009 05:07:23 14.6 C 9.51 g/m*3 14.6 C 0 km/h
2665 12-07-2009 05:19:23 14.6 C 9.64 g/m*3 14.6 C 0 km/h
2666 12-07-2009 05:31:23 14.7 C 9.69 g/m*3 14.7 C 0 km/h
2667 12-07-2009 05:43:23 14.7 C 9.57 g/m*3 14.7 C 0 km/h
2668 12-07-2009 05:55:23 14.5 C 9.45 g/m*3 14.5 C 0 km/h
2669 12-07-2009 06:07:23 14.6 C 9.64 g/m*3 14.6 C 0 km/h
2670 12-07-2009 06:19:24 14.6 C 9.64 g/m*3 14.6 C 0 km/h
2671 12-07-2009 06:31:24 14.6 C 9.64 g/m*3 14.6 C 0 km/h
2672 12-07-2009 06:43:24 14.8 C 9.63 g/m*3 14.8 C 0 km/h
2673 12-07-2009 06:55:24 14.8 C 9.63 g/m*3 14.8 C 0 km/h
2674 12-07-2009 07:07:24 14.8 C 9.5 g/m*3 14.8 C 0 km/h
2675 12-07-2009 07:19:24 15 C 9.36 g/m*3 15 C 0 km/h
Sensor: Nr:Datum:Temp:Abs-Feuchte:Windchill:Wind:
Aussen-T/F 2676 12-07-2009 07:31:24 15.1 C 9.42 g/m*3 15.1 C 0 km/h
2677 12-07-2009 07:43:24 15.1 C 9.42 g/m*3 15.1 C 0 km/h
2678 12-07-2009 07:55:24 15.2 C 9.61 g/m*3 15.2 C 0 km/h
2679 12-07-2009 08:07:24 15.4 C 9.72 g/m*3 15.4 C 0 km/h
2680 12-07-2009 08:19:24 15.5 C 9.91 g/m*3 15.5 C 0 km/h
2681 12-07-2009 08:31:24 15.6 C 10.37 g/m*3 15.6 C 0 km/h
2682 12-07-2009 08:43:24 15.9 C 10.56 g/m*3 15.9 C 0 km/h
2683 12-07-2009 08:55:24 16.3 C 10.68 g/m*3 16.3 C 0 km/h
2684 12-07-2009 09:07:24 16.4 C 10.75 g/m*3 16.4 C 0 km/h
2685 12-07-2009 09:19:24 16.4 C 10.89 g/m*3 16.4 C 0 km/h
2686 12-07-2009 09:31:03 16.6 C 11.02 g/m*3 16.6 C 0 km/h
2687 12-07-2009 09:43:03 17 C 11.29 g/m*3 17 C 0 km/h
2688 12-07-2009 09:55:06 16.8 C 11.15 g/m*3 16.8 C 0 km/h
2689 12-07-2009 10:07:03 17 C 11.43 g/m*3 17 C 0 km/h
2690 12-07-2009 10:19:02 16.9 C 11.51 g/m*3 16.9 C 0 km/h
2691 12-07-2009 10:31:03 17.4 C 11.71 g/m*3 17.4 C 0 km/h
2692 12-07-2009 10:43:03 17.5 C 11.63 g/m*3 17.5 C 0 km/h
2693 12-07-2009 10:55:02 17.8 C 11.84 g/m*3 17.8 C 0 km/h
2694 12-07-2009 11:07:02 18 C 11.67 g/m*3 18 C 0 km/h
2695 12-07-2009 11:19:02 18.3 C 11.88 g/m*3 18.3 C 0 km/h
2696 12-07-2009 11:31:02 18.7 C 11.85 g/m*3 18.7 C 0 km/h
2697 12-07-2009 11:43:02 18.7 C 11.69 g/m*3 18.7 C 0 km/h
2698 12-07-2009 11:55:01 18.9 C 11.99 g/m*3 18.9 C 0 km/h
2699 12-07-2009 12:07:01 18.7 C 11.85 g/m*3 18.7 C 0 km/h
2700 12-07-2009 12:19:02 18.9 C 12.31 g/m*3 18.9 C 0 km/h
Sensor: Nr:Datum:Temp:Abs-Feuchte:Windchill:Wind:
Aussen-T/F 2701 12-07-2009 12:31:01 19.3 C 12.27 g/m*3 19.3 C 0 km/h
2702 12-07-2009 12:43:01 19.5 C 11.75 g/m*3 19.5 C 0 km/h
2703 12-07-2009 12:55:01 20 C 11.58 g/m*3 20 C 0 km/h
2704 12-07-2009 13:07:01 21.2 C 11.3 g/m*3 21.2 C 0 km/h
2705 12-07-2009 13:19:01 22.2 C 10.99 g/m*3 22.2 C 0 km/h
2706 12-07-2009 13:31:01 24.5 C 10.07 g/m*3 24.5 C 0 km/h
2707 12-07-2009 13:43:01 23.9 C 10.38 g/m*3 23.9 C 0 km/h
2708 12-07-2009 13:55:01 22.9 C 10.01 g/m*3 22.9 C 0 km/h
2709 12-07-2009 14:07:01 23.3 C 10.25 g/m*3 23.3 C 0 km/h
2710 12-07-2009 14:19:00 24.1 C 10.28 g/m*3 24.1 C 0 km/h
2711 12-07-2009 14:31:00 25.6 C 10 g/m*3 25.6 C 0 km/h
2712 12-07-2009 14:43:00 25.9 C 9.93 g/m*3 25.9 C 0 km/h
2713 12-07-2009 14:55:00 25.7 C 9.58 g/m*3 25.7 C 0 km/h
2714 12-07-2009 15:07:00 26.1 C 9.79 g/m*3 26.1 C 0 km/h
2715 12-07-2009 15:19:59 26.1 C 9.55 g/m*3 26.1 C 0 km/h
2716 12-07-2009 15:30:59 25.7 C 9.82 g/m*3 25.7 C 0 km/h
2717 12-07-2009 15:42:59 24.9 C 9.84 g/m*3 24.9 C 0 km/h
2718 12-07-2009 15:55:59 24.7 C 9.96 g/m*3 24.7 C 0 km/h
2719 12-07-2009 16:07:59 24 C 10.01 g/m*3 24 C 0 km/h
2720 12-07-2009 16:19:59 23.4 C 10.51 g/m*3 23.4 C 0 km/h
2721 12-07-2009 16:31:59 23.1 C 10.54 g/m*3 23.1 C 0 km/h
2722 12-07-2009 16:43:59 23.2 C 10.6 g/m*3 23.2 C 0 km/h
2723 12-07-2009 16:55:59 23.4 C 10.51 g/m*3 23.4 C 0 km/h
2724 12-07-2009 17:07:58 25.2 C 10.48 g/m*3 25.2 C 0 km/h
2725 12-07-2009 17:19:59 26.4 C 10.21 g/m*3 26.4 C 0 km/h
Sensor: Nr:Datum:Temp:Abs-Feuchte:Windchill:Wind:
Aussen-T/F 2726 12-07-2009 17:31:58 25.9 C 10.17 g/m*3 25.9 C 0 km/h
2727 12-07-2009 17:43:58 24.9 C 10.07 g/m*3 24.9 C 0 km/h
2728 12-07-2009 17:55:58 24.4 C 10.01 g/m*3 24.4 C 0 km/h
2729 12-07-2009 18:07:58 24.2 C 10.12 g/m*3 24.2 C 0 km/h
2730 12-07-2009 18:19:58 24.2 C 10.34 g/m*3 24.2 C 0 km/h
2731 12-07-2009 18:31:58 25.8 C 10.35 g/m*3 25.8 C 0 km/h
2732 12-07-2009 18:43:58 24.8 C 10.02 g/m*3 24.8 C 0 km/h
2733 12-07-2009 18:55:58 25.6 C 10 g/m*3 25.6 C 0 km/h
2734 12-07-2009 19:07:58 25.5 C 9.94 g/m*3 25.5 C 0 km/h
2735 12-07-2009 19:19:57 25 C 9.9 g/m*3 25 C 0 km/h
2736 12-07-2009 19:31:57 25 C 9.67 g/m*3 25 C 0 km/h
2737 12-07-2009 19:43:57 24.9 C 10.3 g/m*3 24.9 C 0 km/h
2738 12-07-2009 19:55:57 23.8 C 10.33 g/m*3 23.8 C 0 km/h
2739 12-07-2009 20:07:57 23.3 C 10.45 g/m*3 23.3 C 0 km/h
2740 12-07-2009 20:19:57 23.5 C 10.57 g/m*3 23.5 C 0 km/h
2741 12-07-2009 20:31:57 23.3 C 10.66 g/m*3 23.3 C 0 km/h
2742 12-07-2009 20:43:57 22.9 C 10.83 g/m*3 22.9 C 0 km/h
2743 12-07-2009 20:55:57 22.6 C 10.65 g/m*3 22.6 C 0 km/h
2744 12-07-2009 21:07:56 22.1 C 10.74 g/m*3 22.1 C 0 km/h
2745 12-07-2009 21:19:56 21.6 C 11 g/m*3 21.6 C 0 km/h
2746 12-07-2009 21:31:56 21.3 C 11 g/m*3 21.3 C 0 km/h
2747 12-07-2009 21:43:56 21.1 C 11.06 g/m*3 21.1 C 0 km/h
2748 12-07-2009 21:55:56 20.9 C 11.11 g/m*3 20.9 C 0 km/h
2749 12-07-2009 22:08:57 20.6 C 11.1 g/m*3 20.6 C 0 km/h
2750 12-07-2009 22:20:57 20.3 C 11.26 g/m*3 20.3 C 0 km/h
Sensor: Nr:Datum:Temp:Abs-Feuchte:Windchill:Wind:
Aussen-T/F 2751 12-07-2009 22:32:57 19.9 C 11.51 g/m*3 19.9 C 0 km/h
2752 12-07-2009 22:44:57 19.7 C 11.55 g/m*3 19.7 C 0 km/h
2753 12-07-2009 22:56:57 19.7 C 11.55 g/m*3 19.7 C 0 km/h
2754 12-07-2009 23:08:57 19.3 C 11.61 g/m*3 19.3 C 0 km/h
2755 12-07-2009 23:20:57 19.1 C 11.64 g/m*3 19.1 C 0 km/h
2756 12-07-2009 23:32:57 18.9 C 11.66 g/m*3 18.9 C 0 km/h
2757 12-07-2009 23:44:57 18.8 C 11.76 g/m*3 18.8 C 0 km/h
2758 12-07-2009 23:56:57 18.6 C 11.78 g/m*3 18.6 C 0 km/h
2759 13-07-2009 00:08:57 18.5 C 11.71 g/m*3 18.5 C 0 km/h
2760 13-07-2009 00:20:57 18.3 C 11.73 g/m*3 18.3 C 0 km/h
2761 13-07-2009 00:32:57 18.2 C 11.81 g/m*3 18.2 C 0 km/h
2762 13-07-2009 00:44:57 18.3 C 11.73 g/m*3 18.3 C 0 km/h
2763 13-07-2009 00:56:58 18.2 C 11.66 g/m*3 18.2 C 0 km/h
2764 13-07-2009 01:08:58 18 C 11.83 g/m*3 18 C 0 km/h
2765 13-07-2009 01:20:58 17.9 C 11.91 g/m*3 17.9 C 0 km/h
2766 13-07-2009 01:32:58 17.9 C 12.06 g/m*3 17.9 C 0 km/h
2767 13-07-2009 01:44:58 17.7 C 11.92 g/m*3 17.7 C 0 km/h
2768 13-07-2009 01:56:58 17.3 C 11.93 g/m*3 17.3 C 0 km/h
2769 13-07-2009 02:08:58 17.2 C 12.01 g/m*3 17.2 C 0 km/h
2770 13-07-2009 02:20:58 17.4 C 12.15 g/m*3 17.4 C 0 km/h
2771 13-07-2009 02:32:58 17.3 C 12.08 g/m*3 17.3 C 0 km/h
2772 13-07-2009 02:44:58 17.3 C 12.08 g/m*3 17.3 C 0 km/h
2773 13-07-2009 02:56:58 17.2 C 11.86 g/m*3 17.2 C 0 km/h
2774 13-07-2009 03:08:58 17.3 C 11.93 g/m*3 17.3 C 0 km/h
2775 13-07-2009 03:20:58 17.4 C 12 g/m*3 17.4 C 0 km/h
Sensor: Nr:Datum:Temp:Abs-Feuchte:Windchill:Wind:
Aussen-T/F 2776 13-07-2009 03:32:58 17.3 C 11.93 g/m*3 17.3 C 0 km/h
2777 13-07-2009 03:44:58 17.4 C 12 g/m*3 17.4 C 0 km/h
2778 13-07-2009 03:56:58 17.4 C 11.86 g/m*3 17.4 C 0 km/h
2779 13-07-2009 04:08:58 17.4 C 11.86 g/m*3 17.4 C 0 km/h
2780 13-07-2009 04:20:58 17.4 C 11.86 g/m*3 17.4 C 0 km/h
2781 13-07-2009 04:32:58 17.3 C 11.93 g/m*3 17.3 C 0 km/h
2782 13-07-2009 04:44:58 17.4 C 12.15 g/m*3 17.4 C 0 km/h
2783 13-07-2009 04:56:59 17.4 C 12.15 g/m*3 17.4 C 0 km/h
2784 13-07-2009 05:08:59 17.2 C 12.01 g/m*3 17.2 C 0 km/h
2785 13-07-2009 05:20:59 17 C 12.15 g/m*3 17 C 0 km/h
2786 13-07-2009 05:32:59 16.7 C 12.36 g/m*3 16.7 C 0 km/h
2787 13-07-2009 05:44:59 16.6 C 12.57 g/m*3 16.6 C 0 km/h
2788 13-07-2009 05:56:59 16.6 C 12.71 g/m*3 16.6 C 0 km/h
2789 13-07-2009 06:08:59 16.5 C 12.78 g/m*3 16.5 C 0 km/h
2790 13-07-2009 06:20:59 16.3 C 12.62 g/m*3 16.3 C 0 km/h
2791 13-07-2009 06:32:59 16.4 C 12.84 g/m*3 16.4 C 0 km/h
2792 13-07-2009 06:44:59 16.4 C 12.84 g/m*3 16.4 C 0 km/h
2793 13-07-2009 06:56:59 16.5 C 12.92 g/m*3 16.5 C 0 km/h
2794 13-07-2009 07:07:59 16.8 C 13.3 g/m*3 16.8 C 0 km/h
2795 13-07-2009 07:19:59 17.2 C 13.47 g/m*3 17.2 C 0 km/h
2796 13-07-2009 07:31:59 17.6 C 13.95 g/m*3 17.6 C 0 km/h
2797 13-07-2009 07:43:59 17.6 C 13.8 g/m*3 17.6 C 0 km/h
2798 13-07-2009 07:55:59 17.3 C 13.55 g/m*3 17.3 C 0 km/h
2799 13-07-2009 08:08:57 17.4 C 13.49 g/m*3 17.4 C 0 km/h
2800 13-07-2009 08:20:56 17.7 C 13.73 g/m*3 17.7 C 0 km/h
Sensor: Nr:Datum:Temp:Abs-Feuchte:Windchill:Wind:
Aussen-T/F 2801 13-07-2009 08:32:56 17.7 C 13.58 g/m*3 17.7 C 0 km/h
2802 13-07-2009 08:44:56 17.9 C 13.59 g/m*3 17.9 C 0 km/h
2803 13-07-2009 08:56:56 18.4 C 13.84 g/m*3 18.4 C 0 km/h
2804 13-07-2009 09:08:56 19.1 C 14.26 g/m*3 19.1 C 0 km/h
2805 13-07-2009 09:20:55 19 C 13.53 g/m*3 19 C 0 km/h
2806 13-07-2009 09:32:56 19.5 C 13.59 g/m*3 19.5 C 0 km/h
2807 13-07-2009 09:44:56 19.3 C 12.61 g/m*3 19.3 C 0 km/h
2808 13-07-2009 09:56:57 20.6 C 13.6 g/m*3 20.6 C 0 km/h
2809 13-07-2009 10:08:55 20.5 C 12.63 g/m*3 20.5 C 0 km/h
2810 13-07-2009 10:20:55 20.7 C 13.14 g/m*3 20.7 C 0 km/h
2811 13-07-2009 10:32:55 21.4 C 13.5 g/m*3 21.4 C 0 km/h
2812 13-07-2009 10:44:55 21.9 C 12.93 g/m*3 21.9 C 0 km/h
2813 13-07-2009 10:56:55 21.2 C 11.68 g/m*3 21.2 C 0 km/h
2814 13-07-2009 11:08:55 21.2 C 10.93 g/m*3 21.2 C 0 km/h
2815 13-07-2009 11:20:54 21.9 C 10.23 g/m*3 21.9 C 0 km/h
2816 13-07-2009 11:32:55 22.5 C 9.39 g/m*3 22.5 C 0 km/h
2817 13-07-2009 11:44:54 23.2 C 8.73 g/m*3 23.2 C 0 km/h
2818 13-07-2009 11:56:54 24.3 C 8.19 g/m*3 24.3 C 0 km/h
2819 13-07-2009 12:08:54 24.1 C 8.31 g/m*3 24.1 C 0 km/h
2820 13-07-2009 12:20:54 24.3 C 7.97 g/m*3 24.3 C 0 km/h
2821 13-07-2009 12:32:54 24.9 C 7.55 g/m*3 24.9 C 0 km/h
2822 13-07-2009 12:44:54 26.1 C 7.59 g/m*3 26.1 C 0 km/h
2823 13-07-2009 12:56:54 26.7 C 7.34 g/m*3 26.7 C 0 km/h
2824 13-07-2009 13:08:54 27.7 C 7.22 g/m*3 27.7 C 0 km/h
2825 13-07-2009 13:20:54 27.7 C 6.69 g/m*3 27.7 C 0 km/h
Sensor: Nr:Datum:Temp:Abs-Feuchte:Windchill:Wind:
Aussen-T/F 2826 13-07-2009 13:32:53 29.5 C 6.79 g/m*3 29.5 C 0 km/h
2827 13-07-2009 13:44:53 28.2 C 7.15 g/m*3 28.2 C 0 km/h
2828 13-07-2009 13:56:53 26.7 C 6.58 g/m*3 26.7 C 0 km/h
2829 13-07-2009 14:08:53 27.9 C 6.76 g/m*3 27.9 C 0 km/h
2830 13-07-2009 14:20:53 27.8 C 6.99 g/m*3 27.8 C 0 km/h
2831 13-07-2009 14:32:53 27.8 C 6.99 g/m*3 27.8 C 0 km/h
2832 13-07-2009 14:44:53 28.4 C 7.23 g/m*3 28.4 C 0 km/h
2833 13-07-2009 14:56:53 28.1 C 6.84 g/m*3 28.1 C 0 km/h
2834 13-07-2009 15:08:53 28.3 C 6.91 g/m*3 28.3 C 0 km/h
2835 13-07-2009 15:20:52 28.4 C 7.23 g/m*3 28.4 C 0 km/h
2836 13-07-2009 15:32:52 29.2 C 7.55 g/m*3 29.2 C 0 km/h
2837 13-07-2009 15:44:52 29.3 C 7.3 g/m*3 29.3 C 0 km/h
2838 13-07-2009 15:56:52 29 C 8.62 g/m*3 29 C 0 km/h
2839 13-07-2009 16:08:52 29.6 C 7.42 g/m*3 29.6 C 0 km/h
2840 13-07-2009 16:20:51 29.5 C 9.15 g/m*3 29.5 C 0 km/h
2841 13-07-2009 16:32:02 30.1 C 9.15 g/m*3 30.1 C 0 km/h
2842 13-07-2009 16:44:02 30 C 6.67 g/m*3 30 C 0 km/h
2843 13-07-2009 16:56:01 29.8 C 9 g/m*3 29.8 C 0 km/h
2844 13-07-2009 17:08:02 29.1 C 9.24 g/m*3 29.1 C 0 km/h
2845 13-07-2009 17:20:01 28.9 C 10 g/m*3 28.9 C 0 km/h
2846 13-07-2009 17:32:01 28.2 C 9.9 g/m*3 28.2 C 0 km/h
2847 13-07-2009 17:44:01 29.3 C 9.63 g/m*3 29.3 C 0 km/h
2848 13-07-2009 17:56:01 29.3 C 9.93 g/m*3 29.3 C 0 km/h
2849 13-07-2009 18:08:01 28.3 C 10.23 g/m*3 28.3 C 0 km/h
2850 13-07-2009 18:20:00 27.3 C 10.47 g/m*3 27.3 C 0 km/h
Sensor: Nr:Datum:Temp:Abs-Feuchte:Windchill:Wind:
Aussen-T/F 2851 13-07-2009 18:32:01 26.4 C 10.95 g/m*3 26.4 C 0 km/h
2852 13-07-2009 18:44:01 25.6 C 11.43 g/m*3 25.6 C 0 km/h
2853 13-07-2009 18:56:01 25.2 C 11.64 g/m*3 25.2 C 0 km/h
2854 13-07-2009 19:08:00 24.7 C 11.77 g/m*3 24.7 C 0 km/h
2855 13-07-2009 19:20:00 24.3 C 11.06 g/m*3 24.3 C 0 km/h
2856 13-07-2009 19:32:01 23.7 C 13.05 g/m*3 23.7 C 0 km/h
2857 13-07-2009 19:44:01 21.7 C 13.73 g/m*3 21.7 C 0 km/h
2858 13-07-2009 19:56:00 21.6 C 13.85 g/m*3 21.6 C 0 km/h
2859 13-07-2009 20:08:59 21.6 C 13.66 g/m*3 21.6 C 0 km/h
2860 13-07-2009 20:20:00 21.7 C 13.73 g/m*3 21.7 C 0 km/h
2861 13-07-2009 20:32:00 21.9 C 13.7 g/m*3 21.9 C 0 km/h
2862 13-07-2009 20:44:00 21.8 C 13.62 g/m*3 21.8 C 0 km/h
2863 13-07-2009 20:56:59 21.9 C 13.31 g/m*3 21.9 C 0 km/h
2864 13-07-2009 21:08:59 22 C 13.2 g/m*3 22 C 0 km/h
2865 13-07-2009 21:20:59 22.3 C 12.83 g/m*3 22.3 C 0 km/h
2866 13-07-2009 21:32:59 22.4 C 12.91 g/m*3 22.4 C 0 km/h
2867 13-07-2009 21:44:59 22.2 C 12.76 g/m*3 22.2 C 0 km/h
2868 13-07-2009 21:56:59 22.2 C 12.96 g/m*3 22.2 C 0 km/h
2869 13-07-2009 22:09:01 21.4 C 13.5 g/m*3 21.4 C 0 km/h
2870 13-07-2009 22:21:01 20.6 C 13.78 g/m*3 20.6 C 0 km/h
2871 13-07-2009 22:33:01 20.2 C 14.16 g/m*3 20.2 C 0 km/h
2872 13-07-2009 22:45:01 20 C 14.34 g/m*3 20 C 0 km/h
2873 13-07-2009 22:57:01 19.7 C 14.26 g/m*3 19.7 C 0 km/h
2874 13-07-2009 23:09:01 19.7 C 14.26 g/m*3 19.7 C 0 km/h
2875 13-07-2009 23:21:02 20 C 14.52 g/m*3 20 C 0 km/h
Sensor: Nr:Datum:Temp:Abs-Feuchte:Windchill:Wind:
Aussen-T/F 2876 13-07-2009 23:33:02 20 C 14.34 g/m*3 20 C 0 km/h
2877 13-07-2009 23:45:02 19.9 C 14.43 g/m*3 19.9 C 0 km/h
2878 13-07-2009 23:57:02 19.6 C 14.18 g/m*3 19.6 C 0 km/h
2879 14-07-2009 00:09:02 19.7 C 14.09 g/m*3 19.7 C 0 km/h
2880 14-07-2009 00:21:02 19.7 C 13.92 g/m*3 19.7 C 0 km/h
2881 14-07-2009 00:33:02 19.4 C 13.85 g/m*3 19.4 C 0 km/h
2882 14-07-2009 00:45:02 19.2 C 13.85 g/m*3 19.2 C 0 km/h
2883 14-07-2009 00:57:02 19 C 13.85 g/m*3 19 C 0 km/h
2884 14-07-2009 01:09:02 18.9 C 14.09 g/m*3 18.9 C 0 km/h
2885 14-07-2009 01:21:02 18.9 C 14.26 g/m*3 18.9 C 0 km/h
2886 14-07-2009 01:33:02 18.8 C 14.33 g/m*3 18.8 C 0 km/h
2887 14-07-2009 01:45:02 18.7 C 14.25 g/m*3 18.7 C 0 km/h
2888 14-07-2009 01:57:02 18.7 C 14.41 g/m*3 18.7 C 0 km/h
2889 14-07-2009 02:09:02 18.7 C 14.41 g/m*3 18.7 C 0 km/h
2890 14-07-2009 02:21:02 18.6 C 14.48 g/m*3 18.6 C 0 km/h
2891 14-07-2009 02:33:02 18.9 C 14.74 g/m*3 18.9 C 0 km/h
2892 14-07-2009 02:45:02 18.8 C 14.66 g/m*3 18.8 C 0 km/h
2893 14-07-2009 02:57:02 18.7 C 14.57 g/m*3 18.7 C 0 km/h
2894 14-07-2009 03:09:02 18.7 C 14.57 g/m*3 18.7 C 0 km/h
2895 14-07-2009 03:32:03 18.7 C 14.57 g/m*3 18.7 C 0 km/h
2896 14-07-2009 03:44:03 18.9 C 14.9 g/m*3 18.9 C 0 km/h
2897 14-07-2009 03:56:03 18.9 C 14.9 g/m*3 18.9 C 0 km/h
2898 14-07-2009 04:08:03 18.8 C 14.82 g/m*3 18.8 C 0 km/h
2899 14-07-2009 04:20:03 18.6 C 14.48 g/m*3 18.6 C 0 km/h
2900 14-07-2009 04:32:03 18.7 C 14.73 g/m*3 18.7 C 0 km/h
Sensor: Nr:Datum:Temp:Abs-Feuchte:Windchill:Wind:
Aussen-T/F 2901 14-07-2009 04:44:03 18.8 C 14.82 g/m*3 18.8 C 0 km/h
2902 14-07-2009 04:56:03 18.7 C 14.73 g/m*3 18.7 C 0 km/h
2903 14-07-2009 05:08:03 18.7 C 14.73 g/m*3 18.7 C 0 km/h
2904 14-07-2009 05:20:03 18.8 C 14.66 g/m*3 18.8 C 0 km/h
2905 14-07-2009 05:32:03 18.7 C 14.57 g/m*3 18.7 C 0 km/h
2906 14-07-2009 05:44:03 18.7 C 14.57 g/m*3 18.7 C 0 km/h
2907 14-07-2009 05:56:03 18.7 C 14.57 g/m*3 18.7 C 0 km/h
2908 14-07-2009 06:08:03 18.7 C 14.73 g/m*3 18.7 C 0 km/h
2909 14-07-2009 06:20:03 18.6 C 14.48 g/m*3 18.6 C 0 km/h
2910 14-07-2009 06:32:03 18.6 C 14.64 g/m*3 18.6 C 0 km/h
2911 14-07-2009 06:44:03 18.6 C 14.64 g/m*3 18.6 C 0 km/h
2912 14-07-2009 06:56:03 18.6 C 14.64 g/m*3 18.6 C 0 km/h
2913 14-07-2009 07:08:03 18.9 C 14.9 g/m*3 18.9 C 0 km/h
2914 14-07-2009 07:20:04 19.1 C 14.92 g/m*3 19.1 C 0 km/h
2915 14-07-2009 07:32:04 19.1 C 14.92 g/m*3 19.1 C 0 km/h
2916 14-07-2009 07:44:04 19.2 C 15.01 g/m*3 19.2 C 0 km/h
2917 14-07-2009 07:45:01 19.1 C 14.75 g/m*3 19.1 C 0 km/h
2918 14-07-2009 07:57:01 19.1 C 14.75 g/m*3 19.1 C 0 km/h
2919 14-07-2009 08:09:02 19.2 C 14.84 g/m*3 19.2 C 0 km/h
2920 14-07-2009 08:21:01 19.5 C 14.94 g/m*3 19.5 C 0 km/h
2921 14-07-2009 08:33:01 19.6 C 14.86 g/m*3 19.6 C 0 km/h
2922 14-07-2009 08:45:01 20 C 15.04 g/m*3 20 C 0 km/h
2923 14-07-2009 08:57:01 20.3 C 14.95 g/m*3 20.3 C 0 km/h
2924 14-07-2009 09:09:01 20.6 C 14.86 g/m*3 20.6 C 0 km/h
2925 14-07-2009 09:21:02 21 C 14.84 g/m*3 21 C 0 km/h
Sensor: Nr:Datum:Temp:Abs-Feuchte:Windchill:Wind:
Aussen-T/F 2926 14-07-2009 09:33:01 21.5 C 14.71 g/m*3 21.5 C 0 km/h
2927 14-07-2009 09:45:02 21.6 C 14.03 g/m*3 21.6 C 0 km/h
2928 14-07-2009 09:57:02 21.9 C 14.28 g/m*3 21.9 C 0 km/h
2929 14-07-2009 10:09:01 22 C 13.78 g/m*3 22 C 0 km/h
2930 14-07-2009 10:21:01 21.3 C 13.79 g/m*3 21.3 C 0 km/h
2931 14-07-2009 10:33:01 21.1 C 14.19 g/m*3 21.1 C 0 km/h
2932 14-07-2009 10:45:01 21.6 C 14.41 g/m*3 21.6 C 0 km/h
2933 14-07-2009 10:57:01 22 C 13.39 g/m*3 22 C 0 km/h
2934 14-07-2009 11:09:01 23.1 C 13.64 g/m*3 23.1 C 0 km/h
2935 14-07-2009 11:21:01 22.9 C 13.08 g/m*3 22.9 C 0 km/h
2936 14-07-2009 11:33:02 23.4 C 13.46 g/m*3 23.4 C 0 km/h
2937 14-07-2009 11:45:01 23.4 C 12.62 g/m*3 23.4 C 0 km/h
2938 14-07-2009 11:57:01 24.3 C 12.83 g/m*3 24.3 C 0 km/h
2939 14-07-2009 12:09:02 24.3 C 11.51 g/m*3 24.3 C 0 km/h
2940 14-07-2009 12:21:01 25.2 C 11.87 g/m*3 25.2 C 0 km/h
2941 14-07-2009 12:33:01 26.3 C 11.14 g/m*3 26.3 C 0 km/h
2942 14-07-2009 12:45:01 26.7 C 11.64 g/m*3 26.7 C 0 km/h
2943 14-07-2009 12:57:01 27.9 C 10.82 g/m*3 27.9 C 0 km/h
2944 14-07-2009 13:09:01 27.4 C 10.79 g/m*3 27.4 C 0 km/h
2945 14-07-2009 13:21:02 27.4 C 10.52 g/m*3 27.4 C 0 km/h
2946 14-07-2009 13:33:01 28.7 C 10.46 g/m*3 28.7 C 0 km/h
2947 14-07-2009 13:45:02 27.3 C 9.94 g/m*3 27.3 C 0 km/h
2948 14-07-2009 13:57:02 28 C 9.79 g/m*3 28 C 0 km/h
2949 14-07-2009 14:09:01 28.1 C 9.57 g/m*3 28.1 C 0 km/h
2950 14-07-2009 14:21:02 27.9 C 10.28 g/m*3 27.9 C 0 km/h
Sensor: Nr:Datum:Temp:Abs-Feuchte:Windchill:Wind:
Aussen-T/F 2951 14-07-2009 14:33:01 27.6 C 10.38 g/m*3 27.6 C 0 km/h
2952 14-07-2009 14:45:01 27.2 C 10.15 g/m*3 27.2 C 0 km/h
2953 14-07-2009 14:57:02 26.9 C 10.49 g/m*3 26.9 C 0 km/h
2954 14-07-2009 15:09:01 27.4 C 10.79 g/m*3 27.4 C 0 km/h
2955 14-07-2009 15:21:01 28.1 C 9.84 g/m*3 28.1 C 0 km/h
2956 14-07-2009 15:33:02 28.3 C 10.23 g/m*3 28.3 C 0 km/h
2957 14-07-2009 15:45:01 28.6 C 10.12 g/m*3 28.6 C 0 km/h
2958 14-07-2009 15:57:01 29.4 C 9.98 g/m*3 29.4 C 0 km/h
2959 14-07-2009 16:09:02 29.1 C 9.82 g/m*3 29.1 C 0 km/h
2960 14-07-2009 16:21:01 28.5 C 9.78 g/m*3 28.5 C 0 km/h
2961 14-07-2009 16:33:01 29 C 9.48 g/m*3 29 C 0 km/h
2962 14-07-2009 16:45:01 29.5 C 10.03 g/m*3 29.5 C 0 km/h
2963 14-07-2009 16:57:01 29 C 9.77 g/m*3 29 C 0 km/h
2964 14-07-2009 17:09:01 28.7 C 10.17 g/m*3 28.7 C 0 km/h
2965 14-07-2009 17:21:02 28.5 C 10.06 g/m*3 28.5 C 0 km/h
2966 14-07-2009 17:33:01 29.9 C 9.65 g/m*3 29.9 C 0 km/h
2967 14-07-2009 17:45:02 28.6 C 10.12 g/m*3 28.6 C 0 km/h
2968 14-07-2009 17:57:02 27.8 C 10.22 g/m*3 27.8 C 0 km/h
2969 14-07-2009 18:09:01 27.6 C 10.11 g/m*3 27.6 C 0 km/h
2970 14-07-2009 18:21:02 28.8 C 9.94 g/m*3 28.8 C 0 km/h
2971 14-07-2009 18:33:01 30.1 C 9.76 g/m*3 30.1 C 0 km/h
2972 14-07-2009 18:45:01 30.3 C 9.86 g/m*3 30.3 C 0 km/h
2973 14-07-2009 18:57:02 29.3 C 9.34 g/m*3 29.3 C 0 km/h
2974 14-07-2009 19:09:01 28.4 C 10.01 g/m*3 28.4 C 0 km/h
2975 14-07-2009 19:21:01 28.2 C 10.45 g/m*3 28.2 C 0 km/h
Sensor: Nr:Datum:Temp:Abs-Feuchte:Windchill:Wind:
Aussen-T/F 2976 14-07-2009 19:33:02 30.1 C 9.76 g/m*3 30.1 C 0 km/h
2977 14-07-2009 19:45:01 30.3 C 9.86 g/m*3 30.3 C 0 km/h
2978 14-07-2009 19:57:01 30 C 9.7 g/m*3 30 C 0 km/h
2979 14-07-2009 20:09:02 28.7 C 10.17 g/m*3 28.7 C 0 km/h
2980 14-07-2009 20:21:01 29.4 C 10.27 g/m*3 29.4 C 0 km/h
2981 14-07-2009 20:33:01 29.2 C 10.16 g/m*3 29.2 C 0 km/h
2982 14-07-2009 20:45:01 28.2 C 10.72 g/m*3 28.2 C 0 km/h
2983 14-07-2009 20:57:01 27.7 C 11.23 g/m*3 27.7 C 0 km/h
2984 14-07-2009 21:09:01 26.7 C 11.39 g/m*3 26.7 C 0 km/h
2985 14-07-2009 21:21:01 25.8 C 11.8 g/m*3 25.8 C 0 km/h
2986 14-07-2009 21:33:02 24.8 C 11.84 g/m*3 24.8 C 0 km/h
2987 14-07-2009 21:45:01 24.1 C 11.82 g/m*3 24.1 C 0 km/h
2988 14-07-2009 21:57:01 23.4 C 11.99 g/m*3 23.4 C 0 km/h
2989 14-07-2009 22:10:53 22.9 C 12.26 g/m*3 22.9 C 0 km/h
2990 14-07-2009 22:22:53 22.7 C 12.53 g/m*3 22.7 C 0 km/h
2991 14-07-2009 22:34:53 22.7 C 12.53 g/m*3 22.7 C 0 km/h
2992 14-07-2009 22:46:53 22.6 C 12.66 g/m*3 22.6 C 0 km/h
2993 14-07-2009 22:58:53 22.5 C 12.98 g/m*3 22.5 C 0 km/h
2994 14-07-2009 23:10:53 22.4 C 12.91 g/m*3 22.4 C 0 km/h
2995 14-07-2009 23:22:53 22.2 C 12.96 g/m*3 22.2 C 0 km/h
2996 14-07-2009 23:34:53 22 C 13 g/m*3 22 C 0 km/h
2997 14-07-2009 23:46:53 22.2 C 12.96 g/m*3 22.2 C 0 km/h
2998 14-07-2009 23:58:53 22.4 C 12.91 g/m*3 22.4 C 0 km/h
2999 15-07-2009 00:10:53 22.9 C 13.08 g/m*3 22.9 C 0 km/h
3000 15-07-2009 00:22:53 22.7 C 12.73 g/m*3 22.7 C 0 km/h
Sensor: Nr:Datum:Temp:Abs-Feuchte:Windchill:Wind:
Aussen-T/F 3001 15-07-2009 00:34:54 22.3 C 12.44 g/m*3 22.3 C 0 km/h
3002 15-07-2009 00:46:54 22.1 C 12.3 g/m*3 22.1 C 0 km/h
3003 15-07-2009 00:58:54 22 C 12.42 g/m*3 22 C 0 km/h
3004 15-07-2009 01:10:54 21.8 C 12.66 g/m*3 21.8 C 0 km/h
3005 15-07-2009 01:22:54 21.7 C 12.78 g/m*3 21.7 C 0 km/h
3006 15-07-2009 01:34:54 21.5 C 12.82 g/m*3 21.5 C 0 km/h
3007 15-07-2009 01:46:54 21.4 C 12.75 g/m*3 21.4 C 0 km/h
3008 15-07-2009 01:58:54 21.2 C 12.79 g/m*3 21.2 C 0 km/h
3009 15-07-2009 02:10:54 21.2 C 12.79 g/m*3 21.2 C 0 km/h
3010 15-07-2009 02:22:54 20.9 C 12.57 g/m*3 20.9 C 0 km/h
3011 15-07-2009 02:34:54 20.9 C 12.57 g/m*3 20.9 C 0 km/h
3012 15-07-2009 02:46:54 21.1 C 11.98 g/m*3 21.1 C 0 km/h
3013 15-07-2009 02:58:54 21 C 11.91 g/m*3 21 C 0 km/h
3014 15-07-2009 03:10:54 21 C 11.72 g/m*3 21 C 0 km/h
3015 15-07-2009 03:22:54 20.9 C 12.02 g/m*3 20.9 C 0 km/h
3016 15-07-2009 03:34:54 20.6 C 11.99 g/m*3 20.6 C 0 km/h
3017 15-07-2009 03:46:54 20.5 C 12.1 g/m*3 20.5 C 0 km/h
3018 15-07-2009 03:58:54 20.5 C 11.74 g/m*3 20.5 C 0 km/h
3019 15-07-2009 04:10:54 20.5 C 11.57 g/m*3 20.5 C 0 km/h
3020 15-07-2009 04:22:55 20.4 C 11.5 g/m*3 20.4 C 0 km/h
3021 15-07-2009 04:34:55 20.1 C 11.3 g/m*3 20.1 C 0 km/h
3022 15-07-2009 04:46:55 19.7 C 11.55 g/m*3 19.7 C 0 km/h
3023 15-07-2009 04:58:55 19.5 C 11.58 g/m*3 19.5 C 0 km/h
3024 15-07-2009 05:10:55 19.7 C 11.72 g/m*3 19.7 C 0 km/h
3025 15-07-2009 05:22:55 19.8 C 11.61 g/m*3 19.8 C 0 km/h
Sensor: Nr:Datum:Temp:Abs-Feuchte:Windchill:Wind:
Aussen-T/F 3026 15-07-2009 05:34:55 19.9 C 11.68 g/m*3 19.9 C 0 km/h
3027 15-07-2009 05:46:55 19.9 C 11.68 g/m*3 19.9 C 0 km/h
3028 15-07-2009 05:58:55 19.9 C 11.68 g/m*3 19.9 C 0 km/h
3029 15-07-2009 06:10:55 19.9 C 11.68 g/m*3 19.9 C 0 km/h
3030 15-07-2009 06:22:55 19.9 C 11.68 g/m*3 19.9 C 0 km/h
3031 15-07-2009 06:34:55 19.8 C 11.79 g/m*3 19.8 C 0 km/h
3032 15-07-2009 06:46:52 19.7 C 11.72 g/m*3 19.7 C 0 km/h
3033 15-07-2009 06:58:52 19.9 C 11.85 g/m*3 19.9 C 0 km/h
3034 15-07-2009 07:10:52 20 C 11.75 g/m*3 20 C 0 km/h
3035 15-07-2009 07:22:52 20.2 C 12.06 g/m*3 20.2 C 0 km/h
3036 15-07-2009 07:34:51 20.7 C 12.06 g/m*3 20.7 C 0 km/h
3037 15-07-2009 07:46:52 21 C 11.54 g/m*3 21 C 0 km/h
3038 15-07-2009 07:58:52 20.9 C 11.66 g/m*3 20.9 C 0 km/h
3039 15-07-2009 08:10:51 20.8 C 11.59 g/m*3 20.8 C 0 km/h
3040 15-07-2009 08:22:51 20.8 C 11.59 g/m*3 20.8 C 0 km/h
3041 15-07-2009 08:34:51 20.8 C 11.23 g/m*3 20.8 C 0 km/h
3042 15-07-2009 08:46:51 21 C 11.17 g/m*3 21 C 0 km/h
3043 15-07-2009 08:58:51 21.6 C 11.19 g/m*3 21.6 C 0 km/h
3044 15-07-2009 09:10:51 21.9 C 11.19 g/m*3 21.9 C 0 km/h
3045 15-07-2009 09:22:50 22 C 11.26 g/m*3 22 C 0 km/h
3046 15-07-2009 09:34:51 21.8 C 11.13 g/m*3 21.8 C 0 km/h
3047 15-07-2009 09:46:50 22.4 C 11.32 g/m*3 22.4 C 0 km/h
3048 15-07-2009 09:58:50 22.7 C 11.31 g/m*3 22.7 C 0 km/h
3049 15-07-2009 10:10:50 23.1 C 10.96 g/m*3 23.1 C 0 km/h
3050 15-07-2009 10:22:50 23.4 C 11.14 g/m*3 23.4 C 0 km/h
Sensor: Nr:Datum:Temp:Abs-Feuchte:Windchill:Wind:
Aussen-T/F 3051 15-07-2009 10:34:50 23.4 C 10.93 g/m*3 23.4 C 0 km/h
3052 15-07-2009 10:46:50 23.8 C 11.19 g/m*3 23.8 C 0 km/h
3053 15-07-2009 10:58:50 24.1 C 10.72 g/m*3 24.1 C 0 km/h
3054 15-07-2009 11:10:50 24.3 C 10.62 g/m*3 24.3 C 0 km/h
3055 15-07-2009 11:22:50 25 C 10.59 g/m*3 25 C 0 km/h
3056 15-07-2009 11:34:49 25 C 10.36 g/m*3 25 C 0 km/h
3057 15-07-2009 11:46:50 25.1 C 9.95 g/m*3 25.1 C 0 km/h
3058 15-07-2009 11:58:50 25.4 C 9.89 g/m*3 25.4 C 0 km/h
3059 15-07-2009 12:10:49 25.6 C 9.28 g/m*3 25.6 C 0 km/h
3060 15-07-2009 12:22:49 26 C 8.76 g/m*3 26 C 0 km/h
3061 15-07-2009 12:34:49 26.9 C 8.45 g/m*3 26.9 C 0 km/h
3062 15-07-2009 12:46:49 27.7 C 8.29 g/m*3 27.7 C 0 km/h
3063 15-07-2009 12:58:49 28 C 7.89 g/m*3 28 C 0 km/h
3064 15-07-2009 13:10:49 27.6 C 7.71 g/m*3 27.6 C 0 km/h
3065 15-07-2009 13:22:48 28.1 C 7.93 g/m*3 28.1 C 0 km/h
3066 15-07-2009 13:34:49 29 C 7.76 g/m*3 29 C 0 km/h
3067 15-07-2009 13:46:48 28.7 C 7.35 g/m*3 28.7 C 0 km/h
3068 15-07-2009 13:58:48 28.4 C 6.95 g/m*3 28.4 C 0 km/h
3069 15-07-2009 14:10:48 28.2 C 6.87 g/m*3 28.2 C 0 km/h
3070 15-07-2009 14:22:47 28 C 7.07 g/m*3 28 C 0 km/h
3071 15-07-2009 14:34:48 28.3 C 7.19 g/m*3 28.3 C 0 km/h
3072 15-07-2009 14:46:47 28.2 C 6.87 g/m*3 28.2 C 0 km/h
3073 15-07-2009 14:58:47 29.1 C 7.22 g/m*3 29.1 C 0 km/h
3074 15-07-2009 15:10:47 29.4 C 6.75 g/m*3 29.4 C 0 km/h
3075 15-07-2009 15:22:48 30.1 C 6.71 g/m*3 30.1 C 0 km/h
Sensor: Nr:Datum:Temp:Abs-Feuchte:Windchill:Wind:
Aussen-T/F 3076 15-07-2009 15:34:47 30.3 C 6.78 g/m*3 30.3 C 0 km/h
3077 15-07-2009 15:46:47 29.7 C 6.27 g/m*3 29.7 C 0 km/h
3078 15-07-2009 15:58:47 29.4 C 6.75 g/m*3 29.4 C 0 km/h
3079 15-07-2009 16:10:47 29.8 C 6.9 g/m*3 29.8 C 0 km/h
3080 15-07-2009 16:22:47 29.8 C 7.2 g/m*3 29.8 C 0 km/h
3081 15-07-2009 16:34:46 29.6 C 6.53 g/m*3 29.6 C 0 km/h
3082 15-07-2009 16:46:47 29.4 C 7.05 g/m*3 29.4 C 0 km/h
3083 15-07-2009 16:58:47 28.9 C 6.86 g/m*3 28.9 C 0 km/h
3084 15-07-2009 17:10:47 29.3 C 6.72 g/m*3 29.3 C 0 km/h
3085 15-07-2009 17:22:46 28.9 C 6.57 g/m*3 28.9 C 0 km/h
3086 15-07-2009 17:34:46 29.1 C 6.64 g/m*3 29.1 C 0 km/h
3087 15-07-2009 17:46:46 28.5 C 6.71 g/m*3 28.5 C 0 km/h
3088 15-07-2009 17:58:46 28.5 C 6.99 g/m*3 28.5 C 0 km/h
3089 15-07-2009 18:10:46 28 C 6.8 g/m*3 28 C 0 km/h
3090 15-07-2009 18:22:45 27.9 C 7.3 g/m*3 27.9 C 0 km/h
3091 15-07-2009 18:34:46 27.5 C 6.88 g/m*3 27.5 C 0 km/h
3092 15-07-2009 18:46:45 28.1 C 6.56 g/m*3 28.1 C 0 km/h
3093 15-07-2009 18:58:45 28.6 C 6.74 g/m*3 28.6 C 0 km/h
3094 15-07-2009 19:10:45 27.8 C 6.99 g/m*3 27.8 C 0 km/h
3095 15-07-2009 19:22:45 27.7 C 6.95 g/m*3 27.7 C 0 km/h
3096 15-07-2009 19:34:45 28.4 C 6.95 g/m*3 28.4 C 0 km/h
3097 15-07-2009 19:46:45 28.5 C 6.99 g/m*3 28.5 C 0 km/h
3098 15-07-2009 19:58:45 28.4 C 6.95 g/m*3 28.4 C 0 km/h
3099 15-07-2009 20:10:44 28.1 C 6.84 g/m*3 28.1 C 0 km/h
3100 15-07-2009 20:22:45 27.8 C 6.72 g/m*3 27.8 C 0 km/h
Sensor: Nr:Datum:Temp:Abs-Feuchte:Windchill:Wind:
Aussen-T/F 3101 15-07-2009 20:34:44 26.9 C 7.42 g/m*3 26.9 C 0 km/h
3102 15-07-2009 20:46:44 26.1 C 6.85 g/m*3 26.1 C 0 km/h
3103 15-07-2009 20:58:44 25.4 C 7.53 g/m*3 25.4 C 0 km/h
3104 15-07-2009 21:10:44 24.8 C 7.74 g/m*3 24.8 C 0 km/h
3105 15-07-2009 21:22:44 24.1 C 7.88 g/m*3 24.1 C 0 km/h
3106 15-07-2009 21:34:44 23.4 C 7.99 g/m*3 23.4 C 0 km/h
3107 15-07-2009 21:46:43 22.7 C 8.08 g/m*3 22.7 C 0 km/h
3108 15-07-2009 21:58:43 22.3 C 8.1 g/m*3 22.3 C 0 km/h
3109 15-07-2009 22:10:44 22 C 8.35 g/m*3 22 C 0 km/h
3110 15-07-2009 22:23:44 21.8 C 8.83 g/m*3 21.8 C 0 km/h
3111 15-07-2009 22:35:44 21.4 C 9.37 g/m*3 21.4 C 0 km/h
3112 15-07-2009 22:47:44 21.1 C 9.03 g/m*3 21.1 C 0 km/h
3113 15-07-2009 22:59:44 20.7 C 9 g/m*3 20.7 C 0 km/h
3114 15-07-2009 23:11:44 20.6 C 9.13 g/m*3 20.6 C 0 km/h
3115 15-07-2009 23:23:44 20.2 C 9.09 g/m*3 20.2 C 0 km/h
3116 15-07-2009 23:35:44 20 C 9.16 g/m*3 20 C 0 km/h
3117 15-07-2009 23:47:44 19.7 C 9.17 g/m*3 19.7 C 0 km/h
3118 15-07-2009 23:59:44 19.2 C 9.4 g/m*3 19.2 C 0 km/h
3119 16-07-2009 00:11:44 19.1 C 9.51 g/m*3 19.1 C 0 km/h
3120 16-07-2009 00:23:44 18.9 C 9.56 g/m*3 18.9 C 0 km/h
3121 16-07-2009 00:35:44 18.7 C 9.61 g/m*3 18.7 C 0 km/h
3122 16-07-2009 00:47:45 18.5 C 9.65 g/m*3 18.5 C 0 km/h
3123 16-07-2009 00:59:45 18.2 C 9.79 g/m*3 18.2 C 0 km/h
3124 16-07-2009 01:11:45 18 C 9.68 g/m*3 18 C 0 km/h
3125 16-07-2009 01:23:45 17.7 C 9.96 g/m*3 17.7 C 0 km/h
Sensor: Nr:Datum:Temp:Abs-Feuchte:Windchill:Wind:
Aussen-T/F 3126 16-07-2009 01:35:45 17.5 C 9.99 g/m*3 17.5 C 0 km/h
3127 16-07-2009 01:47:45 17.2 C 9.96 g/m*3 17.2 C 0 km/h
3128 16-07-2009 01:59:45 17.2 C 9.96 g/m*3 17.2 C 0 km/h
3129 16-07-2009 02:11:45 16.9 C 10.07 g/m*3 16.9 C 0 km/h
3130 16-07-2009 02:23:45 16.8 C 10.15 g/m*3 16.8 C 0 km/h
3131 16-07-2009 02:35:45 16.8 C 10.15 g/m*3 16.8 C 0 km/h
3132 16-07-2009 02:47:45 16.8 C 10.29 g/m*3 16.8 C 0 km/h
3133 16-07-2009 02:59:45 16.7 C 10.23 g/m*3 16.7 C 0 km/h
3134 16-07-2009 03:11:45 16.6 C 10.17 g/m*3 16.6 C 0 km/h
3135 16-07-2009 03:23:45 16.5 C 9.97 g/m*3 16.5 C 0 km/h
3136 16-07-2009 03:35:45 16.4 C 10.19 g/m*3 16.4 C 0 km/h
3137 16-07-2009 03:47:45 16.2 C 10.2 g/m*3 16.2 C 0 km/h
3138 16-07-2009 03:59:45 16.1 C 10.14 g/m*3 16.1 C 0 km/h
3139 16-07-2009 04:11:45 16 C 10.22 g/m*3 16 C 0 km/h
3140 16-07-2009 04:23:46 15.9 C 10.29 g/m*3 15.9 C 0 km/h
3141 16-07-2009 04:35:46 15.9 C 10.29 g/m*3 15.9 C 0 km/h
3142 16-07-2009 04:47:46 15.8 C 10.36 g/m*3 15.8 C 0 km/h
3143 16-07-2009 04:59:46 15.9 C 10.29 g/m*3 15.9 C 0 km/h
3144 16-07-2009 05:11:46 15.8 C 10.23 g/m*3 15.8 C 0 km/h
3145 16-07-2009 05:23:46 15.6 C 10.37 g/m*3 15.6 C 0 km/h
3146 16-07-2009 05:35:46 15.5 C 10.31 g/m*3 15.5 C 0 km/h
3147 16-07-2009 05:47:46 15.4 C 10.12 g/m*3 15.4 C 0 km/h
3148 16-07-2009 05:59:46 15.4 C 10.25 g/m*3 15.4 C 0 km/h
3149 16-07-2009 06:11:46 15.5 C 10.31 g/m*3 15.5 C 0 km/h
3150 16-07-2009 06:23:46 15.6 C 10.37 g/m*3 15.6 C 0 km/h
Sensor: Nr:Datum:Temp:Abs-Feuchte:Windchill:Wind:
Aussen-T/F 3151 16-07-2009 06:35:44 15.7 C 10.57 g/m*3 15.7 C 0 km/h
3152 16-07-2009 06:47:44 15.9 C 10.56 g/m*3 15.9 C 0 km/h
3153 16-07-2009 06:59:44 16.2 C 10.62 g/m*3 16.2 C 0 km/h
3154 16-07-2009 07:11:44 16.4 C 10.47 g/m*3 16.4 C 0 km/h
3155 16-07-2009 07:23:43 16.5 C 10.39 g/m*3 16.5 C 0 km/h
3156 16-07-2009 07:35:43 16.6 C 10.45 g/m*3 16.6 C 0 km/h
3157 16-07-2009 07:47:44 16.6 C 10.45 g/m*3 16.6 C 0 km/h
3158 16-07-2009 07:59:44 16.7 C 10.23 g/m*3 16.7 C 0 km/h
3159 16-07-2009 08:11:43 16.9 C 10.36 g/m*3 16.9 C 0 km/h
3160 16-07-2009 08:23:43 17.3 C 10.46 g/m*3 17.3 C 0 km/h
3161 16-07-2009 08:35:43 17.5 C 10.44 g/m*3 17.5 C 0 km/h
3162 16-07-2009 08:47:43 17.8 C 10.47 g/m*3 17.8 C 0 km/h
3163 16-07-2009 08:59:43 18.3 C 10.63 g/m*3 18.3 C 0 km/h
3164 16-07-2009 09:11:42 18.9 C 10.85 g/m*3 18.9 C 0 km/h
3165 16-07-2009 09:23:43 19.6 C 10.8 g/m*3 19.6 C 0 km/h
3166 16-07-2009 09:35:42 20.4 C 10.79 g/m*3 20.4 C 0 km/h
3167 16-07-2009 09:47:42 20.9 C 10.75 g/m*3 20.9 C 0 km/h
3168 16-07-2009 09:59:42 21.6 C 10.62 g/m*3 21.6 C 0 km/h
3169 16-07-2009 10:11:42 22.3 C 10.47 g/m*3 22.3 C 0 km/h
3170 16-07-2009 10:23:42 22.8 C 10.57 g/m*3 22.8 C 0 km/h
3171 16-07-2009 10:35:42 23.4 C 10.51 g/m*3 23.4 C 0 km/h
3172 16-07-2009 10:47:42 23.9 C 9.74 g/m*3 23.9 C 0 km/h
3173 16-07-2009 10:59:42 24 C 8.05 g/m*3 24 C 0 km/h
3174 16-07-2009 11:11:41 24.7 C 8.37 g/m*3 24.7 C 0 km/h
3175 16-07-2009 11:23:42 25 C 7.6 g/m*3 25 C 0 km/h
Sensor: Nr:Datum:Temp:Abs-Feuchte:Windchill:Wind:
Aussen-T/F 3176 16-07-2009 11:35:42 25.3 C 7.96 g/m*3 25.3 C 0 km/h
3177 16-07-2009 11:47:41 25.6 C 7.86 g/m*3 25.6 C 0 km/h
3178 16-07-2009 11:59:41 26.3 C 7.92 g/m*3 26.3 C 0 km/h
3179 16-07-2009 12:11:42 27.1 C 6.73 g/m*3 27.1 C 0 km/h
3180 16-07-2009 12:23:41 28.1 C 6.56 g/m*3 28.1 C 0 km/h
3181 16-07-2009 12:35:41 29.3 C 6.13 g/m*3 29.3 C 0 km/h
3182 16-07-2009 12:47:40 29.3 C 6.13 g/m*3 29.3 C 0 km/h
3183 16-07-2009 12:59:40 29.3 C 5.84 g/m*3 29.3 C 0 km/h
3184 16-07-2009 13:11:41 29.7 C 5.97 g/m*3 29.7 C 0 km/h
3185 16-07-2009 13:23:40 30.4 C 6.2 g/m*3 30.4 C 0 km/h
3186 16-07-2009 13:35:40 30.9 C 6.37 g/m*3 30.9 C 0 km/h
3187 16-07-2009 13:47:40 30.4 C 6.2 g/m*3 30.4 C 0 km/h
3188 16-07-2009 13:59:40 31.3 C 6.5 g/m*3 31.3 C 0 km/h
3189 16-07-2009 14:11:40 30.8 C 6.33 g/m*3 30.8 C 0 km/h
3190 16-07-2009 14:23:40 30.1 C 6.1 g/m*3 30.1 C 0 km/h
3191 16-07-2009 14:35:39 30.1 C 6.1 g/m*3 30.1 C 0 km/h
3192 16-07-2009 14:47:40 29.9 C 6.03 g/m*3 29.9 C 0 km/h
3193 16-07-2009 14:59:40 30.5 C 6.23 g/m*3 30.5 C 0 km/h
3194 16-07-2009 15:11:39 30.4 C 6.2 g/m*3 30.4 C 0 km/h
3195 16-07-2009 15:23:39 30.8 C 6.33 g/m*3 30.8 C 0 km/h
3196 16-07-2009 15:35:39 31.2 C 6.47 g/m*3 31.2 C 0 km/h
3197 16-07-2009 15:47:39 31.5 C 6.57 g/m*3 31.5 C 0 km/h
3198 16-07-2009 15:59:39 31.3 C 6.5 g/m*3 31.3 C 0 km/h
3199 16-07-2009 16:11:38 31.2 C 6.47 g/m*3 31.2 C 0 km/h
3200 16-07-2009 16:23:39 31.4 C 6.54 g/m*3 31.4 C 0 km/h
Sensor: Nr:Datum:Temp:Abs-Feuchte:Windchill:Wind:
Aussen-T/F 3201 16-07-2009 16:35:39 31.4 C 6.54 g/m*3 31.4 C 0 km/h
3202 16-07-2009 16:47:38 31.5 C 6.9 g/m*3 31.5 C 0 km/h
3203 16-07-2009 16:59:38 31 C 7.36 g/m*3 31 C 0 km/h
3204 16-07-2009 17:11:39 30.6 C 8.14 g/m*3 30.6 C 0 km/h
3205 16-07-2009 17:23:38 29.9 C 9.05 g/m*3 29.9 C 0 km/h
3206 16-07-2009 17:35:38 29.3 C 9.05 g/m*3 29.3 C 0 km/h
3207 16-07-2009 17:47:37 29.1 C 8.95 g/m*3 29.1 C 0 km/h
3208 16-07-2009 17:59:37 29.8 C 9 g/m*3 29.8 C 0 km/h
3209 16-07-2009 18:11:38 31 C 8.64 g/m*3 31 C 0 km/h
3210 16-07-2009 18:23:38 30.5 C 9.35 g/m*3 30.5 C 0 km/h
3211 16-07-2009 18:35:37 30.6 C 9.08 g/m*3 30.6 C 0 km/h
3212 16-07-2009 18:47:38 31.7 C 7.64 g/m*3 31.7 C 0 km/h
3213 16-07-2009 18:59:38 32.3 C 6.86 g/m*3 32.3 C 0 km/h
3214 16-07-2009 19:11:37 32.5 C 7.28 g/m*3 32.5 C 0 km/h
3215 16-07-2009 19:23:37 32.4 C 7.24 g/m*3 32.4 C 0 km/h
3216 16-07-2009 19:35:36 32.2 C 7.51 g/m*3 32.2 C 0 km/h
3217 16-07-2009 19:47:37 31.9 C 7.72 g/m*3 31.9 C 0 km/h
3218 16-07-2009 19:59:38 31.3 C 8.46 g/m*3 31.3 C 0 km/h
3219 16-07-2009 20:11:36 29.9 C 9.35 g/m*3 29.9 C 0 km/h
3220 16-07-2009 20:23:36 28.7 C 9.04 g/m*3 28.7 C 0 km/h
3221 16-07-2009 20:35:37 28 C 8.97 g/m*3 28 C 0 km/h
3222 16-07-2009 20:47:36 26.9 C 8.96 g/m*3 26.9 C 0 km/h
3223 16-07-2009 20:59:36 26.3 C 8.91 g/m*3 26.3 C 0 km/h
3224 16-07-2009 21:11:36 25.3 C 8.9 g/m*3 25.3 C 0 km/h
3225 16-07-2009 21:23:36 24.6 C 8.55 g/m*3 24.6 C 0 km/h
Sensor: Nr:Datum:Temp:Abs-Feuchte:Windchill:Wind:
Aussen-T/F 3226 16-07-2009 21:35:36 24.2 C 8.58 g/m*3 24.2 C 0 km/h